<?xml version="1.0" encoding="UTF-8" standalone="no" ?>
<gpx xmlns="http://www.topografix.com/GPX/1/1" xmlns:xsi="http://www.w3.org/2001/XMLSchema-instance" xsi:schemaLocation="http://www.topografix.com/GPX/1/1 http://www.topografix.com/GPX/1/1/gpx.xsd" version="1.1" creator="VisuGPX - https://www.visugpx.com">
  <metadata>
    <name>Seggiovia Cibouit</name>
    <desc><![CDATA[Monetier les Bains - Telesiege Cibouit]]></desc>
  </metadata>
  <trk>
    <name><![CDATA[Seggiovia Cibouit_30 NOV 2019]]></name>
    <trkseg>
      <trkpt lat="44.97197" lon="6.50856">
        <ele>1381.07</ele>
        <time>2019-11-30T07:54:54Z</time>
      </trkpt>
      <trkpt lat="44.97197" lon="6.50855">
        <ele>1381.55</ele>
        <time>2019-11-30T07:54:55Z</time>
      </trkpt>
      <trkpt lat="44.972" lon="6.50855">
        <ele>1381.55</ele>
        <time>2019-11-30T07:55:08Z</time>
      </trkpt>
      <trkpt lat="44.97197" lon="6.50852">
        <ele>1382.51</ele>
        <time>2019-11-30T07:55:36Z</time>
      </trkpt>
      <trkpt lat="44.97199" lon="6.50853">
        <ele>1384.44</ele>
        <time>2019-11-30T07:56:19Z</time>
      </trkpt>
      <trkpt lat="44.97197" lon="6.50851">
        <ele>1386.36</ele>
        <time>2019-11-30T07:57:05Z</time>
      </trkpt>
      <trkpt lat="44.97198" lon="6.5085">
        <ele>1387.32</ele>
        <time>2019-11-30T07:57:26Z</time>
      </trkpt>
      <trkpt lat="44.97198" lon="6.50849">
        <ele>1389.24</ele>
        <time>2019-11-30T07:58:03Z</time>
      </trkpt>
      <trkpt lat="44.97197" lon="6.50846">
        <ele>1390.68</ele>
        <time>2019-11-30T07:58:42Z</time>
      </trkpt>
      <trkpt lat="44.97197" lon="6.5085">
        <ele>1393.09</ele>
        <time>2019-11-30T07:59:26Z</time>
      </trkpt>
      <trkpt lat="44.97196" lon="6.50847">
        <ele>1395.01</ele>
        <time>2019-11-30T08:00:10Z</time>
      </trkpt>
      <trkpt lat="44.97196" lon="6.50856">
        <ele>1395.97</ele>
        <time>2019-11-30T08:00:38Z</time>
      </trkpt>
      <trkpt lat="44.97198" lon="6.50858">
        <ele>1397.41</ele>
        <time>2019-11-30T08:01:11Z</time>
      </trkpt>
      <trkpt lat="44.97199" lon="6.50853">
        <ele>1398.86</ele>
        <time>2019-11-30T08:01:44Z</time>
      </trkpt>
      <trkpt lat="44.972" lon="6.50855">
        <ele>1400.3</ele>
        <time>2019-11-30T08:02:20Z</time>
      </trkpt>
      <trkpt lat="44.97197" lon="6.50849">
        <ele>1401.74</ele>
        <time>2019-11-30T08:02:51Z</time>
      </trkpt>
      <trkpt lat="44.972" lon="6.50854">
        <ele>1402.7</ele>
        <time>2019-11-30T08:03:23Z</time>
      </trkpt>
      <trkpt lat="44.97199" lon="6.50853">
        <ele>1403.66</ele>
        <time>2019-11-30T08:03:52Z</time>
      </trkpt>
      <trkpt lat="44.97199" lon="6.50854">
        <ele>1405.1</ele>
        <time>2019-11-30T08:04:30Z</time>
      </trkpt>
      <trkpt lat="44.97198" lon="6.50853">
        <ele>1406.55</ele>
        <time>2019-11-30T08:05:05Z</time>
      </trkpt>
      <trkpt lat="44.972" lon="6.50857">
        <ele>1408.47</ele>
        <time>2019-11-30T08:05:26Z</time>
      </trkpt>
      <trkpt lat="44.972" lon="6.50853">
        <ele>1408.95</ele>
        <time>2019-11-30T08:05:35Z</time>
      </trkpt>
      <trkpt lat="44.97199" lon="6.50847">
        <ele>1408.95</ele>
        <time>2019-11-30T08:05:39Z</time>
      </trkpt>
      <trkpt lat="44.97194" lon="6.50836">
        <ele>1409.43</ele>
        <time>2019-11-30T08:05:49Z</time>
      </trkpt>
      <trkpt lat="44.97179" lon="6.50829">
        <ele>1410.39</ele>
        <time>2019-11-30T08:06:06Z</time>
      </trkpt>
      <trkpt lat="44.97178" lon="6.50828">
        <ele>1410.39</ele>
        <time>2019-11-30T08:06:07Z</time>
      </trkpt>
      <trkpt lat="44.97166" lon="6.50826">
        <ele>1410.87</ele>
        <time>2019-11-30T08:06:22Z</time>
      </trkpt>
      <trkpt lat="44.97164" lon="6.50824">
        <ele>1410.87</ele>
        <time>2019-11-30T08:06:24Z</time>
      </trkpt>
      <trkpt lat="44.97153" lon="6.50824">
        <ele>1411.35</ele>
        <time>2019-11-30T08:06:39Z</time>
      </trkpt>
      <trkpt lat="44.97142" lon="6.50821">
        <ele>1411.83</ele>
        <time>2019-11-30T08:06:55Z</time>
      </trkpt>
      <trkpt lat="44.97137" lon="6.50817">
        <ele>1411.83</ele>
        <time>2019-11-30T08:07:09Z</time>
      </trkpt>
      <trkpt lat="44.97135" lon="6.50815">
        <ele>1412.31</ele>
        <time>2019-11-30T08:07:11Z</time>
      </trkpt>
      <trkpt lat="44.97131" lon="6.50813">
        <ele>1412.31</ele>
        <time>2019-11-30T08:07:15Z</time>
      </trkpt>
      <trkpt lat="44.97117" lon="6.50819">
        <ele>1413.28</ele>
        <time>2019-11-30T08:07:32Z</time>
      </trkpt>
      <trkpt lat="44.97121" lon="6.50819">
        <ele>1413.76</ele>
        <time>2019-11-30T08:07:53Z</time>
      </trkpt>
      <trkpt lat="44.97119" lon="6.50819">
        <ele>1414.72</ele>
        <time>2019-11-30T08:08:22Z</time>
      </trkpt>
      <trkpt lat="44.9712" lon="6.50819">
        <ele>1415.2</ele>
        <time>2019-11-30T08:08:39Z</time>
      </trkpt>
      <trkpt lat="44.97119" lon="6.50817">
        <ele>1416.16</ele>
        <time>2019-11-30T08:08:55Z</time>
      </trkpt>
      <trkpt lat="44.97112" lon="6.50819">
        <ele>1416.64</ele>
        <time>2019-11-30T08:09:11Z</time>
      </trkpt>
      <trkpt lat="44.97105" lon="6.50817">
        <ele>1417.6</ele>
        <time>2019-11-30T08:09:22Z</time>
      </trkpt>
      <trkpt lat="44.97102" lon="6.50819">
        <ele>1418.08</ele>
        <time>2019-11-30T08:09:36Z</time>
      </trkpt>
      <trkpt lat="44.97098" lon="6.50814">
        <ele>1418.56</ele>
        <time>2019-11-30T08:09:49Z</time>
      </trkpt>
      <trkpt lat="44.97095" lon="6.50811">
        <ele>1419.52</ele>
        <time>2019-11-30T08:10:01Z</time>
      </trkpt>
      <trkpt lat="44.97085" lon="6.50812">
        <ele>1420.49</ele>
        <time>2019-11-30T08:10:15Z</time>
      </trkpt>
      <trkpt lat="44.97075" lon="6.50814">
        <ele>1421.45</ele>
        <time>2019-11-30T08:10:29Z</time>
      </trkpt>
      <trkpt lat="44.97068" lon="6.50817">
        <ele>1422.89</ele>
        <time>2019-11-30T08:10:45Z</time>
      </trkpt>
      <trkpt lat="44.97065" lon="6.50817">
        <ele>1424.81</ele>
        <time>2019-11-30T08:11:00Z</time>
      </trkpt>
      <trkpt lat="44.97057" lon="6.50821">
        <ele>1425.29</ele>
        <time>2019-11-30T08:11:15Z</time>
      </trkpt>
      <trkpt lat="44.97055" lon="6.50822">
        <ele>1425.29</ele>
        <time>2019-11-30T08:11:17Z</time>
      </trkpt>
      <trkpt lat="44.97053" lon="6.50823">
        <ele>1425.77</ele>
        <time>2019-11-30T08:11:20Z</time>
      </trkpt>
      <trkpt lat="44.97051" lon="6.50824">
        <ele>1425.77</ele>
        <time>2019-11-30T08:11:24Z</time>
      </trkpt>
      <trkpt lat="44.97041" lon="6.50829">
        <ele>1427.7</ele>
        <time>2019-11-30T08:11:38Z</time>
      </trkpt>
      <trkpt lat="44.97037" lon="6.50834">
        <ele>1428.18</ele>
        <time>2019-11-30T08:11:53Z</time>
      </trkpt>
      <trkpt lat="44.97031" lon="6.50833">
        <ele>1429.62</ele>
        <time>2019-11-30T08:12:07Z</time>
      </trkpt>
      <trkpt lat="44.97021" lon="6.50836">
        <ele>1431.06</ele>
        <time>2019-11-30T08:12:20Z</time>
      </trkpt>
      <trkpt lat="44.97011" lon="6.50838">
        <ele>1432.98</ele>
        <time>2019-11-30T08:12:35Z</time>
      </trkpt>
      <trkpt lat="44.97008" lon="6.50838">
        <ele>1433.94</ele>
        <time>2019-11-30T08:12:39Z</time>
      </trkpt>
      <trkpt lat="44.97004" lon="6.50836">
        <ele>1434.91</ele>
        <time>2019-11-30T08:12:45Z</time>
      </trkpt>
      <trkpt lat="44.96991" lon="6.50832">
        <ele>1437.79</ele>
        <time>2019-11-30T08:13:01Z</time>
      </trkpt>
      <trkpt lat="44.96984" lon="6.50826">
        <ele>1437.31</ele>
        <time>2019-11-30T08:13:14Z</time>
      </trkpt>
      <trkpt lat="44.96977" lon="6.50826">
        <ele>1438.27</ele>
        <time>2019-11-30T08:13:27Z</time>
      </trkpt>
      <trkpt lat="44.9697" lon="6.50828">
        <ele>1439.71</ele>
        <time>2019-11-30T08:13:38Z</time>
      </trkpt>
      <trkpt lat="44.96966" lon="6.50835">
        <ele>1440.67</ele>
        <time>2019-11-30T08:13:51Z</time>
      </trkpt>
      <trkpt lat="44.96955" lon="6.50838">
        <ele>1442.11</ele>
        <time>2019-11-30T08:14:03Z</time>
      </trkpt>
      <trkpt lat="44.96947" lon="6.50841">
        <ele>1443.56</ele>
        <time>2019-11-30T08:14:15Z</time>
      </trkpt>
      <trkpt lat="44.96936" lon="6.50843">
        <ele>1445.48</ele>
        <time>2019-11-30T08:14:29Z</time>
      </trkpt>
      <trkpt lat="44.96927" lon="6.50844">
        <ele>1446.92</ele>
        <time>2019-11-30T08:14:42Z</time>
      </trkpt>
      <trkpt lat="44.96916" lon="6.50847">
        <ele>1448.36</ele>
        <time>2019-11-30T08:14:56Z</time>
      </trkpt>
      <trkpt lat="44.9691" lon="6.50856">
        <ele>1450.77</ele>
        <time>2019-11-30T08:15:10Z</time>
      </trkpt>
      <trkpt lat="44.96905" lon="6.50856">
        <ele>1451.25</ele>
        <time>2019-11-30T08:15:24Z</time>
      </trkpt>
      <trkpt lat="44.96895" lon="6.50863">
        <ele>1452.69</ele>
        <time>2019-11-30T08:15:38Z</time>
      </trkpt>
      <trkpt lat="44.96893" lon="6.50866">
        <ele>1453.17</ele>
        <time>2019-11-30T08:15:41Z</time>
      </trkpt>
      <trkpt lat="44.96887" lon="6.50875">
        <ele>1454.61</ele>
        <time>2019-11-30T08:15:54Z</time>
      </trkpt>
      <trkpt lat="44.96879" lon="6.50883">
        <ele>1456.53</ele>
        <time>2019-11-30T08:16:09Z</time>
      </trkpt>
      <trkpt lat="44.96872" lon="6.5089">
        <ele>1457.98</ele>
        <time>2019-11-30T08:16:23Z</time>
      </trkpt>
      <trkpt lat="44.96866" lon="6.50894">
        <ele>1459.9</ele>
        <time>2019-11-30T08:16:36Z</time>
      </trkpt>
      <trkpt lat="44.96855" lon="6.50902">
        <ele>1462.3</ele>
        <time>2019-11-30T08:16:52Z</time>
      </trkpt>
      <trkpt lat="44.96848" lon="6.50906">
        <ele>1464.23</ele>
        <time>2019-11-30T08:17:06Z</time>
      </trkpt>
      <trkpt lat="44.96837" lon="6.50909">
        <ele>1465.67</ele>
        <time>2019-11-30T08:17:20Z</time>
      </trkpt>
      <trkpt lat="44.96825" lon="6.50908">
        <ele>1467.11</ele>
        <time>2019-11-30T08:17:35Z</time>
      </trkpt>
      <trkpt lat="44.96823" lon="6.50907">
        <ele>1467.59</ele>
        <time>2019-11-30T08:17:37Z</time>
      </trkpt>
      <trkpt lat="44.96812" lon="6.50908">
        <ele>1469.51</ele>
        <time>2019-11-30T08:17:52Z</time>
      </trkpt>
      <trkpt lat="44.96801" lon="6.50911">
        <ele>1471.44</ele>
        <time>2019-11-30T08:18:07Z</time>
      </trkpt>
      <trkpt lat="44.96792" lon="6.50911">
        <ele>1473.36</ele>
        <time>2019-11-30T08:18:21Z</time>
      </trkpt>
      <trkpt lat="44.96784" lon="6.50913">
        <ele>1474.8</ele>
        <time>2019-11-30T08:18:32Z</time>
      </trkpt>
      <trkpt lat="44.96776" lon="6.50914">
        <ele>1476.24</ele>
        <time>2019-11-30T08:18:46Z</time>
      </trkpt>
      <trkpt lat="44.96768" lon="6.50917">
        <ele>1478.16</ele>
        <time>2019-11-30T08:19:00Z</time>
      </trkpt>
      <trkpt lat="44.96759" lon="6.50918">
        <ele>1480.09</ele>
        <time>2019-11-30T08:19:16Z</time>
      </trkpt>
      <trkpt lat="44.96751" lon="6.50921">
        <ele>1482.01</ele>
        <time>2019-11-30T08:19:29Z</time>
      </trkpt>
      <trkpt lat="44.96743" lon="6.50922">
        <ele>1483.45</ele>
        <time>2019-11-30T08:19:42Z</time>
      </trkpt>
      <trkpt lat="44.96736" lon="6.50922">
        <ele>1485.37</ele>
        <time>2019-11-30T08:19:57Z</time>
      </trkpt>
      <trkpt lat="44.96724" lon="6.50921">
        <ele>1488.26</ele>
        <time>2019-11-30T08:20:16Z</time>
      </trkpt>
      <trkpt lat="44.96716" lon="6.50922">
        <ele>1491.14</ele>
        <time>2019-11-30T08:20:32Z</time>
      </trkpt>
      <trkpt lat="44.96709" lon="6.50923">
        <ele>1493.06</ele>
        <time>2019-11-30T08:20:45Z</time>
      </trkpt>
      <trkpt lat="44.96704" lon="6.50923">
        <ele>1494.03</ele>
        <time>2019-11-30T08:20:51Z</time>
      </trkpt>
      <trkpt lat="44.96693" lon="6.50925">
        <ele>1495.47</ele>
        <time>2019-11-30T08:21:07Z</time>
      </trkpt>
      <trkpt lat="44.96684" lon="6.50931">
        <ele>1496.43</ele>
        <time>2019-11-30T08:21:21Z</time>
      </trkpt>
      <trkpt lat="44.96673" lon="6.50935">
        <ele>1498.35</ele>
        <time>2019-11-30T08:21:37Z</time>
      </trkpt>
      <trkpt lat="44.96665" lon="6.50938">
        <ele>1499.79</ele>
        <time>2019-11-30T08:21:53Z</time>
      </trkpt>
      <trkpt lat="44.96654" lon="6.50937">
        <ele>1502.2</ele>
        <time>2019-11-30T08:22:09Z</time>
      </trkpt>
      <trkpt lat="44.96644" lon="6.50935">
        <ele>1504.12</ele>
        <time>2019-11-30T08:22:23Z</time>
      </trkpt>
      <trkpt lat="44.96638" lon="6.5093">
        <ele>1506.04</ele>
        <time>2019-11-30T08:22:37Z</time>
      </trkpt>
      <trkpt lat="44.9663" lon="6.50927">
        <ele>1508.45</ele>
        <time>2019-11-30T08:22:53Z</time>
      </trkpt>
      <trkpt lat="44.96622" lon="6.50924">
        <ele>1511.81</ele>
        <time>2019-11-30T08:23:05Z</time>
      </trkpt>
      <trkpt lat="44.96615" lon="6.50918">
        <ele>1511.81</ele>
        <time>2019-11-30T08:23:18Z</time>
      </trkpt>
      <trkpt lat="44.96604" lon="6.50912">
        <ele>1514.21</ele>
        <time>2019-11-30T08:23:37Z</time>
      </trkpt>
      <trkpt lat="44.96593" lon="6.50907">
        <ele>1516.14</ele>
        <time>2019-11-30T08:23:55Z</time>
      </trkpt>
      <trkpt lat="44.9658" lon="6.50901">
        <ele>1518.06</ele>
        <time>2019-11-30T08:24:13Z</time>
      </trkpt>
      <trkpt lat="44.96572" lon="6.50893">
        <ele>1519.98</ele>
        <time>2019-11-30T08:24:29Z</time>
      </trkpt>
      <trkpt lat="44.96562" lon="6.50885">
        <ele>1522.39</ele>
        <time>2019-11-30T08:24:46Z</time>
      </trkpt>
      <trkpt lat="44.96552" lon="6.50879">
        <ele>1525.27</ele>
        <time>2019-11-30T08:25:03Z</time>
      </trkpt>
      <trkpt lat="44.96544" lon="6.50873">
        <ele>1527.19</ele>
        <time>2019-11-30T08:25:17Z</time>
      </trkpt>
      <trkpt lat="44.96535" lon="6.50869">
        <ele>1529.59</ele>
        <time>2019-11-30T08:25:33Z</time>
      </trkpt>
      <trkpt lat="44.96527" lon="6.50865">
        <ele>1531.52</ele>
        <time>2019-11-30T08:25:46Z</time>
      </trkpt>
      <trkpt lat="44.9652" lon="6.50859">
        <ele>1534.4</ele>
        <time>2019-11-30T08:26:04Z</time>
      </trkpt>
      <trkpt lat="44.96511" lon="6.50853">
        <ele>1537.29</ele>
        <time>2019-11-30T08:26:22Z</time>
      </trkpt>
      <trkpt lat="44.96502" lon="6.50848">
        <ele>1539.21</ele>
        <time>2019-11-30T08:26:37Z</time>
      </trkpt>
      <trkpt lat="44.96496" lon="6.50842">
        <ele>1542.09</ele>
        <time>2019-11-30T08:26:55Z</time>
      </trkpt>
      <trkpt lat="44.96491" lon="6.50835">
        <ele>1544.98</ele>
        <time>2019-11-30T08:27:07Z</time>
      </trkpt>
      <trkpt lat="44.96484" lon="6.50828">
        <ele>1545.94</ele>
        <time>2019-11-30T08:27:24Z</time>
      </trkpt>
      <trkpt lat="44.96477" lon="6.5082">
        <ele>1548.34</ele>
        <time>2019-11-30T08:27:43Z</time>
      </trkpt>
      <trkpt lat="44.96469" lon="6.50819">
        <ele>1551.22</ele>
        <time>2019-11-30T08:28:00Z</time>
      </trkpt>
      <trkpt lat="44.96466" lon="6.5083">
        <ele>1553.63</ele>
        <time>2019-11-30T08:28:14Z</time>
      </trkpt>
      <trkpt lat="44.96466" lon="6.50845">
        <ele>1555.07</ele>
        <time>2019-11-30T08:28:28Z</time>
      </trkpt>
      <trkpt lat="44.96467" lon="6.50862">
        <ele>1556.99</ele>
        <time>2019-11-30T08:28:46Z</time>
      </trkpt>
      <trkpt lat="44.96469" lon="6.50877">
        <ele>1558.43</ele>
        <time>2019-11-30T08:29:02Z</time>
      </trkpt>
      <trkpt lat="44.96471" lon="6.50893">
        <ele>1560.36</ele>
        <time>2019-11-30T08:29:18Z</time>
      </trkpt>
      <trkpt lat="44.96472" lon="6.50908">
        <ele>1561.8</ele>
        <time>2019-11-30T08:29:34Z</time>
      </trkpt>
      <trkpt lat="44.96475" lon="6.50922">
        <ele>1563.24</ele>
        <time>2019-11-30T08:29:48Z</time>
      </trkpt>
      <trkpt lat="44.96478" lon="6.50937">
        <ele>1564.68</ele>
        <time>2019-11-30T08:30:02Z</time>
      </trkpt>
      <trkpt lat="44.96483" lon="6.5095">
        <ele>1565.64</ele>
        <time>2019-11-30T08:30:16Z</time>
      </trkpt>
      <trkpt lat="44.96487" lon="6.50959">
        <ele>1567.09</ele>
        <time>2019-11-30T08:30:25Z</time>
      </trkpt>
      <trkpt lat="44.96489" lon="6.50974">
        <ele>1568.05</ele>
        <time>2019-11-30T08:30:41Z</time>
      </trkpt>
      <trkpt lat="44.96485" lon="6.50982">
        <ele>1569.49</ele>
        <time>2019-11-30T08:30:54Z</time>
      </trkpt>
      <trkpt lat="44.96481" lon="6.50982">
        <ele>1570.93</ele>
        <time>2019-11-30T08:31:06Z</time>
      </trkpt>
      <trkpt lat="44.96477" lon="6.50986">
        <ele>1571.89</ele>
        <time>2019-11-30T08:31:19Z</time>
      </trkpt>
      <trkpt lat="44.96472" lon="6.50997">
        <ele>1573.33</ele>
        <time>2019-11-30T08:31:35Z</time>
      </trkpt>
      <trkpt lat="44.96464" lon="6.51005">
        <ele>1574.78</ele>
        <time>2019-11-30T08:31:49Z</time>
      </trkpt>
      <trkpt lat="44.96462" lon="6.51006">
        <ele>1575.26</ele>
        <time>2019-11-30T08:32:01Z</time>
      </trkpt>
      <trkpt lat="44.96462" lon="6.51007">
        <ele>1574.3</ele>
        <time>2019-11-30T08:32:18Z</time>
      </trkpt>
      <trkpt lat="44.96461" lon="6.51004">
        <ele>1574.78</ele>
        <time>2019-11-30T08:32:42Z</time>
      </trkpt>
      <trkpt lat="44.96464" lon="6.51004">
        <ele>1575.26</ele>
        <time>2019-11-30T08:33:14Z</time>
      </trkpt>
      <trkpt lat="44.96463" lon="6.51002">
        <ele>1575.74</ele>
        <time>2019-11-30T08:33:53Z</time>
      </trkpt>
      <trkpt lat="44.96461" lon="6.51003">
        <ele>1577.18</ele>
        <time>2019-11-30T08:34:13Z</time>
      </trkpt>
      <trkpt lat="44.96458" lon="6.51002">
        <ele>1577.66</ele>
        <time>2019-11-30T08:34:26Z</time>
      </trkpt>
      <trkpt lat="44.9645" lon="6.51005">
        <ele>1579.58</ele>
        <time>2019-11-30T08:34:40Z</time>
      </trkpt>
      <trkpt lat="44.9644" lon="6.51009">
        <ele>1581.99</ele>
        <time>2019-11-30T08:34:58Z</time>
      </trkpt>
      <trkpt lat="44.96434" lon="6.5101">
        <ele>1585.83</ele>
        <time>2019-11-30T08:35:11Z</time>
      </trkpt>
      <trkpt lat="44.96428" lon="6.51016">
        <ele>1586.31</ele>
        <time>2019-11-30T08:35:28Z</time>
      </trkpt>
      <trkpt lat="44.96424" lon="6.51016">
        <ele>1587.75</ele>
        <time>2019-11-30T08:35:42Z</time>
      </trkpt>
      <trkpt lat="44.96421" lon="6.51016">
        <ele>1589.2</ele>
        <time>2019-11-30T08:35:56Z</time>
      </trkpt>
      <trkpt lat="44.9642" lon="6.51011">
        <ele>1591.12</ele>
        <time>2019-11-30T08:36:08Z</time>
      </trkpt>
      <trkpt lat="44.96418" lon="6.51004">
        <ele>1592.56</ele>
        <time>2019-11-30T08:36:22Z</time>
      </trkpt>
      <trkpt lat="44.96417" lon="6.50997">
        <ele>1594.96</ele>
        <time>2019-11-30T08:36:37Z</time>
      </trkpt>
      <trkpt lat="44.96415" lon="6.50989">
        <ele>1596.89</ele>
        <time>2019-11-30T08:36:51Z</time>
      </trkpt>
      <trkpt lat="44.96412" lon="6.50981">
        <ele>1598.33</ele>
        <time>2019-11-30T08:37:05Z</time>
      </trkpt>
      <trkpt lat="44.9641" lon="6.50975">
        <ele>1600.25</ele>
        <time>2019-11-30T08:37:19Z</time>
      </trkpt>
      <trkpt lat="44.96407" lon="6.50967">
        <ele>1602.66</ele>
        <time>2019-11-30T08:37:34Z</time>
      </trkpt>
      <trkpt lat="44.96404" lon="6.50962">
        <ele>1604.58</ele>
        <time>2019-11-30T08:37:49Z</time>
      </trkpt>
      <trkpt lat="44.96401" lon="6.50956">
        <ele>1606.98</ele>
        <time>2019-11-30T08:38:03Z</time>
      </trkpt>
      <trkpt lat="44.96395" lon="6.50955">
        <ele>1608.42</ele>
        <time>2019-11-30T08:38:19Z</time>
      </trkpt>
      <trkpt lat="44.96392" lon="6.50957">
        <ele>1609.86</ele>
        <time>2019-11-30T08:38:32Z</time>
      </trkpt>
      <trkpt lat="44.96387" lon="6.50959">
        <ele>1612.27</ele>
        <time>2019-11-30T08:38:46Z</time>
      </trkpt>
      <trkpt lat="44.96382" lon="6.50957">
        <ele>1613.71</ele>
        <time>2019-11-30T08:38:59Z</time>
      </trkpt>
      <trkpt lat="44.96378" lon="6.50956">
        <ele>1617.56</ele>
        <time>2019-11-30T08:39:13Z</time>
      </trkpt>
      <trkpt lat="44.96373" lon="6.50955">
        <ele>1617.56</ele>
        <time>2019-11-30T08:39:27Z</time>
      </trkpt>
      <trkpt lat="44.96367" lon="6.50953">
        <ele>1619.96</ele>
        <time>2019-11-30T08:39:41Z</time>
      </trkpt>
      <trkpt lat="44.96362" lon="6.50952">
        <ele>1621.4</ele>
        <time>2019-11-30T08:39:55Z</time>
      </trkpt>
      <trkpt lat="44.96357" lon="6.50954">
        <ele>1623.32</ele>
        <time>2019-11-30T08:40:08Z</time>
      </trkpt>
      <trkpt lat="44.96351" lon="6.50954">
        <ele>1625.25</ele>
        <time>2019-11-30T08:40:23Z</time>
      </trkpt>
      <trkpt lat="44.96346" lon="6.50953">
        <ele>1627.17</ele>
        <time>2019-11-30T08:40:38Z</time>
      </trkpt>
      <trkpt lat="44.96341" lon="6.50951">
        <ele>1629.09</ele>
        <time>2019-11-30T08:40:52Z</time>
      </trkpt>
      <trkpt lat="44.96337" lon="6.50949">
        <ele>1630.05</ele>
        <time>2019-11-30T08:41:04Z</time>
      </trkpt>
      <trkpt lat="44.96331" lon="6.50946">
        <ele>1631.98</ele>
        <time>2019-11-30T08:41:19Z</time>
      </trkpt>
      <trkpt lat="44.96325" lon="6.50943">
        <ele>1633.9</ele>
        <time>2019-11-30T08:41:34Z</time>
      </trkpt>
      <trkpt lat="44.96319" lon="6.50944">
        <ele>1636.3</ele>
        <time>2019-11-30T08:41:50Z</time>
      </trkpt>
      <trkpt lat="44.96314" lon="6.50941">
        <ele>1638.22</ele>
        <time>2019-11-30T08:42:05Z</time>
      </trkpt>
      <trkpt lat="44.96307" lon="6.5094">
        <ele>1640.63</ele>
        <time>2019-11-30T08:42:21Z</time>
      </trkpt>
      <trkpt lat="44.963" lon="6.50939">
        <ele>1642.07</ele>
        <time>2019-11-30T08:42:35Z</time>
      </trkpt>
      <trkpt lat="44.96294" lon="6.50938">
        <ele>1643.99</ele>
        <time>2019-11-30T08:42:50Z</time>
      </trkpt>
      <trkpt lat="44.96287" lon="6.50936">
        <ele>1646.4</ele>
        <time>2019-11-30T08:43:06Z</time>
      </trkpt>
      <trkpt lat="44.9628" lon="6.50936">
        <ele>1648.32</ele>
        <time>2019-11-30T08:43:21Z</time>
      </trkpt>
      <trkpt lat="44.96275" lon="6.50936">
        <ele>1650.24</ele>
        <time>2019-11-30T08:43:36Z</time>
      </trkpt>
      <trkpt lat="44.9627" lon="6.50935">
        <ele>1651.68</ele>
        <time>2019-11-30T08:43:49Z</time>
      </trkpt>
      <trkpt lat="44.96267" lon="6.50934">
        <ele>1653.12</ele>
        <time>2019-11-30T08:44:03Z</time>
      </trkpt>
      <trkpt lat="44.96263" lon="6.50934">
        <ele>1654.09</ele>
        <time>2019-11-30T08:44:18Z</time>
      </trkpt>
      <trkpt lat="44.96261" lon="6.50931">
        <ele>1655.53</ele>
        <time>2019-11-30T08:44:29Z</time>
      </trkpt>
      <trkpt lat="44.96258" lon="6.50929">
        <ele>1656.49</ele>
        <time>2019-11-30T08:44:50Z</time>
      </trkpt>
      <trkpt lat="44.96254" lon="6.50928">
        <ele>1657.93</ele>
        <time>2019-11-30T08:45:06Z</time>
      </trkpt>
      <trkpt lat="44.96252" lon="6.50925">
        <ele>1659.85</ele>
        <time>2019-11-30T08:45:22Z</time>
      </trkpt>
      <trkpt lat="44.96248" lon="6.50925">
        <ele>1661.3</ele>
        <time>2019-11-30T08:45:37Z</time>
      </trkpt>
      <trkpt lat="44.96243" lon="6.50924">
        <ele>1663.22</ele>
        <time>2019-11-30T08:45:52Z</time>
      </trkpt>
      <trkpt lat="44.96239" lon="6.50922">
        <ele>1665.14</ele>
        <time>2019-11-30T08:46:05Z</time>
      </trkpt>
      <trkpt lat="44.96234" lon="6.5092">
        <ele>1667.06</ele>
        <time>2019-11-30T08:46:19Z</time>
      </trkpt>
      <trkpt lat="44.96232" lon="6.50919">
        <ele>1668.51</ele>
        <time>2019-11-30T08:46:32Z</time>
      </trkpt>
      <trkpt lat="44.9623" lon="6.50917">
        <ele>1669.95</ele>
        <time>2019-11-30T08:46:45Z</time>
      </trkpt>
      <trkpt lat="44.96228" lon="6.50914">
        <ele>1671.87</ele>
        <time>2019-11-30T08:46:57Z</time>
      </trkpt>
      <trkpt lat="44.96225" lon="6.5091">
        <ele>1673.31</ele>
        <time>2019-11-30T08:47:10Z</time>
      </trkpt>
      <trkpt lat="44.96223" lon="6.50906">
        <ele>1674.75</ele>
        <time>2019-11-30T08:47:24Z</time>
      </trkpt>
      <trkpt lat="44.96221" lon="6.50903">
        <ele>1676.2</ele>
        <time>2019-11-30T08:47:37Z</time>
      </trkpt>
      <trkpt lat="44.96218" lon="6.50899">
        <ele>1678.12</ele>
        <time>2019-11-30T08:47:52Z</time>
      </trkpt>
      <trkpt lat="44.96214" lon="6.50895">
        <ele>1680.04</ele>
        <time>2019-11-30T08:48:07Z</time>
      </trkpt>
      <trkpt lat="44.96211" lon="6.5089">
        <ele>1681.48</ele>
        <time>2019-11-30T08:48:22Z</time>
      </trkpt>
      <trkpt lat="44.96208" lon="6.50895">
        <ele>1682.44</ele>
        <time>2019-11-30T08:48:35Z</time>
      </trkpt>
      <trkpt lat="44.96199" lon="6.50897">
        <ele>1683.89</ele>
        <time>2019-11-30T08:48:50Z</time>
      </trkpt>
      <trkpt lat="44.96197" lon="6.50892">
        <ele>1685.81</ele>
        <time>2019-11-30T08:49:05Z</time>
      </trkpt>
      <trkpt lat="44.96193" lon="6.50888">
        <ele>1689.17</ele>
        <time>2019-11-30T08:49:18Z</time>
      </trkpt>
      <trkpt lat="44.96189" lon="6.50885">
        <ele>1689.17</ele>
        <time>2019-11-30T08:49:32Z</time>
      </trkpt>
      <trkpt lat="44.96186" lon="6.50881">
        <ele>1690.62</ele>
        <time>2019-11-30T08:49:47Z</time>
      </trkpt>
      <trkpt lat="44.9618" lon="6.50882">
        <ele>1692.54</ele>
        <time>2019-11-30T08:50:03Z</time>
      </trkpt>
      <trkpt lat="44.96177" lon="6.50886">
        <ele>1693.98</ele>
        <time>2019-11-30T08:50:17Z</time>
      </trkpt>
      <trkpt lat="44.96174" lon="6.50889">
        <ele>1695.42</ele>
        <time>2019-11-30T08:50:29Z</time>
      </trkpt>
      <trkpt lat="44.96171" lon="6.50891">
        <ele>1697.34</ele>
        <time>2019-11-30T08:50:43Z</time>
      </trkpt>
      <trkpt lat="44.96167" lon="6.50896">
        <ele>1698.79</ele>
        <time>2019-11-30T08:50:59Z</time>
      </trkpt>
      <trkpt lat="44.96165" lon="6.509">
        <ele>1700.23</ele>
        <time>2019-11-30T08:51:13Z</time>
      </trkpt>
      <trkpt lat="44.96162" lon="6.50904">
        <ele>1701.67</ele>
        <time>2019-11-30T08:51:28Z</time>
      </trkpt>
      <trkpt lat="44.96159" lon="6.50907">
        <ele>1703.11</ele>
        <time>2019-11-30T08:51:40Z</time>
      </trkpt>
      <trkpt lat="44.96156" lon="6.50908">
        <ele>1704.07</ele>
        <time>2019-11-30T08:51:53Z</time>
      </trkpt>
      <trkpt lat="44.96153" lon="6.50909">
        <ele>1705.52</ele>
        <time>2019-11-30T08:52:05Z</time>
      </trkpt>
      <trkpt lat="44.96151" lon="6.50906">
        <ele>1706.96</ele>
        <time>2019-11-30T08:52:19Z</time>
      </trkpt>
      <trkpt lat="44.9615" lon="6.50902">
        <ele>1708.4</ele>
        <time>2019-11-30T08:52:33Z</time>
      </trkpt>
      <trkpt lat="44.96148" lon="6.50897">
        <ele>1709.36</ele>
        <time>2019-11-30T08:52:46Z</time>
      </trkpt>
      <trkpt lat="44.96146" lon="6.50894">
        <ele>1711.28</ele>
        <time>2019-11-30T08:52:59Z</time>
      </trkpt>
      <trkpt lat="44.96144" lon="6.5089">
        <ele>1712.25</ele>
        <time>2019-11-30T08:53:12Z</time>
      </trkpt>
      <trkpt lat="44.96141" lon="6.50883">
        <ele>1713.69</ele>
        <time>2019-11-30T08:53:26Z</time>
      </trkpt>
      <trkpt lat="44.9614" lon="6.5088">
        <ele>1715.13</ele>
        <time>2019-11-30T08:53:39Z</time>
      </trkpt>
      <trkpt lat="44.96138" lon="6.50874">
        <ele>1716.57</ele>
        <time>2019-11-30T08:53:54Z</time>
      </trkpt>
      <trkpt lat="44.96136" lon="6.5087">
        <ele>1718.01</ele>
        <time>2019-11-30T08:54:07Z</time>
      </trkpt>
      <trkpt lat="44.96133" lon="6.50869">
        <ele>1718.97</ele>
        <time>2019-11-30T08:54:19Z</time>
      </trkpt>
      <trkpt lat="44.9613" lon="6.50874">
        <ele>1720.42</ele>
        <time>2019-11-30T08:54:32Z</time>
      </trkpt>
      <trkpt lat="44.96127" lon="6.50878">
        <ele>1721.86</ele>
        <time>2019-11-30T08:54:46Z</time>
      </trkpt>
      <trkpt lat="44.96125" lon="6.5088">
        <ele>1722.82</ele>
        <time>2019-11-30T08:55:01Z</time>
      </trkpt>
      <trkpt lat="44.96121" lon="6.50882">
        <ele>1724.26</ele>
        <time>2019-11-30T08:55:13Z</time>
      </trkpt>
      <trkpt lat="44.96117" lon="6.50884">
        <ele>1725.7</ele>
        <time>2019-11-30T08:55:28Z</time>
      </trkpt>
      <trkpt lat="44.96114" lon="6.50885">
        <ele>1727.15</ele>
        <time>2019-11-30T08:55:42Z</time>
      </trkpt>
      <trkpt lat="44.96113" lon="6.50882">
        <ele>1729.07</ele>
        <time>2019-11-30T08:55:57Z</time>
      </trkpt>
      <trkpt lat="44.96111" lon="6.50879">
        <ele>1730.03</ele>
        <time>2019-11-30T08:56:10Z</time>
      </trkpt>
      <trkpt lat="44.9611" lon="6.50876">
        <ele>1731.47</ele>
        <time>2019-11-30T08:56:22Z</time>
      </trkpt>
      <trkpt lat="44.96108" lon="6.5087">
        <ele>1732.91</ele>
        <time>2019-11-30T08:56:36Z</time>
      </trkpt>
      <trkpt lat="44.96107" lon="6.50867">
        <ele>1733.88</ele>
        <time>2019-11-30T08:56:48Z</time>
      </trkpt>
      <trkpt lat="44.96104" lon="6.50862">
        <ele>1735.32</ele>
        <time>2019-11-30T08:57:01Z</time>
      </trkpt>
      <trkpt lat="44.96102" lon="6.50859">
        <ele>1736.28</ele>
        <time>2019-11-30T08:57:12Z</time>
      </trkpt>
      <trkpt lat="44.961" lon="6.50856">
        <ele>1737.24</ele>
        <time>2019-11-30T08:57:24Z</time>
      </trkpt>
      <trkpt lat="44.96095" lon="6.50853">
        <ele>1739.16</ele>
        <time>2019-11-30T08:57:40Z</time>
      </trkpt>
      <trkpt lat="44.96093" lon="6.50851">
        <ele>1740.6</ele>
        <time>2019-11-30T08:57:54Z</time>
      </trkpt>
      <trkpt lat="44.9609" lon="6.50851">
        <ele>1742.05</ele>
        <time>2019-11-30T08:58:09Z</time>
      </trkpt>
      <trkpt lat="44.96085" lon="6.50849">
        <ele>1743.97</ele>
        <time>2019-11-30T08:58:23Z</time>
      </trkpt>
      <trkpt lat="44.96081" lon="6.50846">
        <ele>1745.89</ele>
        <time>2019-11-30T08:58:38Z</time>
      </trkpt>
      <trkpt lat="44.96076" lon="6.50843">
        <ele>1747.33</ele>
        <time>2019-11-30T08:58:53Z</time>
      </trkpt>
      <trkpt lat="44.96071" lon="6.50842">
        <ele>1748.78</ele>
        <time>2019-11-30T08:59:07Z</time>
      </trkpt>
      <trkpt lat="44.96067" lon="6.50841">
        <ele>1750.7</ele>
        <time>2019-11-30T08:59:21Z</time>
      </trkpt>
      <trkpt lat="44.96062" lon="6.50839">
        <ele>1752.14</ele>
        <time>2019-11-30T08:59:36Z</time>
      </trkpt>
      <trkpt lat="44.96057" lon="6.50836">
        <ele>1753.1</ele>
        <time>2019-11-30T08:59:50Z</time>
      </trkpt>
      <trkpt lat="44.96052" lon="6.50832">
        <ele>1754.54</ele>
        <time>2019-11-30T09:00:03Z</time>
      </trkpt>
      <trkpt lat="44.96048" lon="6.50829">
        <ele>1755.99</ele>
        <time>2019-11-30T09:00:18Z</time>
      </trkpt>
      <trkpt lat="44.96045" lon="6.50825">
        <ele>1757.43</ele>
        <time>2019-11-30T09:00:32Z</time>
      </trkpt>
      <trkpt lat="44.96042" lon="6.50819">
        <ele>1758.87</ele>
        <time>2019-11-30T09:00:46Z</time>
      </trkpt>
      <trkpt lat="44.96037" lon="6.50814">
        <ele>1760.31</ele>
        <time>2019-11-30T09:01:00Z</time>
      </trkpt>
      <trkpt lat="44.96032" lon="6.50809">
        <ele>1761.75</ele>
        <time>2019-11-30T09:01:13Z</time>
      </trkpt>
      <trkpt lat="44.96026" lon="6.50806">
        <ele>1763.2</ele>
        <time>2019-11-30T09:01:28Z</time>
      </trkpt>
      <trkpt lat="44.9602" lon="6.508">
        <ele>1764.64</ele>
        <time>2019-11-30T09:01:44Z</time>
      </trkpt>
      <trkpt lat="44.96014" lon="6.50795">
        <ele>1766.08</ele>
        <time>2019-11-30T09:02:00Z</time>
      </trkpt>
      <trkpt lat="44.96009" lon="6.50791">
        <ele>1767.52</ele>
        <time>2019-11-30T09:02:14Z</time>
      </trkpt>
      <trkpt lat="44.96005" lon="6.50786">
        <ele>1768.96</ele>
        <time>2019-11-30T09:02:27Z</time>
      </trkpt>
      <trkpt lat="44.96002" lon="6.50783">
        <ele>1770.41</ele>
        <time>2019-11-30T09:02:42Z</time>
      </trkpt>
      <trkpt lat="44.95999" lon="6.50779">
        <ele>1771.85</ele>
        <time>2019-11-30T09:02:56Z</time>
      </trkpt>
      <trkpt lat="44.95996" lon="6.50776">
        <ele>1773.29</ele>
        <time>2019-11-30T09:03:11Z</time>
      </trkpt>
      <trkpt lat="44.95991" lon="6.50774">
        <ele>1776.65</ele>
        <time>2019-11-30T09:03:25Z</time>
      </trkpt>
      <trkpt lat="44.95988" lon="6.50777">
        <ele>1776.65</ele>
        <time>2019-11-30T09:03:38Z</time>
      </trkpt>
      <trkpt lat="44.95984" lon="6.5078">
        <ele>1778.1</ele>
        <time>2019-11-30T09:03:52Z</time>
      </trkpt>
      <trkpt lat="44.95981" lon="6.50783">
        <ele>1779.54</ele>
        <time>2019-11-30T09:04:07Z</time>
      </trkpt>
      <trkpt lat="44.95976" lon="6.50788">
        <ele>1781.46</ele>
        <time>2019-11-30T09:04:24Z</time>
      </trkpt>
      <trkpt lat="44.95972" lon="6.50791">
        <ele>1782.9</ele>
        <time>2019-11-30T09:04:39Z</time>
      </trkpt>
      <trkpt lat="44.95969" lon="6.50792">
        <ele>1784.34</ele>
        <time>2019-11-30T09:04:54Z</time>
      </trkpt>
      <trkpt lat="44.95967" lon="6.50788">
        <ele>1785.79</ele>
        <time>2019-11-30T09:05:08Z</time>
      </trkpt>
      <trkpt lat="44.95964" lon="6.50784">
        <ele>1787.23</ele>
        <time>2019-11-30T09:05:22Z</time>
      </trkpt>
      <trkpt lat="44.95962" lon="6.50781">
        <ele>1788.19</ele>
        <time>2019-11-30T09:05:35Z</time>
      </trkpt>
      <trkpt lat="44.9596" lon="6.50775">
        <ele>1789.63</ele>
        <time>2019-11-30T09:05:51Z</time>
      </trkpt>
      <trkpt lat="44.95957" lon="6.5077">
        <ele>1791.55</ele>
        <time>2019-11-30T09:06:06Z</time>
      </trkpt>
      <trkpt lat="44.95951" lon="6.50764">
        <ele>1793</ele>
        <time>2019-11-30T09:06:20Z</time>
      </trkpt>
      <trkpt lat="44.95947" lon="6.50759">
        <ele>1794.44</ele>
        <time>2019-11-30T09:06:40Z</time>
      </trkpt>
      <trkpt lat="44.9594" lon="6.50755">
        <ele>1795.88</ele>
        <time>2019-11-30T09:06:54Z</time>
      </trkpt>
      <trkpt lat="44.9593" lon="6.5075">
        <ele>1796.84</ele>
        <time>2019-11-30T09:07:09Z</time>
      </trkpt>
      <trkpt lat="44.95925" lon="6.50747">
        <ele>1798.28</ele>
        <time>2019-11-30T09:07:24Z</time>
      </trkpt>
      <trkpt lat="44.95918" lon="6.50742">
        <ele>1799.73</ele>
        <time>2019-11-30T09:07:39Z</time>
      </trkpt>
      <trkpt lat="44.95909" lon="6.50736">
        <ele>1801.65</ele>
        <time>2019-11-30T09:07:58Z</time>
      </trkpt>
      <trkpt lat="44.95902" lon="6.50731">
        <ele>1802.61</ele>
        <time>2019-11-30T09:08:13Z</time>
      </trkpt>
      <trkpt lat="44.95893" lon="6.50726">
        <ele>1804.05</ele>
        <time>2019-11-30T09:08:30Z</time>
      </trkpt>
      <trkpt lat="44.95884" lon="6.50721">
        <ele>1805.49</ele>
        <time>2019-11-30T09:08:46Z</time>
      </trkpt>
      <trkpt lat="44.95879" lon="6.50718">
        <ele>1806.94</ele>
        <time>2019-11-30T09:09:00Z</time>
      </trkpt>
      <trkpt lat="44.95874" lon="6.50716">
        <ele>1807.9</ele>
        <time>2019-11-30T09:09:13Z</time>
      </trkpt>
      <trkpt lat="44.95869" lon="6.50714">
        <ele>1809.82</ele>
        <time>2019-11-30T09:09:26Z</time>
      </trkpt>
      <trkpt lat="44.95863" lon="6.50714">
        <ele>1811.74</ele>
        <time>2019-11-30T09:09:41Z</time>
      </trkpt>
      <trkpt lat="44.95858" lon="6.50712">
        <ele>1812.7</ele>
        <time>2019-11-30T09:09:55Z</time>
      </trkpt>
      <trkpt lat="44.95856" lon="6.50713">
        <ele>1814.15</ele>
        <time>2019-11-30T09:10:08Z</time>
      </trkpt>
      <trkpt lat="44.95852" lon="6.50711">
        <ele>1816.07</ele>
        <time>2019-11-30T09:10:23Z</time>
      </trkpt>
      <trkpt lat="44.95848" lon="6.50708">
        <ele>1817.99</ele>
        <time>2019-11-30T09:10:38Z</time>
      </trkpt>
      <trkpt lat="44.95845" lon="6.50705">
        <ele>1819.91</ele>
        <time>2019-11-30T09:10:53Z</time>
      </trkpt>
      <trkpt lat="44.95841" lon="6.50702">
        <ele>1821.84</ele>
        <time>2019-11-30T09:11:07Z</time>
      </trkpt>
      <trkpt lat="44.95838" lon="6.507">
        <ele>1823.28</ele>
        <time>2019-11-30T09:11:22Z</time>
      </trkpt>
      <trkpt lat="44.95834" lon="6.50697">
        <ele>1825.2</ele>
        <time>2019-11-30T09:11:37Z</time>
      </trkpt>
      <trkpt lat="44.95831" lon="6.50696">
        <ele>1827.6</ele>
        <time>2019-11-30T09:11:53Z</time>
      </trkpt>
      <trkpt lat="44.95827" lon="6.50695">
        <ele>1829.05</ele>
        <time>2019-11-30T09:12:07Z</time>
      </trkpt>
      <trkpt lat="44.95823" lon="6.50691">
        <ele>1830.97</ele>
        <time>2019-11-30T09:12:21Z</time>
      </trkpt>
      <trkpt lat="44.9582" lon="6.50689">
        <ele>1832.41</ele>
        <time>2019-11-30T09:12:35Z</time>
      </trkpt>
      <trkpt lat="44.95815" lon="6.50684">
        <ele>1834.81</ele>
        <time>2019-11-30T09:12:49Z</time>
      </trkpt>
      <trkpt lat="44.95809" lon="6.50682">
        <ele>1835.77</ele>
        <time>2019-11-30T09:13:04Z</time>
      </trkpt>
      <trkpt lat="44.95803" lon="6.5068">
        <ele>1836.74</ele>
        <time>2019-11-30T09:13:17Z</time>
      </trkpt>
      <trkpt lat="44.95797" lon="6.50678">
        <ele>1838.18</ele>
        <time>2019-11-30T09:13:32Z</time>
      </trkpt>
      <trkpt lat="44.9579" lon="6.50675">
        <ele>1840.1</ele>
        <time>2019-11-30T09:13:48Z</time>
      </trkpt>
      <trkpt lat="44.95784" lon="6.50673">
        <ele>1841.54</ele>
        <time>2019-11-30T09:14:03Z</time>
      </trkpt>
      <trkpt lat="44.95777" lon="6.50671">
        <ele>1842.98</ele>
        <time>2019-11-30T09:14:17Z</time>
      </trkpt>
      <trkpt lat="44.95773" lon="6.5067">
        <ele>1843.95</ele>
        <time>2019-11-30T09:14:30Z</time>
      </trkpt>
      <trkpt lat="44.95765" lon="6.50668">
        <ele>1845.39</ele>
        <time>2019-11-30T09:14:45Z</time>
      </trkpt>
      <trkpt lat="44.9576" lon="6.50666">
        <ele>1846.83</ele>
        <time>2019-11-30T09:15:00Z</time>
      </trkpt>
      <trkpt lat="44.95758" lon="6.50666">
        <ele>1848.75</ele>
        <time>2019-11-30T09:15:15Z</time>
      </trkpt>
      <trkpt lat="44.95752" lon="6.50668">
        <ele>1850.68</ele>
        <time>2019-11-30T09:15:30Z</time>
      </trkpt>
      <trkpt lat="44.95747" lon="6.50672">
        <ele>1852.6</ele>
        <time>2019-11-30T09:15:44Z</time>
      </trkpt>
      <trkpt lat="44.95744" lon="6.50672">
        <ele>1854.52</ele>
        <time>2019-11-30T09:15:58Z</time>
      </trkpt>
      <trkpt lat="44.9574" lon="6.50674">
        <ele>1855.96</ele>
        <time>2019-11-30T09:16:11Z</time>
      </trkpt>
      <trkpt lat="44.95737" lon="6.50673">
        <ele>1857.89</ele>
        <time>2019-11-30T09:16:25Z</time>
      </trkpt>
      <trkpt lat="44.95736" lon="6.50667">
        <ele>1859.33</ele>
        <time>2019-11-30T09:16:42Z</time>
      </trkpt>
      <trkpt lat="44.95733" lon="6.50663">
        <ele>1860.77</ele>
        <time>2019-11-30T09:16:54Z</time>
      </trkpt>
      <trkpt lat="44.9573" lon="6.50657">
        <ele>1862.21</ele>
        <time>2019-11-30T09:17:08Z</time>
      </trkpt>
      <trkpt lat="44.95728" lon="6.50653">
        <ele>1863.65</ele>
        <time>2019-11-30T09:17:21Z</time>
      </trkpt>
      <trkpt lat="44.95724" lon="6.50655">
        <ele>1865.09</ele>
        <time>2019-11-30T09:17:35Z</time>
      </trkpt>
      <trkpt lat="44.9572" lon="6.50657">
        <ele>1867.02</ele>
        <time>2019-11-30T09:17:52Z</time>
      </trkpt>
      <trkpt lat="44.95718" lon="6.50652">
        <ele>1868.46</ele>
        <time>2019-11-30T09:18:05Z</time>
      </trkpt>
      <trkpt lat="44.95714" lon="6.50649">
        <ele>1870.38</ele>
        <time>2019-11-30T09:18:20Z</time>
      </trkpt>
      <trkpt lat="44.95711" lon="6.50646">
        <ele>1871.82</ele>
        <time>2019-11-30T09:18:34Z</time>
      </trkpt>
      <trkpt lat="44.95705" lon="6.50642">
        <ele>1873.75</ele>
        <time>2019-11-30T09:18:48Z</time>
      </trkpt>
      <trkpt lat="44.95701" lon="6.50643">
        <ele>1875.19</ele>
        <time>2019-11-30T09:19:03Z</time>
      </trkpt>
      <trkpt lat="44.95697" lon="6.50644">
        <ele>1876.15</ele>
        <time>2019-11-30T09:19:16Z</time>
      </trkpt>
      <trkpt lat="44.95692" lon="6.50645">
        <ele>1878.07</ele>
        <time>2019-11-30T09:19:31Z</time>
      </trkpt>
      <trkpt lat="44.95686" lon="6.50647">
        <ele>1880</ele>
        <time>2019-11-30T09:19:46Z</time>
      </trkpt>
      <trkpt lat="44.95681" lon="6.50645">
        <ele>1881.44</ele>
        <time>2019-11-30T09:20:00Z</time>
      </trkpt>
      <trkpt lat="44.95677" lon="6.50643">
        <ele>1882.88</ele>
        <time>2019-11-30T09:20:14Z</time>
      </trkpt>
      <trkpt lat="44.95671" lon="6.50641">
        <ele>1884.8</ele>
        <time>2019-11-30T09:20:29Z</time>
      </trkpt>
      <trkpt lat="44.95665" lon="6.50638">
        <ele>1886.24</ele>
        <time>2019-11-30T09:20:44Z</time>
      </trkpt>
      <trkpt lat="44.9566" lon="6.50635">
        <ele>1888.17</ele>
        <time>2019-11-30T09:21:00Z</time>
      </trkpt>
      <trkpt lat="44.95655" lon="6.5063">
        <ele>1890.09</ele>
        <time>2019-11-30T09:21:16Z</time>
      </trkpt>
      <trkpt lat="44.95651" lon="6.50629">
        <ele>1892.01</ele>
        <time>2019-11-30T09:21:31Z</time>
      </trkpt>
      <trkpt lat="44.95648" lon="6.50625">
        <ele>1893.45</ele>
        <time>2019-11-30T09:21:45Z</time>
      </trkpt>
      <trkpt lat="44.95643" lon="6.50623">
        <ele>1894.9</ele>
        <time>2019-11-30T09:22:00Z</time>
      </trkpt>
      <trkpt lat="44.95638" lon="6.50622">
        <ele>1896.82</ele>
        <time>2019-11-30T09:22:17Z</time>
      </trkpt>
      <trkpt lat="44.95633" lon="6.50618">
        <ele>1898.74</ele>
        <time>2019-11-30T09:22:33Z</time>
      </trkpt>
      <trkpt lat="44.95629" lon="6.50617">
        <ele>1900.66</ele>
        <time>2019-11-30T09:22:48Z</time>
      </trkpt>
      <trkpt lat="44.95626" lon="6.50616">
        <ele>1902.11</ele>
        <time>2019-11-30T09:23:02Z</time>
      </trkpt>
      <trkpt lat="44.9562" lon="6.50614">
        <ele>1903.55</ele>
        <time>2019-11-30T09:23:17Z</time>
      </trkpt>
      <trkpt lat="44.95615" lon="6.50614">
        <ele>1904.99</ele>
        <time>2019-11-30T09:23:31Z</time>
      </trkpt>
      <trkpt lat="44.95611" lon="6.50616">
        <ele>1906.91</ele>
        <time>2019-11-30T09:23:46Z</time>
      </trkpt>
      <trkpt lat="44.95605" lon="6.50618">
        <ele>1909.32</ele>
        <time>2019-11-30T09:24:03Z</time>
      </trkpt>
      <trkpt lat="44.956" lon="6.50618">
        <ele>1910.76</ele>
        <time>2019-11-30T09:24:17Z</time>
      </trkpt>
      <trkpt lat="44.95595" lon="6.5062">
        <ele>1912.2</ele>
        <time>2019-11-30T09:24:30Z</time>
      </trkpt>
      <trkpt lat="44.95591" lon="6.50616">
        <ele>1914.12</ele>
        <time>2019-11-30T09:24:45Z</time>
      </trkpt>
      <trkpt lat="44.95586" lon="6.50615">
        <ele>1916.04</ele>
        <time>2019-11-30T09:25:02Z</time>
      </trkpt>
      <trkpt lat="44.95579" lon="6.50614">
        <ele>1917.97</ele>
        <time>2019-11-30T09:25:17Z</time>
      </trkpt>
      <trkpt lat="44.95574" lon="6.50613">
        <ele>1919.89</ele>
        <time>2019-11-30T09:25:33Z</time>
      </trkpt>
      <trkpt lat="44.95569" lon="6.50611">
        <ele>1921.33</ele>
        <time>2019-11-30T09:25:49Z</time>
      </trkpt>
      <trkpt lat="44.95564" lon="6.50607">
        <ele>1923.25</ele>
        <time>2019-11-30T09:26:05Z</time>
      </trkpt>
      <trkpt lat="44.9556" lon="6.50604">
        <ele>1924.7</ele>
        <time>2019-11-30T09:26:19Z</time>
      </trkpt>
      <trkpt lat="44.95555" lon="6.50602">
        <ele>1927.1</ele>
        <time>2019-11-30T09:26:36Z</time>
      </trkpt>
      <trkpt lat="44.95551" lon="6.506">
        <ele>1928.54</ele>
        <time>2019-11-30T09:26:51Z</time>
      </trkpt>
      <trkpt lat="44.95546" lon="6.50596">
        <ele>1929.98</ele>
        <time>2019-11-30T09:27:07Z</time>
      </trkpt>
      <trkpt lat="44.95542" lon="6.50594">
        <ele>1931.91</ele>
        <time>2019-11-30T09:27:20Z</time>
      </trkpt>
      <trkpt lat="44.95539" lon="6.5059">
        <ele>1933.35</ele>
        <time>2019-11-30T09:27:34Z</time>
      </trkpt>
      <trkpt lat="44.95534" lon="6.50586">
        <ele>1935.27</ele>
        <time>2019-11-30T09:27:51Z</time>
      </trkpt>
      <trkpt lat="44.95529" lon="6.50585">
        <ele>1936.71</ele>
        <time>2019-11-30T09:28:05Z</time>
      </trkpt>
      <trkpt lat="44.95526" lon="6.50581">
        <ele>1938.64</ele>
        <time>2019-11-30T09:28:20Z</time>
      </trkpt>
      <trkpt lat="44.95521" lon="6.50578">
        <ele>1940.56</ele>
        <time>2019-11-30T09:28:35Z</time>
      </trkpt>
      <trkpt lat="44.95516" lon="6.50574">
        <ele>1942</ele>
        <time>2019-11-30T09:28:51Z</time>
      </trkpt>
      <trkpt lat="44.95512" lon="6.50571">
        <ele>1943.92</ele>
        <time>2019-11-30T09:29:06Z</time>
      </trkpt>
      <trkpt lat="44.95509" lon="6.50567">
        <ele>1945.85</ele>
        <time>2019-11-30T09:29:21Z</time>
      </trkpt>
      <trkpt lat="44.95504" lon="6.50563">
        <ele>1947.29</ele>
        <time>2019-11-30T09:29:36Z</time>
      </trkpt>
      <trkpt lat="44.95499" lon="6.50558">
        <ele>1948.73</ele>
        <time>2019-11-30T09:29:50Z</time>
      </trkpt>
      <trkpt lat="44.95494" lon="6.50555">
        <ele>1950.17</ele>
        <time>2019-11-30T09:30:06Z</time>
      </trkpt>
      <trkpt lat="44.95488" lon="6.50552">
        <ele>1951.61</ele>
        <time>2019-11-30T09:30:20Z</time>
      </trkpt>
      <trkpt lat="44.95481" lon="6.5055">
        <ele>1953.06</ele>
        <time>2019-11-30T09:30:37Z</time>
      </trkpt>
      <trkpt lat="44.95474" lon="6.50549">
        <ele>1954.5</ele>
        <time>2019-11-30T09:30:52Z</time>
      </trkpt>
      <trkpt lat="44.95467" lon="6.50545">
        <ele>1955.46</ele>
        <time>2019-11-30T09:31:09Z</time>
      </trkpt>
      <trkpt lat="44.9546" lon="6.50544">
        <ele>1956.9</ele>
        <time>2019-11-30T09:31:25Z</time>
      </trkpt>
      <trkpt lat="44.95453" lon="6.50541">
        <ele>1958.34</ele>
        <time>2019-11-30T09:31:41Z</time>
      </trkpt>
      <trkpt lat="44.95447" lon="6.50539">
        <ele>1959.78</ele>
        <time>2019-11-30T09:31:56Z</time>
      </trkpt>
      <trkpt lat="44.95443" lon="6.50538">
        <ele>1960.75</ele>
        <time>2019-11-30T09:32:09Z</time>
      </trkpt>
      <trkpt lat="44.95443" lon="6.50535">
        <ele>1960.27</ele>
        <time>2019-11-30T09:32:29Z</time>
      </trkpt>
      <trkpt lat="44.95447" lon="6.50535">
        <ele>1960.27</ele>
        <time>2019-11-30T09:32:52Z</time>
      </trkpt>
      <trkpt lat="44.95448" lon="6.50534">
        <ele>1961.23</ele>
        <time>2019-11-30T09:33:14Z</time>
      </trkpt>
      <trkpt lat="44.95446" lon="6.50538">
        <ele>1960.75</ele>
        <time>2019-11-30T09:33:37Z</time>
      </trkpt>
      <trkpt lat="44.9544" lon="6.5053">
        <ele>1961.71</ele>
        <time>2019-11-30T09:33:53Z</time>
      </trkpt>
      <trkpt lat="44.95433" lon="6.50523">
        <ele>1964.11</ele>
        <time>2019-11-30T09:34:09Z</time>
      </trkpt>
      <trkpt lat="44.95428" lon="6.5052">
        <ele>1965.55</ele>
        <time>2019-11-30T09:34:23Z</time>
      </trkpt>
      <trkpt lat="44.95425" lon="6.50519">
        <ele>1967.48</ele>
        <time>2019-11-30T09:34:37Z</time>
      </trkpt>
      <trkpt lat="44.9542" lon="6.50517">
        <ele>1968.92</ele>
        <time>2019-11-30T09:34:50Z</time>
      </trkpt>
      <trkpt lat="44.95415" lon="6.50513">
        <ele>1970.36</ele>
        <time>2019-11-30T09:35:05Z</time>
      </trkpt>
      <trkpt lat="44.95411" lon="6.5051">
        <ele>1971.8</ele>
        <time>2019-11-30T09:35:20Z</time>
      </trkpt>
      <trkpt lat="44.95407" lon="6.50507">
        <ele>1973.24</ele>
        <time>2019-11-30T09:35:34Z</time>
      </trkpt>
      <trkpt lat="44.95403" lon="6.50504">
        <ele>1975.17</ele>
        <time>2019-11-30T09:35:47Z</time>
      </trkpt>
      <trkpt lat="44.95399" lon="6.50501">
        <ele>1976.61</ele>
        <time>2019-11-30T09:36:01Z</time>
      </trkpt>
      <trkpt lat="44.95395" lon="6.50498">
        <ele>1978.05</ele>
        <time>2019-11-30T09:36:15Z</time>
      </trkpt>
      <trkpt lat="44.95391" lon="6.50495">
        <ele>1979.01</ele>
        <time>2019-11-30T09:36:27Z</time>
      </trkpt>
      <trkpt lat="44.95388" lon="6.50494">
        <ele>1979.97</ele>
        <time>2019-11-30T09:36:38Z</time>
      </trkpt>
      <trkpt lat="44.95385" lon="6.50489">
        <ele>1981.41</ele>
        <time>2019-11-30T09:36:51Z</time>
      </trkpt>
      <trkpt lat="44.95381" lon="6.50485">
        <ele>1982.86</ele>
        <time>2019-11-30T09:37:05Z</time>
      </trkpt>
      <trkpt lat="44.95379" lon="6.50481">
        <ele>1984.3</ele>
        <time>2019-11-30T09:37:17Z</time>
      </trkpt>
      <trkpt lat="44.95377" lon="6.50478">
        <ele>1985.74</ele>
        <time>2019-11-30T09:37:30Z</time>
      </trkpt>
      <trkpt lat="44.95375" lon="6.50473">
        <ele>1987.18</ele>
        <time>2019-11-30T09:37:44Z</time>
      </trkpt>
      <trkpt lat="44.95373" lon="6.50471">
        <ele>1988.62</ele>
        <time>2019-11-30T09:37:57Z</time>
      </trkpt>
      <trkpt lat="44.9537" lon="6.50467">
        <ele>1990.07</ele>
        <time>2019-11-30T09:38:11Z</time>
      </trkpt>
      <trkpt lat="44.95368" lon="6.50463">
        <ele>1991.51</ele>
        <time>2019-11-30T09:38:23Z</time>
      </trkpt>
      <trkpt lat="44.95364" lon="6.50461">
        <ele>1992.95</ele>
        <time>2019-11-30T09:38:37Z</time>
      </trkpt>
      <trkpt lat="44.95362" lon="6.50458">
        <ele>1994.39</ele>
        <time>2019-11-30T09:38:53Z</time>
      </trkpt>
      <trkpt lat="44.9536" lon="6.50453">
        <ele>1995.83</ele>
        <time>2019-11-30T09:39:07Z</time>
      </trkpt>
      <trkpt lat="44.95357" lon="6.5045">
        <ele>1997.76</ele>
        <time>2019-11-30T09:39:20Z</time>
      </trkpt>
      <trkpt lat="44.95354" lon="6.50446">
        <ele>1999.2</ele>
        <time>2019-11-30T09:39:35Z</time>
      </trkpt>
      <trkpt lat="44.95352" lon="6.50442">
        <ele>2000.64</ele>
        <time>2019-11-30T09:39:48Z</time>
      </trkpt>
      <trkpt lat="44.95348" lon="6.5044">
        <ele>2002.08</ele>
        <time>2019-11-30T09:40:02Z</time>
      </trkpt>
      <trkpt lat="44.95344" lon="6.50435">
        <ele>2003.04</ele>
        <time>2019-11-30T09:40:14Z</time>
      </trkpt>
      <trkpt lat="44.95341" lon="6.50431">
        <ele>2004.49</ele>
        <time>2019-11-30T09:40:26Z</time>
      </trkpt>
      <trkpt lat="44.95337" lon="6.50427">
        <ele>2005.93</ele>
        <time>2019-11-30T09:40:38Z</time>
      </trkpt>
      <trkpt lat="44.95334" lon="6.50425">
        <ele>2007.37</ele>
        <time>2019-11-30T09:40:51Z</time>
      </trkpt>
      <trkpt lat="44.95331" lon="6.50422">
        <ele>2008.33</ele>
        <time>2019-11-30T09:41:04Z</time>
      </trkpt>
      <trkpt lat="44.95329" lon="6.50418">
        <ele>2010.25</ele>
        <time>2019-11-30T09:41:16Z</time>
      </trkpt>
      <trkpt lat="44.95327" lon="6.50415">
        <ele>2011.7</ele>
        <time>2019-11-30T09:41:30Z</time>
      </trkpt>
      <trkpt lat="44.95324" lon="6.50412">
        <ele>2013.14</ele>
        <time>2019-11-30T09:41:44Z</time>
      </trkpt>
      <trkpt lat="44.9532" lon="6.50408">
        <ele>2014.58</ele>
        <time>2019-11-30T09:41:58Z</time>
      </trkpt>
      <trkpt lat="44.95316" lon="6.50405">
        <ele>2015.54</ele>
        <time>2019-11-30T09:42:12Z</time>
      </trkpt>
      <trkpt lat="44.95312" lon="6.50403">
        <ele>2016.98</ele>
        <time>2019-11-30T09:42:24Z</time>
      </trkpt>
      <trkpt lat="44.95308" lon="6.50404">
        <ele>2018.43</ele>
        <time>2019-11-30T09:42:36Z</time>
      </trkpt>
      <trkpt lat="44.95305" lon="6.50404">
        <ele>2019.87</ele>
        <time>2019-11-30T09:42:48Z</time>
      </trkpt>
      <trkpt lat="44.95301" lon="6.50403">
        <ele>2021.31</ele>
        <time>2019-11-30T09:43:03Z</time>
      </trkpt>
      <trkpt lat="44.95298" lon="6.50404">
        <ele>2022.75</ele>
        <time>2019-11-30T09:43:17Z</time>
      </trkpt>
      <trkpt lat="44.95293" lon="6.50404">
        <ele>2024.19</ele>
        <time>2019-11-30T09:43:34Z</time>
      </trkpt>
      <trkpt lat="44.95288" lon="6.50403">
        <ele>2025.64</ele>
        <time>2019-11-30T09:43:47Z</time>
      </trkpt>
      <trkpt lat="44.95283" lon="6.50407">
        <ele>2026.6</ele>
        <time>2019-11-30T09:44:00Z</time>
      </trkpt>
      <trkpt lat="44.9528" lon="6.50408">
        <ele>2028.04</ele>
        <time>2019-11-30T09:44:15Z</time>
      </trkpt>
      <trkpt lat="44.95277" lon="6.50409">
        <ele>2029.96</ele>
        <time>2019-11-30T09:44:30Z</time>
      </trkpt>
      <trkpt lat="44.95273" lon="6.50411">
        <ele>2031.4</ele>
        <time>2019-11-30T09:44:43Z</time>
      </trkpt>
      <trkpt lat="44.95269" lon="6.50414">
        <ele>2032.84</ele>
        <time>2019-11-30T09:44:59Z</time>
      </trkpt>
      <trkpt lat="44.95268" lon="6.50411">
        <ele>2034.29</ele>
        <time>2019-11-30T09:45:12Z</time>
      </trkpt>
      <trkpt lat="44.95268" lon="6.50407">
        <ele>2036.21</ele>
        <time>2019-11-30T09:45:25Z</time>
      </trkpt>
      <trkpt lat="44.95266" lon="6.50402">
        <ele>2036.69</ele>
        <time>2019-11-30T09:45:38Z</time>
      </trkpt>
      <trkpt lat="44.95263" lon="6.50398">
        <ele>2038.13</ele>
        <time>2019-11-30T09:45:50Z</time>
      </trkpt>
      <trkpt lat="44.95262" lon="6.50394">
        <ele>2039.57</ele>
        <time>2019-11-30T09:46:02Z</time>
      </trkpt>
      <trkpt lat="44.9526" lon="6.5039">
        <ele>2040.54</ele>
        <time>2019-11-30T09:46:15Z</time>
      </trkpt>
      <trkpt lat="44.95259" lon="6.50386">
        <ele>2041.5</ele>
        <time>2019-11-30T09:46:27Z</time>
      </trkpt>
      <trkpt lat="44.95257" lon="6.50381">
        <ele>2043.42</ele>
        <time>2019-11-30T09:46:40Z</time>
      </trkpt>
      <trkpt lat="44.95254" lon="6.50375">
        <ele>2043.9</ele>
        <time>2019-11-30T09:46:52Z</time>
      </trkpt>
      <trkpt lat="44.95252" lon="6.50371">
        <ele>2045.34</ele>
        <time>2019-11-30T09:47:04Z</time>
      </trkpt>
      <trkpt lat="44.9525" lon="6.50368">
        <ele>2045.82</ele>
        <time>2019-11-30T09:47:14Z</time>
      </trkpt>
      <trkpt lat="44.95248" lon="6.50365">
        <ele>2047.26</ele>
        <time>2019-11-30T09:47:26Z</time>
      </trkpt>
      <trkpt lat="44.95247" lon="6.50358">
        <ele>2048.71</ele>
        <time>2019-11-30T09:47:40Z</time>
      </trkpt>
      <trkpt lat="44.95246" lon="6.50353">
        <ele>2050.15</ele>
        <time>2019-11-30T09:47:54Z</time>
      </trkpt>
      <trkpt lat="44.95244" lon="6.50347">
        <ele>2051.59</ele>
        <time>2019-11-30T09:48:07Z</time>
      </trkpt>
      <trkpt lat="44.95241" lon="6.50344">
        <ele>2052.55</ele>
        <time>2019-11-30T09:48:20Z</time>
      </trkpt>
      <trkpt lat="44.95239" lon="6.50341">
        <ele>2053.51</ele>
        <time>2019-11-30T09:48:32Z</time>
      </trkpt>
      <trkpt lat="44.95235" lon="6.50337">
        <ele>2055.44</ele>
        <time>2019-11-30T09:48:48Z</time>
      </trkpt>
      <trkpt lat="44.95229" lon="6.50341">
        <ele>2056.88</ele>
        <time>2019-11-30T09:49:02Z</time>
      </trkpt>
      <trkpt lat="44.95224" lon="6.50346">
        <ele>2058.8</ele>
        <time>2019-11-30T09:49:18Z</time>
      </trkpt>
      <trkpt lat="44.95223" lon="6.5035">
        <ele>2060.24</ele>
        <time>2019-11-30T09:49:32Z</time>
      </trkpt>
      <trkpt lat="44.95219" lon="6.50354">
        <ele>2061.2</ele>
        <time>2019-11-30T09:49:45Z</time>
      </trkpt>
      <trkpt lat="44.95216" lon="6.50356">
        <ele>2062.65</ele>
        <time>2019-11-30T09:50:01Z</time>
      </trkpt>
      <trkpt lat="44.95211" lon="6.50359">
        <ele>2064.09</ele>
        <time>2019-11-30T09:50:15Z</time>
      </trkpt>
      <trkpt lat="44.95205" lon="6.5036">
        <ele>2065.53</ele>
        <time>2019-11-30T09:50:28Z</time>
      </trkpt>
      <trkpt lat="44.95202" lon="6.50361">
        <ele>2066.97</ele>
        <time>2019-11-30T09:50:43Z</time>
      </trkpt>
      <trkpt lat="44.95199" lon="6.50359">
        <ele>2068.41</ele>
        <time>2019-11-30T09:50:56Z</time>
      </trkpt>
      <trkpt lat="44.952" lon="6.50356">
        <ele>2069.86</ele>
        <time>2019-11-30T09:51:11Z</time>
      </trkpt>
      <trkpt lat="44.95197" lon="6.50352">
        <ele>2071.3</ele>
        <time>2019-11-30T09:51:24Z</time>
      </trkpt>
      <trkpt lat="44.95196" lon="6.50348">
        <ele>2072.74</ele>
        <time>2019-11-30T09:51:37Z</time>
      </trkpt>
      <trkpt lat="44.95194" lon="6.50344">
        <ele>2074.18</ele>
        <time>2019-11-30T09:51:52Z</time>
      </trkpt>
      <trkpt lat="44.95191" lon="6.50338">
        <ele>2075.14</ele>
        <time>2019-11-30T09:52:06Z</time>
      </trkpt>
      <trkpt lat="44.95189" lon="6.50334">
        <ele>2077.07</ele>
        <time>2019-11-30T09:52:20Z</time>
      </trkpt>
      <trkpt lat="44.95186" lon="6.5033">
        <ele>2078.03</ele>
        <time>2019-11-30T09:52:34Z</time>
      </trkpt>
      <trkpt lat="44.95185" lon="6.50325">
        <ele>2079.47</ele>
        <time>2019-11-30T09:52:47Z</time>
      </trkpt>
      <trkpt lat="44.95183" lon="6.5032">
        <ele>2080.91</ele>
        <time>2019-11-30T09:53:01Z</time>
      </trkpt>
      <trkpt lat="44.95179" lon="6.50317">
        <ele>2082.35</ele>
        <time>2019-11-30T09:53:14Z</time>
      </trkpt>
      <trkpt lat="44.95174" lon="6.50317">
        <ele>2083.79</ele>
        <time>2019-11-30T09:53:27Z</time>
      </trkpt>
      <trkpt lat="44.95169" lon="6.50319">
        <ele>2085.24</ele>
        <time>2019-11-30T09:53:40Z</time>
      </trkpt>
      <trkpt lat="44.95165" lon="6.50319">
        <ele>2086.68</ele>
        <time>2019-11-30T09:53:54Z</time>
      </trkpt>
      <trkpt lat="44.95159" lon="6.5032">
        <ele>2088.12</ele>
        <time>2019-11-30T09:54:10Z</time>
      </trkpt>
      <trkpt lat="44.95155" lon="6.50319">
        <ele>2089.56</ele>
        <time>2019-11-30T09:54:25Z</time>
      </trkpt>
      <trkpt lat="44.95151" lon="6.50317">
        <ele>2090.52</ele>
        <time>2019-11-30T09:54:38Z</time>
      </trkpt>
      <trkpt lat="44.9515" lon="6.50314">
        <ele>2091.49</ele>
        <time>2019-11-30T09:54:52Z</time>
      </trkpt>
      <trkpt lat="44.95146" lon="6.5031">
        <ele>2092.45</ele>
        <time>2019-11-30T09:55:06Z</time>
      </trkpt>
      <trkpt lat="44.9514" lon="6.50306">
        <ele>2093.41</ele>
        <time>2019-11-30T09:55:21Z</time>
      </trkpt>
      <trkpt lat="44.95135" lon="6.50304">
        <ele>2094.85</ele>
        <time>2019-11-30T09:55:41Z</time>
      </trkpt>
      <trkpt lat="44.95128" lon="6.50304">
        <ele>2095.81</ele>
        <time>2019-11-30T09:55:55Z</time>
      </trkpt>
      <trkpt lat="44.95123" lon="6.50303">
        <ele>2096.77</ele>
        <time>2019-11-30T09:56:10Z</time>
      </trkpt>
      <trkpt lat="44.95118" lon="6.50301">
        <ele>2098.21</ele>
        <time>2019-11-30T09:56:23Z</time>
      </trkpt>
      <trkpt lat="44.95111" lon="6.50301">
        <ele>2099.66</ele>
        <time>2019-11-30T09:56:38Z</time>
      </trkpt>
      <trkpt lat="44.95108" lon="6.50303">
        <ele>2101.1</ele>
        <time>2019-11-30T09:56:50Z</time>
      </trkpt>
      <trkpt lat="44.95103" lon="6.50305">
        <ele>2102.06</ele>
        <time>2019-11-30T09:57:04Z</time>
      </trkpt>
      <trkpt lat="44.95099" lon="6.50305">
        <ele>2103.5</ele>
        <time>2019-11-30T09:57:17Z</time>
      </trkpt>
      <trkpt lat="44.95101" lon="6.50301">
        <ele>2104.94</ele>
        <time>2019-11-30T09:57:29Z</time>
      </trkpt>
      <trkpt lat="44.95101" lon="6.50295">
        <ele>2105.91</ele>
        <time>2019-11-30T09:57:43Z</time>
      </trkpt>
      <trkpt lat="44.95097" lon="6.50293">
        <ele>2107.35</ele>
        <time>2019-11-30T09:57:57Z</time>
      </trkpt>
      <trkpt lat="44.95093" lon="6.50294">
        <ele>2108.31</ele>
        <time>2019-11-30T09:58:09Z</time>
      </trkpt>
      <trkpt lat="44.95088" lon="6.50297">
        <ele>2109.27</ele>
        <time>2019-11-30T09:58:22Z</time>
      </trkpt>
      <trkpt lat="44.95083" lon="6.50296">
        <ele>2110.71</ele>
        <time>2019-11-30T09:58:36Z</time>
      </trkpt>
      <trkpt lat="44.95078" lon="6.503">
        <ele>2112.15</ele>
        <time>2019-11-30T09:58:51Z</time>
      </trkpt>
      <trkpt lat="44.95073" lon="6.50304">
        <ele>2113.6</ele>
        <time>2019-11-30T09:59:07Z</time>
      </trkpt>
      <trkpt lat="44.95068" lon="6.50304">
        <ele>2115.04</ele>
        <time>2019-11-30T09:59:24Z</time>
      </trkpt>
      <trkpt lat="44.95064" lon="6.50305">
        <ele>2116.48</ele>
        <time>2019-11-30T09:59:38Z</time>
      </trkpt>
      <trkpt lat="44.95062" lon="6.50299">
        <ele>2118.88</ele>
        <time>2019-11-30T09:59:52Z</time>
      </trkpt>
      <trkpt lat="44.95061" lon="6.50292">
        <ele>2118.88</ele>
        <time>2019-11-30T10:00:07Z</time>
      </trkpt>
      <trkpt lat="44.95055" lon="6.50287">
        <ele>2119.84</ele>
        <time>2019-11-30T10:00:20Z</time>
      </trkpt>
      <trkpt lat="44.95051" lon="6.50289">
        <ele>2120.81</ele>
        <time>2019-11-30T10:00:33Z</time>
      </trkpt>
      <trkpt lat="44.95047" lon="6.50295">
        <ele>2122.25</ele>
        <time>2019-11-30T10:00:46Z</time>
      </trkpt>
      <trkpt lat="44.95044" lon="6.50299">
        <ele>2123.21</ele>
        <time>2019-11-30T10:00:57Z</time>
      </trkpt>
      <trkpt lat="44.95041" lon="6.50304">
        <ele>2124.65</ele>
        <time>2019-11-30T10:01:14Z</time>
      </trkpt>
      <trkpt lat="44.9504" lon="6.50306">
        <ele>2125.61</ele>
        <time>2019-11-30T10:01:29Z</time>
      </trkpt>
      <trkpt lat="44.95035" lon="6.50308">
        <ele>2127.05</ele>
        <time>2019-11-30T10:01:45Z</time>
      </trkpt>
      <trkpt lat="44.95031" lon="6.50307">
        <ele>2128.02</ele>
        <time>2019-11-30T10:02:00Z</time>
      </trkpt>
      <trkpt lat="44.95026" lon="6.50303">
        <ele>2129.46</ele>
        <time>2019-11-30T10:02:14Z</time>
      </trkpt>
      <trkpt lat="44.95022" lon="6.50296">
        <ele>2130.42</ele>
        <time>2019-11-30T10:02:28Z</time>
      </trkpt>
      <trkpt lat="44.95018" lon="6.50292">
        <ele>2131.38</ele>
        <time>2019-11-30T10:02:41Z</time>
      </trkpt>
      <trkpt lat="44.95016" lon="6.50288">
        <ele>2132.34</ele>
        <time>2019-11-30T10:02:54Z</time>
      </trkpt>
      <trkpt lat="44.95015" lon="6.50283">
        <ele>2133.3</ele>
        <time>2019-11-30T10:03:07Z</time>
      </trkpt>
      <trkpt lat="44.95015" lon="6.50278">
        <ele>2134.26</ele>
        <time>2019-11-30T10:03:20Z</time>
      </trkpt>
      <trkpt lat="44.95015" lon="6.50272">
        <ele>2135.23</ele>
        <time>2019-11-30T10:03:33Z</time>
      </trkpt>
      <trkpt lat="44.95013" lon="6.50265">
        <ele>2136.19</ele>
        <time>2019-11-30T10:03:46Z</time>
      </trkpt>
      <trkpt lat="44.95012" lon="6.50258">
        <ele>2137.63</ele>
        <time>2019-11-30T10:04:01Z</time>
      </trkpt>
      <trkpt lat="44.95009" lon="6.50253">
        <ele>2138.59</ele>
        <time>2019-11-30T10:04:14Z</time>
      </trkpt>
      <trkpt lat="44.95005" lon="6.50248">
        <ele>2140.03</ele>
        <time>2019-11-30T10:04:28Z</time>
      </trkpt>
      <trkpt lat="44.95003" lon="6.50242">
        <ele>2141.47</ele>
        <time>2019-11-30T10:04:41Z</time>
      </trkpt>
      <trkpt lat="44.94999" lon="6.5024">
        <ele>2142.92</ele>
        <time>2019-11-30T10:04:56Z</time>
      </trkpt>
      <trkpt lat="44.94995" lon="6.50238">
        <ele>2144.36</ele>
        <time>2019-11-30T10:05:10Z</time>
      </trkpt>
      <trkpt lat="44.94993" lon="6.50233">
        <ele>2146.28</ele>
        <time>2019-11-30T10:05:24Z</time>
      </trkpt>
      <trkpt lat="44.94991" lon="6.50234">
        <ele>2147.24</ele>
        <time>2019-11-30T10:05:38Z</time>
      </trkpt>
      <trkpt lat="44.94988" lon="6.50231">
        <ele>2150.61</ele>
        <time>2019-11-30T10:05:54Z</time>
      </trkpt>
      <trkpt lat="44.94984" lon="6.5023">
        <ele>2150.61</ele>
        <time>2019-11-30T10:06:08Z</time>
      </trkpt>
      <trkpt lat="44.94983" lon="6.50228">
        <ele>2152.05</ele>
        <time>2019-11-30T10:06:24Z</time>
      </trkpt>
      <trkpt lat="44.94983" lon="6.50223">
        <ele>2153.49</ele>
        <time>2019-11-30T10:06:40Z</time>
      </trkpt>
      <trkpt lat="44.94984" lon="6.50217">
        <ele>2154.45</ele>
        <time>2019-11-30T10:06:53Z</time>
      </trkpt>
      <trkpt lat="44.94986" lon="6.50214">
        <ele>2155.89</ele>
        <time>2019-11-30T10:07:02Z</time>
      </trkpt>
      <trkpt lat="44.94988" lon="6.5021">
        <ele>2156.37</ele>
        <time>2019-11-30T10:07:16Z</time>
      </trkpt>
      <trkpt lat="44.94986" lon="6.50201">
        <ele>2157.82</ele>
        <time>2019-11-30T10:07:31Z</time>
      </trkpt>
      <trkpt lat="44.94986" lon="6.50193">
        <ele>2159.74</ele>
        <time>2019-11-30T10:07:47Z</time>
      </trkpt>
      <trkpt lat="44.94986" lon="6.50185">
        <ele>2161.18</ele>
        <time>2019-11-30T10:08:02Z</time>
      </trkpt>
      <trkpt lat="44.94988" lon="6.50177">
        <ele>2162.62</ele>
        <time>2019-11-30T10:08:17Z</time>
      </trkpt>
      <trkpt lat="44.94991" lon="6.5017">
        <ele>2164.06</ele>
        <time>2019-11-30T10:08:32Z</time>
      </trkpt>
      <trkpt lat="44.94992" lon="6.50161">
        <ele>2165.03</ele>
        <time>2019-11-30T10:08:47Z</time>
      </trkpt>
      <trkpt lat="44.94994" lon="6.50155">
        <ele>2166.47</ele>
        <time>2019-11-30T10:09:02Z</time>
      </trkpt>
      <trkpt lat="44.94995" lon="6.50148">
        <ele>2167.91</ele>
        <time>2019-11-30T10:09:16Z</time>
      </trkpt>
      <trkpt lat="44.94996" lon="6.5014">
        <ele>2169.83</ele>
        <time>2019-11-30T10:09:32Z</time>
      </trkpt>
      <trkpt lat="44.94997" lon="6.50134">
        <ele>2171.27</ele>
        <time>2019-11-30T10:09:45Z</time>
      </trkpt>
      <trkpt lat="44.94999" lon="6.50127">
        <ele>2172.72</ele>
        <time>2019-11-30T10:09:59Z</time>
      </trkpt>
      <trkpt lat="44.95001" lon="6.50119">
        <ele>2174.16</ele>
        <time>2019-11-30T10:10:14Z</time>
      </trkpt>
      <trkpt lat="44.95003" lon="6.50113">
        <ele>2175.6</ele>
        <time>2019-11-30T10:10:27Z</time>
      </trkpt>
      <trkpt lat="44.95003" lon="6.50105">
        <ele>2177.52</ele>
        <time>2019-11-30T10:10:43Z</time>
      </trkpt>
      <trkpt lat="44.95004" lon="6.50097">
        <ele>2178.97</ele>
        <time>2019-11-30T10:10:58Z</time>
      </trkpt>
      <trkpt lat="44.95002" lon="6.50089">
        <ele>2179.93</ele>
        <time>2019-11-30T10:11:12Z</time>
      </trkpt>
      <trkpt lat="44.95" lon="6.50087">
        <ele>2180.41</ele>
        <time>2019-11-30T10:11:26Z</time>
      </trkpt>
      <trkpt lat="44.94998" lon="6.50084">
        <ele>2180.89</ele>
        <time>2019-11-30T10:11:39Z</time>
      </trkpt>
      <trkpt lat="44.94991" lon="6.50087">
        <ele>2181.85</ele>
        <time>2019-11-30T10:11:55Z</time>
      </trkpt>
      <trkpt lat="44.94987" lon="6.50091">
        <ele>2183.77</ele>
        <time>2019-11-30T10:12:11Z</time>
      </trkpt>
      <trkpt lat="44.94986" lon="6.50091">
        <ele>2183.77</ele>
        <time>2019-11-30T10:12:28Z</time>
      </trkpt>
      <trkpt lat="44.94985" lon="6.5009">
        <ele>2183.77</ele>
        <time>2019-11-30T10:12:43Z</time>
      </trkpt>
      <trkpt lat="44.94983" lon="6.50088">
        <ele>2184.25</ele>
        <time>2019-11-30T10:12:56Z</time>
      </trkpt>
      <trkpt lat="44.94979" lon="6.5009">
        <ele>2184.73</ele>
        <time>2019-11-30T10:13:07Z</time>
      </trkpt>
      <trkpt lat="44.94974" lon="6.50097">
        <ele>2185.69</ele>
        <time>2019-11-30T10:13:21Z</time>
      </trkpt>
      <trkpt lat="44.94972" lon="6.50105">
        <ele>2187.14</ele>
        <time>2019-11-30T10:13:33Z</time>
      </trkpt>
      <trkpt lat="44.94962" lon="6.50111">
        <ele>2188.1</ele>
        <time>2019-11-30T10:13:50Z</time>
      </trkpt>
      <trkpt lat="44.94957" lon="6.50112">
        <ele>2189.06</ele>
        <time>2019-11-30T10:14:06Z</time>
      </trkpt>
      <trkpt lat="44.94955" lon="6.50114">
        <ele>2188.1</ele>
        <time>2019-11-30T10:14:19Z</time>
      </trkpt>
      <trkpt lat="44.94954" lon="6.50112">
        <ele>2187.62</ele>
        <time>2019-11-30T10:14:55Z</time>
      </trkpt>
      <trkpt lat="44.94955" lon="6.50115">
        <ele>2187.62</ele>
        <time>2019-11-30T10:15:38Z</time>
      </trkpt>
      <trkpt lat="44.94955" lon="6.50114">
        <ele>2187.14</ele>
        <time>2019-11-30T10:16:16Z</time>
      </trkpt>
      <trkpt lat="44.94954" lon="6.50115">
        <ele>2187.14</ele>
        <time>2019-11-30T10:16:53Z</time>
      </trkpt>
      <trkpt lat="44.94954" lon="6.50114">
        <ele>2188.1</ele>
        <time>2019-11-30T10:17:22Z</time>
      </trkpt>
      <trkpt lat="44.94956" lon="6.50115">
        <ele>2188.1</ele>
        <time>2019-11-30T10:17:30Z</time>
      </trkpt>
      <trkpt lat="44.94958" lon="6.50115">
        <ele>2187.62</ele>
        <time>2019-11-30T10:17:32Z</time>
      </trkpt>
      <trkpt lat="44.94976" lon="6.50096">
        <ele>2184.73</ele>
        <time>2019-11-30T10:17:48Z</time>
      </trkpt>
      <trkpt lat="44.94982" lon="6.50089">
        <ele>2183.29</ele>
        <time>2019-11-30T10:17:59Z</time>
      </trkpt>
      <trkpt lat="44.94986" lon="6.50086">
        <ele>2182.81</ele>
        <time>2019-11-30T10:18:03Z</time>
      </trkpt>
      <trkpt lat="44.94992" lon="6.50084">
        <ele>2180.89</ele>
        <time>2019-11-30T10:18:16Z</time>
      </trkpt>
      <trkpt lat="44.94995" lon="6.50084">
        <ele>2180.41</ele>
        <time>2019-11-30T10:18:30Z</time>
      </trkpt>
      <trkpt lat="44.95001" lon="6.50082">
        <ele>2179.45</ele>
        <time>2019-11-30T10:18:52Z</time>
      </trkpt>
      <trkpt lat="44.94999" lon="6.50078">
        <ele>2179.45</ele>
        <time>2019-11-30T10:19:11Z</time>
      </trkpt>
      <trkpt lat="44.94996" lon="6.50069">
        <ele>2178.97</ele>
        <time>2019-11-30T10:19:25Z</time>
      </trkpt>
      <trkpt lat="44.94995" lon="6.50068">
        <ele>2178.97</ele>
        <time>2019-11-30T10:19:44Z</time>
      </trkpt>
      <trkpt lat="44.94995" lon="6.50067">
        <ele>2178.97</ele>
        <time>2019-11-30T10:19:57Z</time>
      </trkpt>
      <trkpt lat="44.94995" lon="6.50067">
        <ele>2178.48</ele>
        <time>2019-11-30T10:20:11Z</time>
      </trkpt>
      <trkpt lat="44.94995" lon="6.50066">
        <ele>2178.97</ele>
        <time>2019-11-30T10:20:35Z</time>
      </trkpt>
      <trkpt lat="44.94993" lon="6.50069">
        <ele>2178.48</ele>
        <time>2019-11-30T10:20:50Z</time>
      </trkpt>
      <trkpt lat="44.94992" lon="6.50069">
        <ele>2178.48</ele>
        <time>2019-11-30T10:21:14Z</time>
      </trkpt>
      <trkpt lat="44.94992" lon="6.50065">
        <ele>2177.52</ele>
        <time>2019-11-30T10:21:36Z</time>
      </trkpt>
      <trkpt lat="44.94995" lon="6.50069">
        <ele>2178</ele>
        <time>2019-11-30T10:21:58Z</time>
      </trkpt>
      <trkpt lat="44.94996" lon="6.5007">
        <ele>2177.52</ele>
        <time>2019-11-30T10:22:38Z</time>
      </trkpt>
      <trkpt lat="44.94997" lon="6.50069">
        <ele>2177.04</ele>
        <time>2019-11-30T10:23:25Z</time>
      </trkpt>
      <trkpt lat="44.94995" lon="6.50069">
        <ele>2177.04</ele>
        <time>2019-11-30T10:24:08Z</time>
      </trkpt>
      <trkpt lat="44.94995" lon="6.50067">
        <ele>2176.56</ele>
        <time>2019-11-30T10:24:48Z</time>
      </trkpt>
      <trkpt lat="44.94997" lon="6.50067">
        <ele>2176.56</ele>
        <time>2019-11-30T10:25:17Z</time>
      </trkpt>
      <trkpt lat="44.94995" lon="6.50068">
        <ele>2176.08</ele>
        <time>2019-11-30T10:25:50Z</time>
      </trkpt>
      <trkpt lat="44.94993" lon="6.5007">
        <ele>2177.52</ele>
        <time>2019-11-30T10:26:15Z</time>
      </trkpt>
      <trkpt lat="44.94992" lon="6.50067">
        <ele>2177.52</ele>
        <time>2019-11-30T10:26:39Z</time>
      </trkpt>
      <trkpt lat="44.94988" lon="6.50062">
        <ele>2177.04</ele>
        <time>2019-11-30T10:26:45Z</time>
      </trkpt>
      <trkpt lat="44.94981" lon="6.50053">
        <ele>2176.08</ele>
        <time>2019-11-30T10:26:56Z</time>
      </trkpt>
      <trkpt lat="44.94968" lon="6.50048">
        <ele>2175.12</ele>
        <time>2019-11-30T10:27:15Z</time>
      </trkpt>
      <trkpt lat="44.94966" lon="6.50048">
        <ele>2174.64</ele>
        <time>2019-11-30T10:27:31Z</time>
      </trkpt>
      <trkpt lat="44.94951" lon="6.50042">
        <ele>2173.68</ele>
        <time>2019-11-30T10:27:45Z</time>
      </trkpt>
      <trkpt lat="44.94949" lon="6.50042">
        <ele>2173.68</ele>
        <time>2019-11-30T10:27:46Z</time>
      </trkpt>
      <trkpt lat="44.94943" lon="6.50038">
        <ele>2173.2</ele>
        <time>2019-11-30T10:27:52Z</time>
      </trkpt>
      <trkpt lat="44.94941" lon="6.50038">
        <ele>2173.2</ele>
        <time>2019-11-30T10:27:54Z</time>
      </trkpt>
      <trkpt lat="44.94926" lon="6.5003">
        <ele>2173.2</ele>
        <time>2019-11-30T10:28:08Z</time>
      </trkpt>
      <trkpt lat="44.94917" lon="6.50027">
        <ele>2173.2</ele>
        <time>2019-11-30T10:28:23Z</time>
      </trkpt>
      <trkpt lat="44.94915" lon="6.50026">
        <ele>2173.2</ele>
        <time>2019-11-30T10:28:25Z</time>
      </trkpt>
      <trkpt lat="44.94911" lon="6.50025">
        <ele>2172.72</ele>
        <time>2019-11-30T10:28:30Z</time>
      </trkpt>
      <trkpt lat="44.949" lon="6.50021">
        <ele>2171.76</ele>
        <time>2019-11-30T10:28:46Z</time>
      </trkpt>
      <trkpt lat="44.94885" lon="6.50017">
        <ele>2170.31</ele>
        <time>2019-11-30T10:29:02Z</time>
      </trkpt>
      <trkpt lat="44.94866" lon="6.50012">
        <ele>2167.43</ele>
        <time>2019-11-30T10:29:14Z</time>
      </trkpt>
      <trkpt lat="44.94852" lon="6.50002">
        <ele>2164.06</ele>
        <time>2019-11-30T10:29:25Z</time>
      </trkpt>
      <trkpt lat="44.94841" lon="6.49988">
        <ele>2160.7</ele>
        <time>2019-11-30T10:29:34Z</time>
      </trkpt>
      <trkpt lat="44.94832" lon="6.49975">
        <ele>2159.26</ele>
        <time>2019-11-30T10:29:44Z</time>
      </trkpt>
      <trkpt lat="44.94826" lon="6.49969">
        <ele>2159.26</ele>
        <time>2019-11-30T10:29:58Z</time>
      </trkpt>
      <trkpt lat="44.94816" lon="6.49962">
        <ele>2159.74</ele>
        <time>2019-11-30T10:30:10Z</time>
      </trkpt>
      <trkpt lat="44.94804" lon="6.49957">
        <ele>2160.22</ele>
        <time>2019-11-30T10:30:24Z</time>
      </trkpt>
      <trkpt lat="44.94796" lon="6.4995">
        <ele>2161.18</ele>
        <time>2019-11-30T10:30:36Z</time>
      </trkpt>
      <trkpt lat="44.94791" lon="6.49942">
        <ele>2162.62</ele>
        <time>2019-11-30T10:30:49Z</time>
      </trkpt>
      <trkpt lat="44.94787" lon="6.49933">
        <ele>2164.06</ele>
        <time>2019-11-30T10:31:04Z</time>
      </trkpt>
      <trkpt lat="44.94786" lon="6.49924">
        <ele>2165.51</ele>
        <time>2019-11-30T10:31:18Z</time>
      </trkpt>
      <trkpt lat="44.94781" lon="6.49917">
        <ele>2166.47</ele>
        <time>2019-11-30T10:31:31Z</time>
      </trkpt>
      <trkpt lat="44.9478" lon="6.4991">
        <ele>2167.91</ele>
        <time>2019-11-30T10:31:44Z</time>
      </trkpt>
      <trkpt lat="44.94776" lon="6.49906">
        <ele>2168.87</ele>
        <time>2019-11-30T10:31:57Z</time>
      </trkpt>
      <trkpt lat="44.9477" lon="6.49902">
        <ele>2170.31</ele>
        <time>2019-11-30T10:32:11Z</time>
      </trkpt>
      <trkpt lat="44.94766" lon="6.49896">
        <ele>2171.76</ele>
        <time>2019-11-30T10:32:26Z</time>
      </trkpt>
      <trkpt lat="44.94761" lon="6.4989">
        <ele>2173.68</ele>
        <time>2019-11-30T10:32:40Z</time>
      </trkpt>
      <trkpt lat="44.94756" lon="6.49884">
        <ele>2174.64</ele>
        <time>2019-11-30T10:32:53Z</time>
      </trkpt>
      <trkpt lat="44.9475" lon="6.4988">
        <ele>2176.56</ele>
        <time>2019-11-30T10:33:08Z</time>
      </trkpt>
      <trkpt lat="44.94746" lon="6.49875">
        <ele>2177.52</ele>
        <time>2019-11-30T10:33:20Z</time>
      </trkpt>
      <trkpt lat="44.94744" lon="6.49874">
        <ele>2178.97</ele>
        <time>2019-11-30T10:33:33Z</time>
      </trkpt>
      <trkpt lat="44.94739" lon="6.49872">
        <ele>2180.41</ele>
        <time>2019-11-30T10:33:47Z</time>
      </trkpt>
      <trkpt lat="44.94735" lon="6.4987">
        <ele>2181.85</ele>
        <time>2019-11-30T10:34:00Z</time>
      </trkpt>
      <trkpt lat="44.94731" lon="6.49866">
        <ele>2183.29</ele>
        <time>2019-11-30T10:34:12Z</time>
      </trkpt>
      <trkpt lat="44.94728" lon="6.49866">
        <ele>2184.25</ele>
        <time>2019-11-30T10:34:25Z</time>
      </trkpt>
      <trkpt lat="44.94724" lon="6.49864">
        <ele>2186.18</ele>
        <time>2019-11-30T10:34:40Z</time>
      </trkpt>
      <trkpt lat="44.94719" lon="6.49861">
        <ele>2187.62</ele>
        <time>2019-11-30T10:34:55Z</time>
      </trkpt>
      <trkpt lat="44.94715" lon="6.4986">
        <ele>2188.58</ele>
        <time>2019-11-30T10:35:08Z</time>
      </trkpt>
      <trkpt lat="44.94709" lon="6.49856">
        <ele>2190.02</ele>
        <time>2019-11-30T10:35:22Z</time>
      </trkpt>
      <trkpt lat="44.94705" lon="6.49854">
        <ele>2191.46</ele>
        <time>2019-11-30T10:35:35Z</time>
      </trkpt>
      <trkpt lat="44.94701" lon="6.49852">
        <ele>2192.9</ele>
        <time>2019-11-30T10:35:48Z</time>
      </trkpt>
      <trkpt lat="44.94695" lon="6.49847">
        <ele>2194.35</ele>
        <time>2019-11-30T10:36:04Z</time>
      </trkpt>
      <trkpt lat="44.94689" lon="6.49845">
        <ele>2195.79</ele>
        <time>2019-11-30T10:36:19Z</time>
      </trkpt>
      <trkpt lat="44.94683" lon="6.4984">
        <ele>2196.75</ele>
        <time>2019-11-30T10:36:32Z</time>
      </trkpt>
      <trkpt lat="44.94677" lon="6.49838">
        <ele>2198.19</ele>
        <time>2019-11-30T10:36:46Z</time>
      </trkpt>
      <trkpt lat="44.94671" lon="6.49834">
        <ele>2199.15</ele>
        <time>2019-11-30T10:36:59Z</time>
      </trkpt>
      <trkpt lat="44.94664" lon="6.49828">
        <ele>2200.59</ele>
        <time>2019-11-30T10:37:16Z</time>
      </trkpt>
      <trkpt lat="44.94657" lon="6.49822">
        <ele>2201.56</ele>
        <time>2019-11-30T10:37:30Z</time>
      </trkpt>
      <trkpt lat="44.94652" lon="6.49814">
        <ele>2202.04</ele>
        <time>2019-11-30T10:37:46Z</time>
      </trkpt>
      <trkpt lat="44.94651" lon="6.49813">
        <ele>2202.04</ele>
        <time>2019-11-30T10:37:47Z</time>
      </trkpt>
      <trkpt lat="44.94646" lon="6.49798">
        <ele>2200.59</ele>
        <time>2019-11-30T10:37:59Z</time>
      </trkpt>
      <trkpt lat="44.94645" lon="6.49791">
        <ele>2202.52</ele>
        <time>2019-11-30T10:38:14Z</time>
      </trkpt>
      <trkpt lat="44.94647" lon="6.49783">
        <ele>2204.44</ele>
        <time>2019-11-30T10:38:29Z</time>
      </trkpt>
      <trkpt lat="44.94647" lon="6.49773">
        <ele>2205.4</ele>
        <time>2019-11-30T10:38:42Z</time>
      </trkpt>
      <trkpt lat="44.94648" lon="6.49763">
        <ele>2206.84</ele>
        <time>2019-11-30T10:38:58Z</time>
      </trkpt>
      <trkpt lat="44.94648" lon="6.49755">
        <ele>2208.29</ele>
        <time>2019-11-30T10:39:13Z</time>
      </trkpt>
      <trkpt lat="44.94648" lon="6.49749">
        <ele>2209.73</ele>
        <time>2019-11-30T10:39:27Z</time>
      </trkpt>
      <trkpt lat="44.94648" lon="6.49743">
        <ele>2211.17</ele>
        <time>2019-11-30T10:39:41Z</time>
      </trkpt>
      <trkpt lat="44.94648" lon="6.49735">
        <ele>2212.13</ele>
        <time>2019-11-30T10:39:55Z</time>
      </trkpt>
      <trkpt lat="44.94647" lon="6.49727">
        <ele>2213.57</ele>
        <time>2019-11-30T10:40:09Z</time>
      </trkpt>
      <trkpt lat="44.94645" lon="6.4972">
        <ele>2215.01</ele>
        <time>2019-11-30T10:40:23Z</time>
      </trkpt>
      <trkpt lat="44.94644" lon="6.49715">
        <ele>2215.98</ele>
        <time>2019-11-30T10:40:36Z</time>
      </trkpt>
      <trkpt lat="44.94643" lon="6.49708">
        <ele>2217.42</ele>
        <time>2019-11-30T10:40:49Z</time>
      </trkpt>
      <trkpt lat="44.94644" lon="6.49699">
        <ele>2219.34</ele>
        <time>2019-11-30T10:41:05Z</time>
      </trkpt>
      <trkpt lat="44.94644" lon="6.49691">
        <ele>2220.3</ele>
        <time>2019-11-30T10:41:20Z</time>
      </trkpt>
      <trkpt lat="44.94643" lon="6.49682">
        <ele>2221.74</ele>
        <time>2019-11-30T10:41:34Z</time>
      </trkpt>
      <trkpt lat="44.94641" lon="6.49674">
        <ele>2223.19</ele>
        <time>2019-11-30T10:41:49Z</time>
      </trkpt>
      <trkpt lat="44.94641" lon="6.49669">
        <ele>2223.67</ele>
        <time>2019-11-30T10:41:58Z</time>
      </trkpt>
      <trkpt lat="44.94641" lon="6.49661">
        <ele>2225.11</ele>
        <time>2019-11-30T10:42:12Z</time>
      </trkpt>
      <trkpt lat="44.94641" lon="6.49656">
        <ele>2225.59</ele>
        <time>2019-11-30T10:42:22Z</time>
      </trkpt>
      <trkpt lat="44.94641" lon="6.49648">
        <ele>2227.03</ele>
        <time>2019-11-30T10:42:34Z</time>
      </trkpt>
      <trkpt lat="44.9464" lon="6.4964">
        <ele>2227.99</ele>
        <time>2019-11-30T10:42:48Z</time>
      </trkpt>
      <trkpt lat="44.94642" lon="6.49632">
        <ele>2229.43</ele>
        <time>2019-11-30T10:43:02Z</time>
      </trkpt>
      <trkpt lat="44.94642" lon="6.49623">
        <ele>2230.4</ele>
        <time>2019-11-30T10:43:15Z</time>
      </trkpt>
      <trkpt lat="44.94643" lon="6.49617">
        <ele>2231.84</ele>
        <time>2019-11-30T10:43:28Z</time>
      </trkpt>
      <trkpt lat="44.94645" lon="6.49611">
        <ele>2232.8</ele>
        <time>2019-11-30T10:43:39Z</time>
      </trkpt>
      <trkpt lat="44.94647" lon="6.49606">
        <ele>2234.24</ele>
        <time>2019-11-30T10:43:52Z</time>
      </trkpt>
      <trkpt lat="44.94648" lon="6.49599">
        <ele>2235.68</ele>
        <time>2019-11-30T10:44:06Z</time>
      </trkpt>
      <trkpt lat="44.9465" lon="6.4959">
        <ele>2236.16</ele>
        <time>2019-11-30T10:44:20Z</time>
      </trkpt>
      <trkpt lat="44.94648" lon="6.4958">
        <ele>2237.61</ele>
        <time>2019-11-30T10:44:35Z</time>
      </trkpt>
      <trkpt lat="44.9465" lon="6.49575">
        <ele>2239.05</ele>
        <time>2019-11-30T10:44:48Z</time>
      </trkpt>
      <trkpt lat="44.94651" lon="6.49569">
        <ele>2240.01</ele>
        <time>2019-11-30T10:45:00Z</time>
      </trkpt>
      <trkpt lat="44.94651" lon="6.49564">
        <ele>2240.97</ele>
        <time>2019-11-30T10:45:12Z</time>
      </trkpt>
      <trkpt lat="44.94651" lon="6.49557">
        <ele>2241.93</ele>
        <time>2019-11-30T10:45:26Z</time>
      </trkpt>
      <trkpt lat="44.94652" lon="6.49553">
        <ele>2243.37</ele>
        <time>2019-11-30T10:45:37Z</time>
      </trkpt>
      <trkpt lat="44.94656" lon="6.49547">
        <ele>2244.33</ele>
        <time>2019-11-30T10:45:50Z</time>
      </trkpt>
      <trkpt lat="44.94658" lon="6.49541">
        <ele>2244.82</ele>
        <time>2019-11-30T10:46:04Z</time>
      </trkpt>
      <trkpt lat="44.9466" lon="6.49534">
        <ele>2246.26</ele>
        <time>2019-11-30T10:46:18Z</time>
      </trkpt>
      <trkpt lat="44.9466" lon="6.49526">
        <ele>2247.22</ele>
        <time>2019-11-30T10:46:32Z</time>
      </trkpt>
      <trkpt lat="44.94662" lon="6.49522">
        <ele>2248.18</ele>
        <time>2019-11-30T10:46:44Z</time>
      </trkpt>
      <trkpt lat="44.94663" lon="6.49517">
        <ele>2250.1</ele>
        <time>2019-11-30T10:46:57Z</time>
      </trkpt>
      <trkpt lat="44.94665" lon="6.49512">
        <ele>2251.06</ele>
        <time>2019-11-30T10:47:10Z</time>
      </trkpt>
      <trkpt lat="44.94668" lon="6.49508">
        <ele>2252.03</ele>
        <time>2019-11-30T10:47:21Z</time>
      </trkpt>
      <trkpt lat="44.94672" lon="6.49505">
        <ele>2252.99</ele>
        <time>2019-11-30T10:47:35Z</time>
      </trkpt>
      <trkpt lat="44.94674" lon="6.495">
        <ele>2253.95</ele>
        <time>2019-11-30T10:47:46Z</time>
      </trkpt>
      <trkpt lat="44.94676" lon="6.49494">
        <ele>2254.91</ele>
        <time>2019-11-30T10:48:00Z</time>
      </trkpt>
      <trkpt lat="44.94678" lon="6.49486">
        <ele>2256.35</ele>
        <time>2019-11-30T10:48:14Z</time>
      </trkpt>
      <trkpt lat="44.9468" lon="6.4948">
        <ele>2257.31</ele>
        <time>2019-11-30T10:48:27Z</time>
      </trkpt>
      <trkpt lat="44.9468" lon="6.49473">
        <ele>2258.27</ele>
        <time>2019-11-30T10:48:39Z</time>
      </trkpt>
      <trkpt lat="44.94682" lon="6.49469">
        <ele>2259.24</ele>
        <time>2019-11-30T10:48:51Z</time>
      </trkpt>
      <trkpt lat="44.94684" lon="6.49463">
        <ele>2259.72</ele>
        <time>2019-11-30T10:49:03Z</time>
      </trkpt>
      <trkpt lat="44.94686" lon="6.49453">
        <ele>2260.68</ele>
        <time>2019-11-30T10:49:18Z</time>
      </trkpt>
      <trkpt lat="44.94689" lon="6.49445">
        <ele>2261.64</ele>
        <time>2019-11-30T10:49:32Z</time>
      </trkpt>
      <trkpt lat="44.94691" lon="6.49442">
        <ele>2262.6</ele>
        <time>2019-11-30T10:49:43Z</time>
      </trkpt>
      <trkpt lat="44.94694" lon="6.49438">
        <ele>2264.04</ele>
        <time>2019-11-30T10:49:56Z</time>
      </trkpt>
      <trkpt lat="44.94697" lon="6.49433">
        <ele>2265</ele>
        <time>2019-11-30T10:50:09Z</time>
      </trkpt>
      <trkpt lat="44.94694" lon="6.49427">
        <ele>2266.45</ele>
        <time>2019-11-30T10:50:23Z</time>
      </trkpt>
      <trkpt lat="44.94687" lon="6.49424">
        <ele>2267.41</ele>
        <time>2019-11-30T10:50:38Z</time>
      </trkpt>
      <trkpt lat="44.94682" lon="6.49424">
        <ele>2268.85</ele>
        <time>2019-11-30T10:50:53Z</time>
      </trkpt>
      <trkpt lat="44.94678" lon="6.49425">
        <ele>2270.29</ele>
        <time>2019-11-30T10:51:06Z</time>
      </trkpt>
      <trkpt lat="44.94678" lon="6.49426">
        <ele>2271.25</ele>
        <time>2019-11-30T10:51:20Z</time>
      </trkpt>
      <trkpt lat="44.94681" lon="6.49421">
        <ele>2272.69</ele>
        <time>2019-11-30T10:51:32Z</time>
      </trkpt>
      <trkpt lat="44.94683" lon="6.49417">
        <ele>2273.66</ele>
        <time>2019-11-30T10:51:44Z</time>
      </trkpt>
      <trkpt lat="44.94685" lon="6.49413">
        <ele>2274.62</ele>
        <time>2019-11-30T10:51:57Z</time>
      </trkpt>
      <trkpt lat="44.94689" lon="6.49411">
        <ele>2275.58</ele>
        <time>2019-11-30T10:52:09Z</time>
      </trkpt>
      <trkpt lat="44.94691" lon="6.49407">
        <ele>2277.02</ele>
        <time>2019-11-30T10:52:23Z</time>
      </trkpt>
      <trkpt lat="44.94694" lon="6.49405">
        <ele>2278.46</ele>
        <time>2019-11-30T10:52:36Z</time>
      </trkpt>
      <trkpt lat="44.94696" lon="6.49401">
        <ele>2279.42</ele>
        <time>2019-11-30T10:52:48Z</time>
      </trkpt>
      <trkpt lat="44.94699" lon="6.49399">
        <ele>2280.87</ele>
        <time>2019-11-30T10:53:02Z</time>
      </trkpt>
      <trkpt lat="44.94702" lon="6.49394">
        <ele>2282.31</ele>
        <time>2019-11-30T10:53:17Z</time>
      </trkpt>
      <trkpt lat="44.94705" lon="6.49391">
        <ele>2283.27</ele>
        <time>2019-11-30T10:53:32Z</time>
      </trkpt>
      <trkpt lat="44.94708" lon="6.49386">
        <ele>2284.71</ele>
        <time>2019-11-30T10:53:44Z</time>
      </trkpt>
      <trkpt lat="44.94708" lon="6.49382">
        <ele>2285.67</ele>
        <time>2019-11-30T10:53:56Z</time>
      </trkpt>
      <trkpt lat="44.94709" lon="6.49378">
        <ele>2286.63</ele>
        <time>2019-11-30T10:54:08Z</time>
      </trkpt>
      <trkpt lat="44.9471" lon="6.49373">
        <ele>2287.59</ele>
        <time>2019-11-30T10:54:21Z</time>
      </trkpt>
      <trkpt lat="44.94711" lon="6.49367">
        <ele>2289.04</ele>
        <time>2019-11-30T10:54:35Z</time>
      </trkpt>
      <trkpt lat="44.94704" lon="6.49364">
        <ele>2290.48</ele>
        <time>2019-11-30T10:54:48Z</time>
      </trkpt>
      <trkpt lat="44.947" lon="6.49363">
        <ele>2290.96</ele>
        <time>2019-11-30T10:55:05Z</time>
      </trkpt>
      <trkpt lat="44.94696" lon="6.49364">
        <ele>2292.4</ele>
        <time>2019-11-30T10:55:19Z</time>
      </trkpt>
      <trkpt lat="44.94691" lon="6.49366">
        <ele>2292.88</ele>
        <time>2019-11-30T10:55:33Z</time>
      </trkpt>
      <trkpt lat="44.94685" lon="6.49368">
        <ele>2293.84</ele>
        <time>2019-11-30T10:55:50Z</time>
      </trkpt>
      <trkpt lat="44.94682" lon="6.49368">
        <ele>2294.8</ele>
        <time>2019-11-30T10:56:04Z</time>
      </trkpt>
      <trkpt lat="44.94685" lon="6.49365">
        <ele>2295.77</ele>
        <time>2019-11-30T10:56:25Z</time>
      </trkpt>
      <trkpt lat="44.94689" lon="6.49361">
        <ele>2296.73</ele>
        <time>2019-11-30T10:56:40Z</time>
      </trkpt>
      <trkpt lat="44.94684" lon="6.49356">
        <ele>2298.17</ele>
        <time>2019-11-30T10:56:55Z</time>
      </trkpt>
      <trkpt lat="44.94677" lon="6.49352">
        <ele>2299.13</ele>
        <time>2019-11-30T10:57:11Z</time>
      </trkpt>
      <trkpt lat="44.9467" lon="6.49351">
        <ele>2300.57</ele>
        <time>2019-11-30T10:57:28Z</time>
      </trkpt>
      <trkpt lat="44.94665" lon="6.49353">
        <ele>2302.01</ele>
        <time>2019-11-30T10:57:45Z</time>
      </trkpt>
      <trkpt lat="44.9466" lon="6.49356">
        <ele>2302.98</ele>
        <time>2019-11-30T10:58:00Z</time>
      </trkpt>
      <trkpt lat="44.94656" lon="6.49357">
        <ele>2304.42</ele>
        <time>2019-11-30T10:58:15Z</time>
      </trkpt>
      <trkpt lat="44.94652" lon="6.49356">
        <ele>2305.38</ele>
        <time>2019-11-30T10:58:31Z</time>
      </trkpt>
      <trkpt lat="44.94647" lon="6.49357">
        <ele>2306.82</ele>
        <time>2019-11-30T10:58:46Z</time>
      </trkpt>
      <trkpt lat="44.94644" lon="6.49357">
        <ele>2308.26</ele>
        <time>2019-11-30T10:58:59Z</time>
      </trkpt>
      <trkpt lat="44.94642" lon="6.49356">
        <ele>2309.22</ele>
        <time>2019-11-30T10:59:12Z</time>
      </trkpt>
      <trkpt lat="44.94643" lon="6.49353">
        <ele>2310.67</ele>
        <time>2019-11-30T10:59:27Z</time>
      </trkpt>
      <trkpt lat="44.94644" lon="6.49347">
        <ele>2311.63</ele>
        <time>2019-11-30T10:59:39Z</time>
      </trkpt>
      <trkpt lat="44.94646" lon="6.49343">
        <ele>2312.11</ele>
        <time>2019-11-30T10:59:52Z</time>
      </trkpt>
      <trkpt lat="44.94649" lon="6.49339">
        <ele>2313.07</ele>
        <time>2019-11-30T11:00:05Z</time>
      </trkpt>
      <trkpt lat="44.94651" lon="6.49334">
        <ele>2314.03</ele>
        <time>2019-11-30T11:00:17Z</time>
      </trkpt>
      <trkpt lat="44.94654" lon="6.4933">
        <ele>2314.99</ele>
        <time>2019-11-30T11:00:31Z</time>
      </trkpt>
      <trkpt lat="44.94652" lon="6.49326">
        <ele>2315.95</ele>
        <time>2019-11-30T11:00:46Z</time>
      </trkpt>
      <trkpt lat="44.94645" lon="6.49326">
        <ele>2317.4</ele>
        <time>2019-11-30T11:01:02Z</time>
      </trkpt>
      <trkpt lat="44.94643" lon="6.49326">
        <ele>2318.36</ele>
        <time>2019-11-30T11:01:15Z</time>
      </trkpt>
      <trkpt lat="44.94638" lon="6.49325">
        <ele>2318.84</ele>
        <time>2019-11-30T11:01:30Z</time>
      </trkpt>
      <trkpt lat="44.94632" lon="6.49326">
        <ele>2319.32</ele>
        <time>2019-11-30T11:01:43Z</time>
      </trkpt>
      <trkpt lat="44.94628" lon="6.49325">
        <ele>2320.28</ele>
        <time>2019-11-30T11:01:58Z</time>
      </trkpt>
      <trkpt lat="44.94623" lon="6.49324">
        <ele>2321.24</ele>
        <time>2019-11-30T11:02:13Z</time>
      </trkpt>
      <trkpt lat="44.9462" lon="6.49324">
        <ele>2322.2</ele>
        <time>2019-11-30T11:02:26Z</time>
      </trkpt>
      <trkpt lat="44.94613" lon="6.49323">
        <ele>2323.16</ele>
        <time>2019-11-30T11:02:40Z</time>
      </trkpt>
      <trkpt lat="44.94609" lon="6.49323">
        <ele>2324.12</ele>
        <time>2019-11-30T11:02:53Z</time>
      </trkpt>
      <trkpt lat="44.94607" lon="6.49322">
        <ele>2325.09</ele>
        <time>2019-11-30T11:03:06Z</time>
      </trkpt>
      <trkpt lat="44.94602" lon="6.49321">
        <ele>2326.05</ele>
        <time>2019-11-30T11:03:19Z</time>
      </trkpt>
      <trkpt lat="44.94604" lon="6.49319">
        <ele>2327.49</ele>
        <time>2019-11-30T11:03:35Z</time>
      </trkpt>
      <trkpt lat="44.94606" lon="6.49314">
        <ele>2327.97</ele>
        <time>2019-11-30T11:03:52Z</time>
      </trkpt>
      <trkpt lat="44.94608" lon="6.49309">
        <ele>2329.41</ele>
        <time>2019-11-30T11:04:09Z</time>
      </trkpt>
      <trkpt lat="44.9461" lon="6.49304">
        <ele>2330.37</ele>
        <time>2019-11-30T11:04:22Z</time>
      </trkpt>
      <trkpt lat="44.94612" lon="6.493">
        <ele>2330.85</ele>
        <time>2019-11-30T11:04:33Z</time>
      </trkpt>
      <trkpt lat="44.94615" lon="6.49295">
        <ele>2331.81</ele>
        <time>2019-11-30T11:04:47Z</time>
      </trkpt>
      <trkpt lat="44.94619" lon="6.49291">
        <ele>2332.78</ele>
        <time>2019-11-30T11:05:01Z</time>
      </trkpt>
      <trkpt lat="44.94622" lon="6.49286">
        <ele>2333.74</ele>
        <time>2019-11-30T11:05:15Z</time>
      </trkpt>
      <trkpt lat="44.94625" lon="6.49282">
        <ele>2334.7</ele>
        <time>2019-11-30T11:05:28Z</time>
      </trkpt>
      <trkpt lat="44.94628" lon="6.4928">
        <ele>2335.66</ele>
        <time>2019-11-30T11:05:40Z</time>
      </trkpt>
      <trkpt lat="44.94631" lon="6.49276">
        <ele>2336.62</ele>
        <time>2019-11-30T11:05:53Z</time>
      </trkpt>
      <trkpt lat="44.94633" lon="6.49273">
        <ele>2338.06</ele>
        <time>2019-11-30T11:06:07Z</time>
      </trkpt>
      <trkpt lat="44.94637" lon="6.49267">
        <ele>2339.51</ele>
        <time>2019-11-30T11:06:21Z</time>
      </trkpt>
      <trkpt lat="44.94638" lon="6.49262">
        <ele>2340.47</ele>
        <time>2019-11-30T11:06:34Z</time>
      </trkpt>
      <trkpt lat="44.9464" lon="6.49258">
        <ele>2340.95</ele>
        <time>2019-11-30T11:06:47Z</time>
      </trkpt>
      <trkpt lat="44.94643" lon="6.49251">
        <ele>2342.39</ele>
        <time>2019-11-30T11:07:01Z</time>
      </trkpt>
      <trkpt lat="44.94645" lon="6.49247">
        <ele>2343.35</ele>
        <time>2019-11-30T11:07:15Z</time>
      </trkpt>
      <trkpt lat="44.94647" lon="6.49242">
        <ele>2344.31</ele>
        <time>2019-11-30T11:07:28Z</time>
      </trkpt>
      <trkpt lat="44.94649" lon="6.49238">
        <ele>2345.75</ele>
        <time>2019-11-30T11:07:42Z</time>
      </trkpt>
      <trkpt lat="44.9465" lon="6.49232">
        <ele>2346.72</ele>
        <time>2019-11-30T11:07:54Z</time>
      </trkpt>
      <trkpt lat="44.94653" lon="6.49227">
        <ele>2347.68</ele>
        <time>2019-11-30T11:08:07Z</time>
      </trkpt>
      <trkpt lat="44.94654" lon="6.49221">
        <ele>2348.64</ele>
        <time>2019-11-30T11:08:20Z</time>
      </trkpt>
      <trkpt lat="44.94655" lon="6.49218">
        <ele>2349.6</ele>
        <time>2019-11-30T11:08:32Z</time>
      </trkpt>
      <trkpt lat="44.94654" lon="6.49212">
        <ele>2350.56</ele>
        <time>2019-11-30T11:08:45Z</time>
      </trkpt>
      <trkpt lat="44.94654" lon="6.49208">
        <ele>2352</ele>
        <time>2019-11-30T11:08:58Z</time>
      </trkpt>
      <trkpt lat="44.94654" lon="6.49203">
        <ele>2352.96</ele>
        <time>2019-11-30T11:09:12Z</time>
      </trkpt>
      <trkpt lat="44.94649" lon="6.49203">
        <ele>2354.41</ele>
        <time>2019-11-30T11:09:27Z</time>
      </trkpt>
      <trkpt lat="44.94644" lon="6.49205">
        <ele>2355.85</ele>
        <time>2019-11-30T11:09:44Z</time>
      </trkpt>
      <trkpt lat="44.94641" lon="6.49207">
        <ele>2356.33</ele>
        <time>2019-11-30T11:09:55Z</time>
      </trkpt>
      <trkpt lat="44.94638" lon="6.49208">
        <ele>2357.77</ele>
        <time>2019-11-30T11:10:08Z</time>
      </trkpt>
      <trkpt lat="44.94634" lon="6.49209">
        <ele>2358.73</ele>
        <time>2019-11-30T11:10:22Z</time>
      </trkpt>
      <trkpt lat="44.94631" lon="6.4921">
        <ele>2359.69</ele>
        <time>2019-11-30T11:10:35Z</time>
      </trkpt>
      <trkpt lat="44.94626" lon="6.49212">
        <ele>2360.65</ele>
        <time>2019-11-30T11:10:49Z</time>
      </trkpt>
      <trkpt lat="44.94622" lon="6.49212">
        <ele>2361.62</ele>
        <time>2019-11-30T11:11:02Z</time>
      </trkpt>
      <trkpt lat="44.94622" lon="6.49213">
        <ele>2362.1</ele>
        <time>2019-11-30T11:11:22Z</time>
      </trkpt>
      <trkpt lat="44.94613" lon="6.49214">
        <ele>2363.54</ele>
        <time>2019-11-30T11:11:39Z</time>
      </trkpt>
      <trkpt lat="44.94608" lon="6.49214">
        <ele>2364.5</ele>
        <time>2019-11-30T11:11:54Z</time>
      </trkpt>
      <trkpt lat="44.94603" lon="6.4921">
        <ele>2365.46</ele>
        <time>2019-11-30T11:12:08Z</time>
      </trkpt>
      <trkpt lat="44.946" lon="6.49203">
        <ele>2365.94</ele>
        <time>2019-11-30T11:12:20Z</time>
      </trkpt>
      <trkpt lat="44.94596" lon="6.492">
        <ele>2366.9</ele>
        <time>2019-11-30T11:12:33Z</time>
      </trkpt>
      <trkpt lat="44.94593" lon="6.49195">
        <ele>2367.86</ele>
        <time>2019-11-30T11:12:47Z</time>
      </trkpt>
      <trkpt lat="44.94588" lon="6.49193">
        <ele>2368.83</ele>
        <time>2019-11-30T11:13:00Z</time>
      </trkpt>
      <trkpt lat="44.94584" lon="6.49192">
        <ele>2369.79</ele>
        <time>2019-11-30T11:13:12Z</time>
      </trkpt>
      <trkpt lat="44.9458" lon="6.4919">
        <ele>2370.75</ele>
        <time>2019-11-30T11:13:26Z</time>
      </trkpt>
      <trkpt lat="44.94576" lon="6.49189">
        <ele>2371.71</ele>
        <time>2019-11-30T11:13:41Z</time>
      </trkpt>
      <trkpt lat="44.94571" lon="6.49189">
        <ele>2373.15</ele>
        <time>2019-11-30T11:13:55Z</time>
      </trkpt>
      <trkpt lat="44.94569" lon="6.49188">
        <ele>2374.11</ele>
        <time>2019-11-30T11:14:07Z</time>
      </trkpt>
      <trkpt lat="44.94564" lon="6.49187">
        <ele>2375.07</ele>
        <time>2019-11-30T11:14:22Z</time>
      </trkpt>
      <trkpt lat="44.94561" lon="6.49188">
        <ele>2376.04</ele>
        <time>2019-11-30T11:14:36Z</time>
      </trkpt>
      <trkpt lat="44.94557" lon="6.49186">
        <ele>2377</ele>
        <time>2019-11-30T11:14:48Z</time>
      </trkpt>
      <trkpt lat="44.94554" lon="6.49185">
        <ele>2377.96</ele>
        <time>2019-11-30T11:15:03Z</time>
      </trkpt>
      <trkpt lat="44.94551" lon="6.49184">
        <ele>2378.92</ele>
        <time>2019-11-30T11:15:15Z</time>
      </trkpt>
      <trkpt lat="44.94546" lon="6.49183">
        <ele>2379.88</ele>
        <time>2019-11-30T11:15:29Z</time>
      </trkpt>
      <trkpt lat="44.94541" lon="6.49182">
        <ele>2381.32</ele>
        <time>2019-11-30T11:15:44Z</time>
      </trkpt>
      <trkpt lat="44.94538" lon="6.49181">
        <ele>2382.28</ele>
        <time>2019-11-30T11:15:57Z</time>
      </trkpt>
      <trkpt lat="44.94536" lon="6.4918">
        <ele>2383.25</ele>
        <time>2019-11-30T11:16:10Z</time>
      </trkpt>
      <trkpt lat="44.94539" lon="6.49178">
        <ele>2384.69</ele>
        <time>2019-11-30T11:16:24Z</time>
      </trkpt>
      <trkpt lat="44.94541" lon="6.49174">
        <ele>2386.13</ele>
        <time>2019-11-30T11:16:37Z</time>
      </trkpt>
      <trkpt lat="44.94543" lon="6.4917">
        <ele>2387.09</ele>
        <time>2019-11-30T11:16:50Z</time>
      </trkpt>
      <trkpt lat="44.94544" lon="6.49167">
        <ele>2387.57</ele>
        <time>2019-11-30T11:17:02Z</time>
      </trkpt>
      <trkpt lat="44.94543" lon="6.49166">
        <ele>2388.53</ele>
        <time>2019-11-30T11:17:15Z</time>
      </trkpt>
      <trkpt lat="44.94539" lon="6.49164">
        <ele>2389.01</ele>
        <time>2019-11-30T11:17:26Z</time>
      </trkpt>
      <trkpt lat="44.94534" lon="6.49161">
        <ele>2390.46</ele>
        <time>2019-11-30T11:17:41Z</time>
      </trkpt>
      <trkpt lat="44.94531" lon="6.4916">
        <ele>2391.42</ele>
        <time>2019-11-30T11:17:52Z</time>
      </trkpt>
      <trkpt lat="44.94529" lon="6.49159">
        <ele>2392.38</ele>
        <time>2019-11-30T11:18:04Z</time>
      </trkpt>
      <trkpt lat="44.94524" lon="6.49157">
        <ele>2393.34</ele>
        <time>2019-11-30T11:18:20Z</time>
      </trkpt>
      <trkpt lat="44.94521" lon="6.49155">
        <ele>2394.3</ele>
        <time>2019-11-30T11:18:35Z</time>
      </trkpt>
      <trkpt lat="44.94515" lon="6.49152">
        <ele>2395.74</ele>
        <time>2019-11-30T11:18:49Z</time>
      </trkpt>
      <trkpt lat="44.94513" lon="6.4915">
        <ele>2396.7</ele>
        <time>2019-11-30T11:19:03Z</time>
      </trkpt>
      <trkpt lat="44.94518" lon="6.49149">
        <ele>2397.67</ele>
        <time>2019-11-30T11:19:16Z</time>
      </trkpt>
      <trkpt lat="44.94522" lon="6.49146">
        <ele>2398.63</ele>
        <time>2019-11-30T11:19:30Z</time>
      </trkpt>
      <trkpt lat="44.94525" lon="6.49143">
        <ele>2399.59</ele>
        <time>2019-11-30T11:19:43Z</time>
      </trkpt>
      <trkpt lat="44.94527" lon="6.4914">
        <ele>2401.03</ele>
        <time>2019-11-30T11:19:57Z</time>
      </trkpt>
      <trkpt lat="44.94531" lon="6.49137">
        <ele>2401.99</ele>
        <time>2019-11-30T11:20:12Z</time>
      </trkpt>
      <trkpt lat="44.94533" lon="6.49136">
        <ele>2403.43</ele>
        <time>2019-11-30T11:20:26Z</time>
      </trkpt>
      <trkpt lat="44.94529" lon="6.49132">
        <ele>2404.39</ele>
        <time>2019-11-30T11:20:41Z</time>
      </trkpt>
      <trkpt lat="44.94526" lon="6.49129">
        <ele>2405.36</ele>
        <time>2019-11-30T11:20:53Z</time>
      </trkpt>
      <trkpt lat="44.94524" lon="6.49127">
        <ele>2406.32</ele>
        <time>2019-11-30T11:21:06Z</time>
      </trkpt>
      <trkpt lat="44.9452" lon="6.49124">
        <ele>2407.28</ele>
        <time>2019-11-30T11:21:21Z</time>
      </trkpt>
      <trkpt lat="44.9452" lon="6.49123">
        <ele>2408.24</ele>
        <time>2019-11-30T11:21:35Z</time>
      </trkpt>
      <trkpt lat="44.94524" lon="6.49122">
        <ele>2408.72</ele>
        <time>2019-11-30T11:21:54Z</time>
      </trkpt>
      <trkpt lat="44.94528" lon="6.4912">
        <ele>2410.16</ele>
        <time>2019-11-30T11:22:08Z</time>
      </trkpt>
      <trkpt lat="44.94531" lon="6.49118">
        <ele>2411.12</ele>
        <time>2019-11-30T11:22:23Z</time>
      </trkpt>
      <trkpt lat="44.94535" lon="6.49115">
        <ele>2412.09</ele>
        <time>2019-11-30T11:22:38Z</time>
      </trkpt>
      <trkpt lat="44.94538" lon="6.49113">
        <ele>2413.05</ele>
        <time>2019-11-30T11:22:51Z</time>
      </trkpt>
      <trkpt lat="44.9454" lon="6.49112">
        <ele>2414.01</ele>
        <time>2019-11-30T11:23:05Z</time>
      </trkpt>
      <trkpt lat="44.94544" lon="6.49108">
        <ele>2415.45</ele>
        <time>2019-11-30T11:23:19Z</time>
      </trkpt>
      <trkpt lat="44.94546" lon="6.49105">
        <ele>2416.41</ele>
        <time>2019-11-30T11:23:33Z</time>
      </trkpt>
      <trkpt lat="44.94549" lon="6.49102">
        <ele>2417.37</ele>
        <time>2019-11-30T11:23:46Z</time>
      </trkpt>
      <trkpt lat="44.9455" lon="6.491">
        <ele>2418.33</ele>
        <time>2019-11-30T11:24:02Z</time>
      </trkpt>
      <trkpt lat="44.94545" lon="6.49098">
        <ele>2419.3</ele>
        <time>2019-11-30T11:24:20Z</time>
      </trkpt>
      <trkpt lat="44.94541" lon="6.49095">
        <ele>2420.74</ele>
        <time>2019-11-30T11:24:34Z</time>
      </trkpt>
      <trkpt lat="44.94537" lon="6.49094">
        <ele>2421.7</ele>
        <time>2019-11-30T11:24:49Z</time>
      </trkpt>
      <trkpt lat="44.94533" lon="6.49092">
        <ele>2422.66</ele>
        <time>2019-11-30T11:25:02Z</time>
      </trkpt>
      <trkpt lat="44.9453" lon="6.4909">
        <ele>2424.1</ele>
        <time>2019-11-30T11:25:17Z</time>
      </trkpt>
      <trkpt lat="44.94527" lon="6.4909">
        <ele>2425.06</ele>
        <time>2019-11-30T11:25:30Z</time>
      </trkpt>
      <trkpt lat="44.94523" lon="6.49088">
        <ele>2426.02</ele>
        <time>2019-11-30T11:25:42Z</time>
      </trkpt>
      <trkpt lat="44.94523" lon="6.49088">
        <ele>2426.99</ele>
        <time>2019-11-30T11:25:57Z</time>
      </trkpt>
      <trkpt lat="44.94526" lon="6.49088">
        <ele>2427.95</ele>
        <time>2019-11-30T11:26:12Z</time>
      </trkpt>
      <trkpt lat="44.94529" lon="6.49084">
        <ele>2428.91</ele>
        <time>2019-11-30T11:26:26Z</time>
      </trkpt>
      <trkpt lat="44.94531" lon="6.49082">
        <ele>2429.39</ele>
        <time>2019-11-30T11:26:42Z</time>
      </trkpt>
      <trkpt lat="44.94534" lon="6.49079">
        <ele>2430.35</ele>
        <time>2019-11-30T11:26:57Z</time>
      </trkpt>
      <trkpt lat="44.94538" lon="6.49077">
        <ele>2431.31</ele>
        <time>2019-11-30T11:27:11Z</time>
      </trkpt>
      <trkpt lat="44.94541" lon="6.49074">
        <ele>2432.75</ele>
        <time>2019-11-30T11:27:27Z</time>
      </trkpt>
      <trkpt lat="44.94545" lon="6.4907">
        <ele>2434.2</ele>
        <time>2019-11-30T11:27:42Z</time>
      </trkpt>
      <trkpt lat="44.94548" lon="6.49069">
        <ele>2435.16</ele>
        <time>2019-11-30T11:27:56Z</time>
      </trkpt>
      <trkpt lat="44.94545" lon="6.49067">
        <ele>2435.64</ele>
        <time>2019-11-30T11:28:09Z</time>
      </trkpt>
      <trkpt lat="44.94541" lon="6.49066">
        <ele>2436.12</ele>
        <time>2019-11-30T11:28:22Z</time>
      </trkpt>
      <trkpt lat="44.94537" lon="6.49065">
        <ele>2437.56</ele>
        <time>2019-11-30T11:28:34Z</time>
      </trkpt>
      <trkpt lat="44.94533" lon="6.49062">
        <ele>2438.52</ele>
        <time>2019-11-30T11:28:47Z</time>
      </trkpt>
      <trkpt lat="44.94531" lon="6.49062">
        <ele>2439.48</ele>
        <time>2019-11-30T11:29:00Z</time>
      </trkpt>
      <trkpt lat="44.94527" lon="6.49062">
        <ele>2440.44</ele>
        <time>2019-11-30T11:29:15Z</time>
      </trkpt>
      <trkpt lat="44.94523" lon="6.49062">
        <ele>2441.41</ele>
        <time>2019-11-30T11:29:28Z</time>
      </trkpt>
      <trkpt lat="44.94519" lon="6.49062">
        <ele>2443.81</ele>
        <time>2019-11-30T11:29:42Z</time>
      </trkpt>
      <trkpt lat="44.94515" lon="6.49061">
        <ele>2443.81</ele>
        <time>2019-11-30T11:29:55Z</time>
      </trkpt>
      <trkpt lat="44.94511" lon="6.4906">
        <ele>2444.77</ele>
        <time>2019-11-30T11:30:09Z</time>
      </trkpt>
      <trkpt lat="44.94507" lon="6.49058">
        <ele>2445.73</ele>
        <time>2019-11-30T11:30:22Z</time>
      </trkpt>
      <trkpt lat="44.94508" lon="6.49058">
        <ele>2446.21</ele>
        <time>2019-11-30T11:30:36Z</time>
      </trkpt>
      <trkpt lat="44.94512" lon="6.49056">
        <ele>2447.17</ele>
        <time>2019-11-30T11:30:49Z</time>
      </trkpt>
      <trkpt lat="44.94515" lon="6.49053">
        <ele>2448.62</ele>
        <time>2019-11-30T11:31:04Z</time>
      </trkpt>
      <trkpt lat="44.94517" lon="6.4905">
        <ele>2449.58</ele>
        <time>2019-11-30T11:31:18Z</time>
      </trkpt>
      <trkpt lat="44.9452" lon="6.49047">
        <ele>2450.54</ele>
        <time>2019-11-30T11:31:32Z</time>
      </trkpt>
      <trkpt lat="44.94521" lon="6.49045">
        <ele>2451.98</ele>
        <time>2019-11-30T11:31:44Z</time>
      </trkpt>
      <trkpt lat="44.94522" lon="6.49042">
        <ele>2452.94</ele>
        <time>2019-11-30T11:31:57Z</time>
      </trkpt>
      <trkpt lat="44.94517" lon="6.4904">
        <ele>2453.42</ele>
        <time>2019-11-30T11:32:12Z</time>
      </trkpt>
      <trkpt lat="44.94514" lon="6.4904">
        <ele>2454.38</ele>
        <time>2019-11-30T11:32:25Z</time>
      </trkpt>
      <trkpt lat="44.9451" lon="6.49038">
        <ele>2455.82</ele>
        <time>2019-11-30T11:32:38Z</time>
      </trkpt>
      <trkpt lat="44.94507" lon="6.49035">
        <ele>2456.79</ele>
        <time>2019-11-30T11:32:51Z</time>
      </trkpt>
      <trkpt lat="44.94505" lon="6.49035">
        <ele>2457.27</ele>
        <time>2019-11-30T11:33:02Z</time>
      </trkpt>
      <trkpt lat="44.94502" lon="6.49032">
        <ele>2458.23</ele>
        <time>2019-11-30T11:33:15Z</time>
      </trkpt>
      <trkpt lat="44.94499" lon="6.4903">
        <ele>2459.19</ele>
        <time>2019-11-30T11:33:28Z</time>
      </trkpt>
      <trkpt lat="44.94497" lon="6.49027">
        <ele>2460.15</ele>
        <time>2019-11-30T11:33:41Z</time>
      </trkpt>
      <trkpt lat="44.94494" lon="6.49021">
        <ele>2461.11</ele>
        <time>2019-11-30T11:33:56Z</time>
      </trkpt>
      <trkpt lat="44.94491" lon="6.49019">
        <ele>2462.07</ele>
        <time>2019-11-30T11:34:08Z</time>
      </trkpt>
      <trkpt lat="44.94488" lon="6.49017">
        <ele>2462.55</ele>
        <time>2019-11-30T11:34:19Z</time>
      </trkpt>
      <trkpt lat="44.94483" lon="6.49017">
        <ele>2464</ele>
        <time>2019-11-30T11:34:34Z</time>
      </trkpt>
      <trkpt lat="44.9448" lon="6.49017">
        <ele>2464.96</ele>
        <time>2019-11-30T11:34:47Z</time>
      </trkpt>
      <trkpt lat="44.94476" lon="6.49016">
        <ele>2465.92</ele>
        <time>2019-11-30T11:34:59Z</time>
      </trkpt>
      <trkpt lat="44.94474" lon="6.49015">
        <ele>2466.4</ele>
        <time>2019-11-30T11:35:09Z</time>
      </trkpt>
      <trkpt lat="44.94471" lon="6.49013">
        <ele>2467.84</ele>
        <time>2019-11-30T11:35:22Z</time>
      </trkpt>
      <trkpt lat="44.9447" lon="6.49011">
        <ele>2468.8</ele>
        <time>2019-11-30T11:35:34Z</time>
      </trkpt>
      <trkpt lat="44.94465" lon="6.4901">
        <ele>2469.76</ele>
        <time>2019-11-30T11:35:48Z</time>
      </trkpt>
      <trkpt lat="44.94461" lon="6.4901">
        <ele>2470.24</ele>
        <time>2019-11-30T11:36:00Z</time>
      </trkpt>
      <trkpt lat="44.94458" lon="6.49008">
        <ele>2471.69</ele>
        <time>2019-11-30T11:36:13Z</time>
      </trkpt>
      <trkpt lat="44.94454" lon="6.49007">
        <ele>2472.65</ele>
        <time>2019-11-30T11:36:25Z</time>
      </trkpt>
      <trkpt lat="44.94447" lon="6.49008">
        <ele>2473.61</ele>
        <time>2019-11-30T11:36:38Z</time>
      </trkpt>
      <trkpt lat="44.94443" lon="6.49009">
        <ele>2474.57</ele>
        <time>2019-11-30T11:36:51Z</time>
      </trkpt>
      <trkpt lat="44.94436" lon="6.49006">
        <ele>2474.57</ele>
        <time>2019-11-30T11:37:04Z</time>
      </trkpt>
      <trkpt lat="44.94436" lon="6.49005">
        <ele>2475.05</ele>
        <time>2019-11-30T11:37:18Z</time>
      </trkpt>
      <trkpt lat="44.94431" lon="6.49003">
        <ele>2474.57</ele>
        <time>2019-11-30T11:37:33Z</time>
      </trkpt>
      <trkpt lat="44.94428" lon="6.49006">
        <ele>2475.05</ele>
        <time>2019-11-30T11:37:47Z</time>
      </trkpt>
      <trkpt lat="44.94424" lon="6.4901">
        <ele>2475.05</ele>
        <time>2019-11-30T11:37:59Z</time>
      </trkpt>
      <trkpt lat="44.9442" lon="6.49018">
        <ele>2476.01</ele>
        <time>2019-11-30T11:38:12Z</time>
      </trkpt>
      <trkpt lat="44.94419" lon="6.49021">
        <ele>2476.49</ele>
        <time>2019-11-30T11:38:25Z</time>
      </trkpt>
      <trkpt lat="44.94418" lon="6.49024">
        <ele>2476.97</ele>
        <time>2019-11-30T11:38:39Z</time>
      </trkpt>
      <trkpt lat="44.94417" lon="6.49027">
        <ele>2476.97</ele>
        <time>2019-11-30T11:39:00Z</time>
      </trkpt>
      <trkpt lat="44.94417" lon="6.49028">
        <ele>2476.97</ele>
        <time>2019-11-30T11:39:22Z</time>
      </trkpt>
      <trkpt lat="44.94417" lon="6.49028">
        <ele>2476.97</ele>
        <time>2019-11-30T11:39:44Z</time>
      </trkpt>
      <trkpt lat="44.94419" lon="6.49024">
        <ele>2476.97</ele>
        <time>2019-11-30T11:40:08Z</time>
      </trkpt>
      <trkpt lat="44.94419" lon="6.49026">
        <ele>2477.45</ele>
        <time>2019-11-30T11:40:29Z</time>
      </trkpt>
      <trkpt lat="44.9442" lon="6.49022">
        <ele>2476.49</ele>
        <time>2019-11-30T11:40:51Z</time>
      </trkpt>
      <trkpt lat="44.94418" lon="6.49021">
        <ele>2476.01</ele>
        <time>2019-11-30T11:41:30Z</time>
      </trkpt>
      <trkpt lat="44.94418" lon="6.49022">
        <ele>2476.01</ele>
        <time>2019-11-30T11:42:00Z</time>
      </trkpt>
      <trkpt lat="44.94418" lon="6.49023">
        <ele>2476.01</ele>
        <time>2019-11-30T11:42:28Z</time>
      </trkpt>
      <trkpt lat="44.94418" lon="6.4902">
        <ele>2476.01</ele>
        <time>2019-11-30T11:43:12Z</time>
      </trkpt>
      <trkpt lat="44.94418" lon="6.4902">
        <ele>2476.49</ele>
        <time>2019-11-30T11:43:56Z</time>
      </trkpt>
      <trkpt lat="44.94417" lon="6.4902">
        <ele>2476.49</ele>
        <time>2019-11-30T11:44:36Z</time>
      </trkpt>
      <trkpt lat="44.94418" lon="6.49024">
        <ele>2476.97</ele>
        <time>2019-11-30T11:45:19Z</time>
      </trkpt>
      <trkpt lat="44.94418" lon="6.49024">
        <ele>2477.45</ele>
        <time>2019-11-30T11:46:08Z</time>
      </trkpt>
      <trkpt lat="44.94416" lon="6.49022">
        <ele>2477.45</ele>
        <time>2019-11-30T11:46:31Z</time>
      </trkpt>
      <trkpt lat="44.94416" lon="6.49021">
        <ele>2477.94</ele>
        <time>2019-11-30T11:47:12Z</time>
      </trkpt>
      <trkpt lat="44.94416" lon="6.4902">
        <ele>2477.94</ele>
        <time>2019-11-30T11:47:45Z</time>
      </trkpt>
      <trkpt lat="44.94416" lon="6.4902">
        <ele>2478.42</ele>
        <time>2019-11-30T11:48:21Z</time>
      </trkpt>
      <trkpt lat="44.94418" lon="6.49016">
        <ele>2477.94</ele>
        <time>2019-11-30T11:48:49Z</time>
      </trkpt>
      <trkpt lat="44.94419" lon="6.49018">
        <ele>2477.94</ele>
        <time>2019-11-30T11:49:29Z</time>
      </trkpt>
      <trkpt lat="44.94417" lon="6.49021">
        <ele>2477.94</ele>
        <time>2019-11-30T11:50:03Z</time>
      </trkpt>
      <trkpt lat="44.94419" lon="6.4902">
        <ele>2477.45</ele>
        <time>2019-11-30T11:50:30Z</time>
      </trkpt>
      <trkpt lat="44.94418" lon="6.49022">
        <ele>2477.94</ele>
        <time>2019-11-30T11:51:00Z</time>
      </trkpt>
      <trkpt lat="44.9442" lon="6.49021">
        <ele>2477.45</ele>
        <time>2019-11-30T11:51:29Z</time>
      </trkpt>
      <trkpt lat="44.9442" lon="6.49023">
        <ele>2477.94</ele>
        <time>2019-11-30T11:52:02Z</time>
      </trkpt>
      <trkpt lat="44.94418" lon="6.49024">
        <ele>2478.42</ele>
        <time>2019-11-30T11:52:31Z</time>
      </trkpt>
      <trkpt lat="44.94419" lon="6.49027">
        <ele>2477.94</ele>
        <time>2019-11-30T11:53:02Z</time>
      </trkpt>
      <trkpt lat="44.94422" lon="6.49023">
        <ele>2478.42</ele>
        <time>2019-11-30T11:53:35Z</time>
      </trkpt>
      <trkpt lat="44.94421" lon="6.49022">
        <ele>2478.42</ele>
        <time>2019-11-30T11:54:04Z</time>
      </trkpt>
      <trkpt lat="44.94421" lon="6.49023">
        <ele>2478.9</ele>
        <time>2019-11-30T11:54:40Z</time>
      </trkpt>
      <trkpt lat="44.94419" lon="6.49023">
        <ele>2478.9</ele>
        <time>2019-11-30T11:55:16Z</time>
      </trkpt>
      <trkpt lat="44.9442" lon="6.49025">
        <ele>2479.38</ele>
        <time>2019-11-30T11:55:45Z</time>
      </trkpt>
      <trkpt lat="44.94418" lon="6.49024">
        <ele>2479.38</ele>
        <time>2019-11-30T11:56:21Z</time>
      </trkpt>
      <trkpt lat="44.9442" lon="6.4902">
        <ele>2479.86</ele>
        <time>2019-11-30T11:56:46Z</time>
      </trkpt>
      <trkpt lat="44.9442" lon="6.4902">
        <ele>2479.86</ele>
        <time>2019-11-30T11:57:13Z</time>
      </trkpt>
      <trkpt lat="44.94421" lon="6.49021">
        <ele>2479.86</ele>
        <time>2019-11-30T11:57:39Z</time>
      </trkpt>
      <trkpt lat="44.9442" lon="6.49021">
        <ele>2479.86</ele>
        <time>2019-11-30T11:58:06Z</time>
      </trkpt>
      <trkpt lat="44.94418" lon="6.49022">
        <ele>2480.34</ele>
        <time>2019-11-30T11:58:31Z</time>
      </trkpt>
      <trkpt lat="44.94418" lon="6.49023">
        <ele>2480.34</ele>
        <time>2019-11-30T11:58:49Z</time>
      </trkpt>
      <trkpt lat="44.94417" lon="6.49024">
        <ele>2480.34</ele>
        <time>2019-11-30T11:59:15Z</time>
      </trkpt>
      <trkpt lat="44.94416" lon="6.49024">
        <ele>2480.34</ele>
        <time>2019-11-30T11:59:38Z</time>
      </trkpt>
      <trkpt lat="44.94418" lon="6.49026">
        <ele>2480.34</ele>
        <time>2019-11-30T12:00:14Z</time>
      </trkpt>
      <trkpt lat="44.94418" lon="6.49026">
        <ele>2480.34</ele>
        <time>2019-11-30T12:00:42Z</time>
      </trkpt>
      <trkpt lat="44.94418" lon="6.49024">
        <ele>2480.82</ele>
        <time>2019-11-30T12:01:13Z</time>
      </trkpt>
      <trkpt lat="44.94417" lon="6.49025">
        <ele>2480.82</ele>
        <time>2019-11-30T12:01:37Z</time>
      </trkpt>
      <trkpt lat="44.94417" lon="6.49025">
        <ele>2480.82</ele>
        <time>2019-11-30T12:02:02Z</time>
      </trkpt>
      <trkpt lat="44.94416" lon="6.49025">
        <ele>2480.82</ele>
        <time>2019-11-30T12:02:30Z</time>
      </trkpt>
      <trkpt lat="44.94417" lon="6.49024">
        <ele>2481.3</ele>
        <time>2019-11-30T12:03:01Z</time>
      </trkpt>
      <trkpt lat="44.94418" lon="6.49025">
        <ele>2481.3</ele>
        <time>2019-11-30T12:03:28Z</time>
      </trkpt>
      <trkpt lat="44.94417" lon="6.49025">
        <ele>2481.3</ele>
        <time>2019-11-30T12:03:56Z</time>
      </trkpt>
      <trkpt lat="44.94414" lon="6.49028">
        <ele>2481.3</ele>
        <time>2019-11-30T12:04:28Z</time>
      </trkpt>
      <trkpt lat="44.94414" lon="6.49033">
        <ele>2481.3</ele>
        <time>2019-11-30T12:04:59Z</time>
      </trkpt>
      <trkpt lat="44.94417" lon="6.49029">
        <ele>2481.3</ele>
        <time>2019-11-30T12:05:24Z</time>
      </trkpt>
      <trkpt lat="44.94415" lon="6.4903">
        <ele>2481.78</ele>
        <time>2019-11-30T12:05:54Z</time>
      </trkpt>
      <trkpt lat="44.94419" lon="6.49026">
        <ele>2481.78</ele>
        <time>2019-11-30T12:06:21Z</time>
      </trkpt>
      <trkpt lat="44.94419" lon="6.49028">
        <ele>2481.78</ele>
        <time>2019-11-30T12:06:51Z</time>
      </trkpt>
      <trkpt lat="44.94418" lon="6.49025">
        <ele>2481.78</ele>
        <time>2019-11-30T12:07:32Z</time>
      </trkpt>
      <trkpt lat="44.94418" lon="6.49028">
        <ele>2481.78</ele>
        <time>2019-11-30T12:07:57Z</time>
      </trkpt>
      <trkpt lat="44.94416" lon="6.49028">
        <ele>2481.78</ele>
        <time>2019-11-30T12:08:32Z</time>
      </trkpt>
      <trkpt lat="44.94415" lon="6.49027">
        <ele>2481.78</ele>
        <time>2019-11-30T12:09:05Z</time>
      </trkpt>
      <trkpt lat="44.94415" lon="6.49027">
        <ele>2482.26</ele>
        <time>2019-11-30T12:09:30Z</time>
      </trkpt>
      <trkpt lat="44.94415" lon="6.49031">
        <ele>2482.26</ele>
        <time>2019-11-30T12:09:57Z</time>
      </trkpt>
      <trkpt lat="44.94414" lon="6.49029">
        <ele>2482.26</ele>
        <time>2019-11-30T12:10:18Z</time>
      </trkpt>
      <trkpt lat="44.94416" lon="6.49029">
        <ele>2482.26</ele>
        <time>2019-11-30T12:10:46Z</time>
      </trkpt>
      <trkpt lat="44.94417" lon="6.49024">
        <ele>2482.26</ele>
        <time>2019-11-30T12:11:13Z</time>
      </trkpt>
      <trkpt lat="44.94419" lon="6.49023">
        <ele>2482.26</ele>
        <time>2019-11-30T12:11:36Z</time>
      </trkpt>
      <trkpt lat="44.94418" lon="6.49024">
        <ele>2482.26</ele>
        <time>2019-11-30T12:12:04Z</time>
      </trkpt>
      <trkpt lat="44.94421" lon="6.49023">
        <ele>2482.26</ele>
        <time>2019-11-30T12:12:33Z</time>
      </trkpt>
      <trkpt lat="44.94418" lon="6.49025">
        <ele>2482.74</ele>
        <time>2019-11-30T12:12:54Z</time>
      </trkpt>
      <trkpt lat="44.94417" lon="6.49025">
        <ele>2482.74</ele>
        <time>2019-11-30T12:13:17Z</time>
      </trkpt>
      <trkpt lat="44.94418" lon="6.49026">
        <ele>2482.74</ele>
        <time>2019-11-30T12:13:45Z</time>
      </trkpt>
      <trkpt lat="44.94418" lon="6.49027">
        <ele>2482.74</ele>
        <time>2019-11-30T12:14:08Z</time>
      </trkpt>
      <trkpt lat="44.94416" lon="6.49026">
        <ele>2482.74</ele>
        <time>2019-11-30T12:14:29Z</time>
      </trkpt>
      <trkpt lat="44.94419" lon="6.49023">
        <ele>2482.74</ele>
        <time>2019-11-30T12:14:57Z</time>
      </trkpt>
      <trkpt lat="44.94419" lon="6.49023">
        <ele>2482.74</ele>
        <time>2019-11-30T12:15:29Z</time>
      </trkpt>
      <trkpt lat="44.94421" lon="6.49023">
        <ele>2482.74</ele>
        <time>2019-11-30T12:15:49Z</time>
      </trkpt>
      <trkpt lat="44.9442" lon="6.4902">
        <ele>2483.7</ele>
        <time>2019-11-30T12:16:07Z</time>
      </trkpt>
      <trkpt lat="44.94419" lon="6.4902">
        <ele>2483.22</ele>
        <time>2019-11-30T12:16:22Z</time>
      </trkpt>
      <trkpt lat="44.94422" lon="6.4902">
        <ele>2483.22</ele>
        <time>2019-11-30T12:16:40Z</time>
      </trkpt>
      <trkpt lat="44.94423" lon="6.49019">
        <ele>2483.22</ele>
        <time>2019-11-30T12:17:07Z</time>
      </trkpt>
      <trkpt lat="44.94424" lon="6.4902">
        <ele>2483.22</ele>
        <time>2019-11-30T12:17:24Z</time>
      </trkpt>
      <trkpt lat="44.94424" lon="6.4902">
        <ele>2483.22</ele>
        <time>2019-11-30T12:17:46Z</time>
      </trkpt>
      <trkpt lat="44.94424" lon="6.49016">
        <ele>2483.22</ele>
        <time>2019-11-30T12:17:59Z</time>
      </trkpt>
      <trkpt lat="44.94428" lon="6.49007">
        <ele>2481.3</ele>
        <time>2019-11-30T12:18:04Z</time>
      </trkpt>
      <trkpt lat="44.94435" lon="6.49003">
        <ele>2481.3</ele>
        <time>2019-11-30T12:18:15Z</time>
      </trkpt>
      <trkpt lat="44.94435" lon="6.49003">
        <ele>2481.3</ele>
        <time>2019-11-30T12:18:37Z</time>
      </trkpt>
      <trkpt lat="44.94437" lon="6.49003">
        <ele>2481.3</ele>
        <time>2019-11-30T12:18:55Z</time>
      </trkpt>
      <trkpt lat="44.94439" lon="6.49006">
        <ele>2480.82</ele>
        <time>2019-11-30T12:19:11Z</time>
      </trkpt>
      <trkpt lat="44.94438" lon="6.49005">
        <ele>2480.82</ele>
        <time>2019-11-30T12:19:25Z</time>
      </trkpt>
      <trkpt lat="44.94442" lon="6.49009">
        <ele>2480.82</ele>
        <time>2019-11-30T12:19:45Z</time>
      </trkpt>
      <trkpt lat="44.94448" lon="6.49015">
        <ele>2478.9</ele>
        <time>2019-11-30T12:20:00Z</time>
      </trkpt>
      <trkpt lat="44.94447" lon="6.49016">
        <ele>2478.9</ele>
        <time>2019-11-30T12:20:15Z</time>
      </trkpt>
      <trkpt lat="44.94447" lon="6.49018">
        <ele>2478.42</ele>
        <time>2019-11-30T12:20:20Z</time>
      </trkpt>
      <trkpt lat="44.94452" lon="6.49024">
        <ele>2475.53</ele>
        <time>2019-11-30T12:20:24Z</time>
      </trkpt>
      <trkpt lat="44.94459" lon="6.49032">
        <ele>2470.73</ele>
        <time>2019-11-30T12:20:29Z</time>
      </trkpt>
      <trkpt lat="44.94461" lon="6.49036">
        <ele>2466.4</ele>
        <time>2019-11-30T12:20:31Z</time>
      </trkpt>
      <trkpt lat="44.94461" lon="6.49044">
        <ele>2463.52</ele>
        <time>2019-11-30T12:20:34Z</time>
      </trkpt>
      <trkpt lat="44.94462" lon="6.49042">
        <ele>2463.04</ele>
        <time>2019-11-30T12:20:35Z</time>
      </trkpt>
      <trkpt lat="44.94466" lon="6.49035">
        <ele>2463.04</ele>
        <time>2019-11-30T12:20:51Z</time>
      </trkpt>
      <trkpt lat="44.94464" lon="6.49039">
        <ele>2462.55</ele>
        <time>2019-11-30T12:21:19Z</time>
      </trkpt>
      <trkpt lat="44.94464" lon="6.49039">
        <ele>2462.55</ele>
        <time>2019-11-30T12:21:36Z</time>
      </trkpt>
      <trkpt lat="44.94474" lon="6.4904">
        <ele>2459.67</ele>
        <time>2019-11-30T12:21:40Z</time>
      </trkpt>
      <trkpt lat="44.94484" lon="6.49043">
        <ele>2457.27</ele>
        <time>2019-11-30T12:21:43Z</time>
      </trkpt>
      <trkpt lat="44.94493" lon="6.49049">
        <ele>2454.38</ele>
        <time>2019-11-30T12:21:47Z</time>
      </trkpt>
      <trkpt lat="44.94493" lon="6.49063">
        <ele>2449.58</ele>
        <time>2019-11-30T12:21:50Z</time>
      </trkpt>
      <trkpt lat="44.94498" lon="6.49074">
        <ele>2445.25</ele>
        <time>2019-11-30T12:21:53Z</time>
      </trkpt>
      <trkpt lat="44.945" lon="6.4908">
        <ele>2442.37</ele>
        <time>2019-11-30T12:21:54Z</time>
      </trkpt>
      <trkpt lat="44.94502" lon="6.49089">
        <ele>2438.04</ele>
        <time>2019-11-30T12:21:56Z</time>
      </trkpt>
      <trkpt lat="44.945" lon="6.49097">
        <ele>2435.16</ele>
        <time>2019-11-30T12:22:00Z</time>
      </trkpt>
      <trkpt lat="44.945" lon="6.49098">
        <ele>2435.64</ele>
        <time>2019-11-30T12:22:19Z</time>
      </trkpt>
      <trkpt lat="44.94499" lon="6.49096">
        <ele>2435.64</ele>
        <time>2019-11-30T12:22:43Z</time>
      </trkpt>
      <trkpt lat="44.94495" lon="6.49103">
        <ele>2434.2</ele>
        <time>2019-11-30T12:22:48Z</time>
      </trkpt>
      <trkpt lat="44.94486" lon="6.49109">
        <ele>2430.83</ele>
        <time>2019-11-30T12:22:52Z</time>
      </trkpt>
      <trkpt lat="44.94482" lon="6.49114">
        <ele>2429.39</ele>
        <time>2019-11-30T12:22:54Z</time>
      </trkpt>
      <trkpt lat="44.94486" lon="6.49125">
        <ele>2424.1</ele>
        <time>2019-11-30T12:22:58Z</time>
      </trkpt>
      <trkpt lat="44.9449" lon="6.49132">
        <ele>2418.81</ele>
        <time>2019-11-30T12:23:03Z</time>
      </trkpt>
      <trkpt lat="44.94489" lon="6.4913">
        <ele>2419.3</ele>
        <time>2019-11-30T12:23:21Z</time>
      </trkpt>
      <trkpt lat="44.94489" lon="6.49131">
        <ele>2420.74</ele>
        <time>2019-11-30T12:23:45Z</time>
      </trkpt>
      <trkpt lat="44.9449" lon="6.49131">
        <ele>2419.3</ele>
        <time>2019-11-30T12:23:49Z</time>
      </trkpt>
      <trkpt lat="44.94496" lon="6.49132">
        <ele>2417.85</ele>
        <time>2019-11-30T12:23:52Z</time>
      </trkpt>
      <trkpt lat="44.94499" lon="6.49142">
        <ele>2413.05</ele>
        <time>2019-11-30T12:23:55Z</time>
      </trkpt>
      <trkpt lat="44.94502" lon="6.49144">
        <ele>2410.64</ele>
        <time>2019-11-30T12:23:56Z</time>
      </trkpt>
      <trkpt lat="44.94516" lon="6.49147">
        <ele>2405.84</ele>
        <time>2019-11-30T12:23:59Z</time>
      </trkpt>
      <trkpt lat="44.94529" lon="6.49152">
        <ele>2402.47</ele>
        <time>2019-11-30T12:24:03Z</time>
      </trkpt>
      <trkpt lat="44.9454" lon="6.49158">
        <ele>2398.63</ele>
        <time>2019-11-30T12:24:08Z</time>
      </trkpt>
      <trkpt lat="44.94545" lon="6.49159">
        <ele>2397.18</ele>
        <time>2019-11-30T12:24:10Z</time>
      </trkpt>
      <trkpt lat="44.94545" lon="6.49173">
        <ele>2391.9</ele>
        <time>2019-11-30T12:24:14Z</time>
      </trkpt>
      <trkpt lat="44.94553" lon="6.49181">
        <ele>2388.53</ele>
        <time>2019-11-30T12:24:17Z</time>
      </trkpt>
      <trkpt lat="44.94549" lon="6.49191">
        <ele>2385.17</ele>
        <time>2019-11-30T12:24:20Z</time>
      </trkpt>
      <trkpt lat="44.94552" lon="6.49198">
        <ele>2381.8</ele>
        <time>2019-11-30T12:24:23Z</time>
      </trkpt>
      <trkpt lat="44.94546" lon="6.4921">
        <ele>2377.48</ele>
        <time>2019-11-30T12:24:27Z</time>
      </trkpt>
      <trkpt lat="44.94542" lon="6.4922">
        <ele>2377</ele>
        <time>2019-11-30T12:24:36Z</time>
      </trkpt>
      <trkpt lat="44.94542" lon="6.49224">
        <ele>2376.04</ele>
        <time>2019-11-30T12:24:38Z</time>
      </trkpt>
      <trkpt lat="44.94548" lon="6.49234">
        <ele>2371.71</ele>
        <time>2019-11-30T12:24:41Z</time>
      </trkpt>
      <trkpt lat="44.9455" lon="6.49242">
        <ele>2368.35</ele>
        <time>2019-11-30T12:24:43Z</time>
      </trkpt>
      <trkpt lat="44.94555" lon="6.49248">
        <ele>2365.46</ele>
        <time>2019-11-30T12:24:45Z</time>
      </trkpt>
      <trkpt lat="44.94559" lon="6.49257">
        <ele>2361.62</ele>
        <time>2019-11-30T12:24:47Z</time>
      </trkpt>
      <trkpt lat="44.9457" lon="6.49268">
        <ele>2358.73</ele>
        <time>2019-11-30T12:24:51Z</time>
      </trkpt>
      <trkpt lat="44.94575" lon="6.49272">
        <ele>2356.81</ele>
        <time>2019-11-30T12:24:53Z</time>
      </trkpt>
      <trkpt lat="44.94582" lon="6.49286">
        <ele>2351.04</ele>
        <time>2019-11-30T12:24:57Z</time>
      </trkpt>
      <trkpt lat="44.94587" lon="6.49295">
        <ele>2345.75</ele>
        <time>2019-11-30T12:25:00Z</time>
      </trkpt>
      <trkpt lat="44.9459" lon="6.49304">
        <ele>2341.43</ele>
        <time>2019-11-30T12:25:03Z</time>
      </trkpt>
      <trkpt lat="44.94591" lon="6.49309">
        <ele>2339.02</ele>
        <time>2019-11-30T12:25:04Z</time>
      </trkpt>
      <trkpt lat="44.94584" lon="6.49328">
        <ele>2334.7</ele>
        <time>2019-11-30T12:25:08Z</time>
      </trkpt>
      <trkpt lat="44.94579" lon="6.49333">
        <ele>2333.26</ele>
        <time>2019-11-30T12:25:15Z</time>
      </trkpt>
      <trkpt lat="44.94576" lon="6.4934">
        <ele>2334.22</ele>
        <time>2019-11-30T12:25:30Z</time>
      </trkpt>
      <trkpt lat="44.94586" lon="6.49342">
        <ele>2331.33</ele>
        <time>2019-11-30T12:25:34Z</time>
      </trkpt>
      <trkpt lat="44.94598" lon="6.49341">
        <ele>2327.97</ele>
        <time>2019-11-30T12:25:37Z</time>
      </trkpt>
      <trkpt lat="44.94609" lon="6.49356">
        <ele>2322.68</ele>
        <time>2019-11-30T12:25:42Z</time>
      </trkpt>
      <trkpt lat="44.94613" lon="6.4936">
        <ele>2319.32</ele>
        <time>2019-11-30T12:25:44Z</time>
      </trkpt>
      <trkpt lat="44.94616" lon="6.49359">
        <ele>2318.84</ele>
        <time>2019-11-30T12:25:45Z</time>
      </trkpt>
      <trkpt lat="44.94625" lon="6.4936">
        <ele>2315.95</ele>
        <time>2019-11-30T12:25:48Z</time>
      </trkpt>
      <trkpt lat="44.94631" lon="6.49363">
        <ele>2313.55</ele>
        <time>2019-11-30T12:25:50Z</time>
      </trkpt>
      <trkpt lat="44.94635" lon="6.49379">
        <ele>2307.78</ele>
        <time>2019-11-30T12:25:54Z</time>
      </trkpt>
      <trkpt lat="44.94636" lon="6.49386">
        <ele>2304.9</ele>
        <time>2019-11-30T12:25:56Z</time>
      </trkpt>
      <trkpt lat="44.94635" lon="6.4939">
        <ele>2302.01</ele>
        <time>2019-11-30T12:25:59Z</time>
      </trkpt>
      <trkpt lat="44.94635" lon="6.4939">
        <ele>2302.98</ele>
        <time>2019-11-30T12:26:17Z</time>
      </trkpt>
      <trkpt lat="44.94634" lon="6.49394">
        <ele>2301.53</ele>
        <time>2019-11-30T12:26:39Z</time>
      </trkpt>
      <trkpt lat="44.94636" lon="6.49415">
        <ele>2296.73</ele>
        <time>2019-11-30T12:26:43Z</time>
      </trkpt>
      <trkpt lat="44.94636" lon="6.49419">
        <ele>2293.84</ele>
        <time>2019-11-30T12:26:44Z</time>
      </trkpt>
      <trkpt lat="44.94639" lon="6.49434">
        <ele>2287.11</ele>
        <time>2019-11-30T12:26:47Z</time>
      </trkpt>
      <trkpt lat="44.9464" lon="6.49437">
        <ele>2285.19</ele>
        <time>2019-11-30T12:26:48Z</time>
      </trkpt>
      <trkpt lat="44.94645" lon="6.49448">
        <ele>2279.42</ele>
        <time>2019-11-30T12:26:51Z</time>
      </trkpt>
      <trkpt lat="44.94646" lon="6.49468">
        <ele>2272.21</ele>
        <time>2019-11-30T12:26:54Z</time>
      </trkpt>
      <trkpt lat="44.94648" lon="6.4948">
        <ele>2267.89</ele>
        <time>2019-11-30T12:26:56Z</time>
      </trkpt>
      <trkpt lat="44.94652" lon="6.49487">
        <ele>2266.45</ele>
        <time>2019-11-30T12:27:03Z</time>
      </trkpt>
      <trkpt lat="44.94651" lon="6.49487">
        <ele>2266.45</ele>
        <time>2019-11-30T12:27:21Z</time>
      </trkpt>
      <trkpt lat="44.94652" lon="6.49487">
        <ele>2266.45</ele>
        <time>2019-11-30T12:27:43Z</time>
      </trkpt>
      <trkpt lat="44.94653" lon="6.49486">
        <ele>2265.96</ele>
        <time>2019-11-30T12:28:09Z</time>
      </trkpt>
      <trkpt lat="44.94651" lon="6.49486">
        <ele>2265.96</ele>
        <time>2019-11-30T12:28:28Z</time>
      </trkpt>
      <trkpt lat="44.94651" lon="6.49489">
        <ele>2265.96</ele>
        <time>2019-11-30T12:28:46Z</time>
      </trkpt>
      <trkpt lat="44.94653" lon="6.49504">
        <ele>2262.6</ele>
        <time>2019-11-30T12:28:52Z</time>
      </trkpt>
      <trkpt lat="44.94651" lon="6.49512">
        <ele>2258.75</ele>
        <time>2019-11-30T12:28:54Z</time>
      </trkpt>
      <trkpt lat="44.94652" lon="6.49525">
        <ele>2252.99</ele>
        <time>2019-11-30T12:28:57Z</time>
      </trkpt>
      <trkpt lat="44.94651" lon="6.49528">
        <ele>2250.58</ele>
        <time>2019-11-30T12:28:58Z</time>
      </trkpt>
      <trkpt lat="44.94649" lon="6.49554">
        <ele>2246.26</ele>
        <time>2019-11-30T12:29:03Z</time>
      </trkpt>
      <trkpt lat="44.94647" lon="6.49575">
        <ele>2243.37</ele>
        <time>2019-11-30T12:29:07Z</time>
      </trkpt>
      <trkpt lat="44.94644" lon="6.49594">
        <ele>2239.53</ele>
        <time>2019-11-30T12:29:11Z</time>
      </trkpt>
      <trkpt lat="44.94641" lon="6.49606">
        <ele>2238.57</ele>
        <time>2019-11-30T12:29:14Z</time>
      </trkpt>
      <trkpt lat="44.94642" lon="6.49616">
        <ele>2236.64</ele>
        <time>2019-11-30T12:29:16Z</time>
      </trkpt>
      <trkpt lat="44.94641" lon="6.49636">
        <ele>2231.36</ele>
        <time>2019-11-30T12:29:19Z</time>
      </trkpt>
      <trkpt lat="44.94638" lon="6.49648">
        <ele>2230.4</ele>
        <time>2019-11-30T12:29:21Z</time>
      </trkpt>
      <trkpt lat="44.94637" lon="6.49653">
        <ele>2230.4</ele>
        <time>2019-11-30T12:29:22Z</time>
      </trkpt>
      <trkpt lat="44.94635" lon="6.49677">
        <ele>2226.55</ele>
        <time>2019-11-30T12:29:26Z</time>
      </trkpt>
      <trkpt lat="44.94644" lon="6.497">
        <ele>2223.67</ele>
        <time>2019-11-30T12:29:32Z</time>
      </trkpt>
      <trkpt lat="44.94643" lon="6.4971">
        <ele>2221.74</ele>
        <time>2019-11-30T12:29:35Z</time>
      </trkpt>
      <trkpt lat="44.94646" lon="6.49734">
        <ele>2217.42</ele>
        <time>2019-11-30T12:29:40Z</time>
      </trkpt>
      <trkpt lat="44.94647" lon="6.49752">
        <ele>2213.57</ele>
        <time>2019-11-30T12:29:44Z</time>
      </trkpt>
      <trkpt lat="44.94649" lon="6.4977">
        <ele>2210.21</ele>
        <time>2019-11-30T12:29:47Z</time>
      </trkpt>
      <trkpt lat="44.94647" lon="6.49796">
        <ele>2206.36</ele>
        <time>2019-11-30T12:29:51Z</time>
      </trkpt>
      <trkpt lat="44.94649" lon="6.49806">
        <ele>2204.44</ele>
        <time>2019-11-30T12:29:52Z</time>
      </trkpt>
      <trkpt lat="44.94655" lon="6.49823">
        <ele>2206.84</ele>
        <time>2019-11-30T12:29:56Z</time>
      </trkpt>
      <trkpt lat="44.94656" lon="6.49827">
        <ele>2207.32</ele>
        <time>2019-11-30T12:30:07Z</time>
      </trkpt>
      <trkpt lat="44.94657" lon="6.49827">
        <ele>2207.32</ele>
        <time>2019-11-30T12:30:27Z</time>
      </trkpt>
      <trkpt lat="44.94662" lon="6.49836">
        <ele>2206.36</ele>
        <time>2019-11-30T12:30:42Z</time>
      </trkpt>
      <trkpt lat="44.94673" lon="6.49851">
        <ele>2204.44</ele>
        <time>2019-11-30T12:30:54Z</time>
      </trkpt>
      <trkpt lat="44.94685" lon="6.49872">
        <ele>2201.08</ele>
        <time>2019-11-30T12:31:03Z</time>
      </trkpt>
      <trkpt lat="44.94701" lon="6.4988">
        <ele>2198.19</ele>
        <time>2019-11-30T12:31:15Z</time>
      </trkpt>
      <trkpt lat="44.94716" lon="6.49879">
        <ele>2195.31</ele>
        <time>2019-11-30T12:31:22Z</time>
      </trkpt>
      <trkpt lat="44.94728" lon="6.49892">
        <ele>2192.42</ele>
        <time>2019-11-30T12:31:26Z</time>
      </trkpt>
      <trkpt lat="44.94732" lon="6.49896">
        <ele>2190.98</ele>
        <time>2019-11-30T12:31:27Z</time>
      </trkpt>
      <trkpt lat="44.94738" lon="6.49901">
        <ele>2190.5</ele>
        <time>2019-11-30T12:31:29Z</time>
      </trkpt>
      <trkpt lat="44.94741" lon="6.49904">
        <ele>2190.02</ele>
        <time>2019-11-30T12:31:31Z</time>
      </trkpt>
      <trkpt lat="44.94746" lon="6.49895">
        <ele>2186.18</ele>
        <time>2019-11-30T12:31:38Z</time>
      </trkpt>
      <trkpt lat="44.94759" lon="6.49908">
        <ele>2181.85</ele>
        <time>2019-11-30T12:31:43Z</time>
      </trkpt>
      <trkpt lat="44.94765" lon="6.49915">
        <ele>2180.41</ele>
        <time>2019-11-30T12:31:45Z</time>
      </trkpt>
      <trkpt lat="44.94776" lon="6.49926">
        <ele>2177.04</ele>
        <time>2019-11-30T12:31:48Z</time>
      </trkpt>
      <trkpt lat="44.94786" lon="6.49932">
        <ele>2172.72</ele>
        <time>2019-11-30T12:31:50Z</time>
      </trkpt>
      <trkpt lat="44.94791" lon="6.49937">
        <ele>2170.31</ele>
        <time>2019-11-30T12:31:51Z</time>
      </trkpt>
      <trkpt lat="44.94811" lon="6.49959">
        <ele>2164.06</ele>
        <time>2019-11-30T12:31:54Z</time>
      </trkpt>
      <trkpt lat="44.94817" lon="6.49965">
        <ele>2164.55</ele>
        <time>2019-11-30T12:31:55Z</time>
      </trkpt>
      <trkpt lat="44.94846" lon="6.49992">
        <ele>2166.47</ele>
        <time>2019-11-30T12:32:03Z</time>
      </trkpt>
      <trkpt lat="44.94847" lon="6.49992">
        <ele>2166.47</ele>
        <time>2019-11-30T12:32:04Z</time>
      </trkpt>
      <trkpt lat="44.94851" lon="6.49991">
        <ele>2167.43</ele>
        <time>2019-11-30T12:32:16Z</time>
      </trkpt>
      <trkpt lat="44.94853" lon="6.49993">
        <ele>2168.39</ele>
        <time>2019-11-30T12:32:29Z</time>
      </trkpt>
      <trkpt lat="44.94855" lon="6.49996">
        <ele>2168.87</ele>
        <time>2019-11-30T12:32:40Z</time>
      </trkpt>
      <trkpt lat="44.94857" lon="6.49997">
        <ele>2169.35</ele>
        <time>2019-11-30T12:32:52Z</time>
      </trkpt>
      <trkpt lat="44.9486" lon="6.49998">
        <ele>2169.83</ele>
        <time>2019-11-30T12:33:06Z</time>
      </trkpt>
      <trkpt lat="44.94859" lon="6.49996">
        <ele>2169.83</ele>
        <time>2019-11-30T12:33:27Z</time>
      </trkpt>
      <trkpt lat="44.94863" lon="6.49998">
        <ele>2170.79</ele>
        <time>2019-11-30T12:33:40Z</time>
      </trkpt>
      <trkpt lat="44.94865" lon="6.49998">
        <ele>2171.27</ele>
        <time>2019-11-30T12:33:57Z</time>
      </trkpt>
      <trkpt lat="44.94868" lon="6.50001">
        <ele>2171.76</ele>
        <time>2019-11-30T12:34:09Z</time>
      </trkpt>
      <trkpt lat="44.94871" lon="6.50003">
        <ele>2171.76</ele>
        <time>2019-11-30T12:34:23Z</time>
      </trkpt>
      <trkpt lat="44.94873" lon="6.50003">
        <ele>2172.24</ele>
        <time>2019-11-30T12:34:34Z</time>
      </trkpt>
      <trkpt lat="44.94875" lon="6.50005">
        <ele>2172.72</ele>
        <time>2019-11-30T12:34:45Z</time>
      </trkpt>
      <trkpt lat="44.94878" lon="6.50006">
        <ele>2173.2</ele>
        <time>2019-11-30T12:34:58Z</time>
      </trkpt>
      <trkpt lat="44.9488" lon="6.50007">
        <ele>2173.68</ele>
        <time>2019-11-30T12:35:10Z</time>
      </trkpt>
      <trkpt lat="44.94882" lon="6.50008">
        <ele>2174.16</ele>
        <time>2019-11-30T12:35:22Z</time>
      </trkpt>
      <trkpt lat="44.94886" lon="6.50012">
        <ele>2174.64</ele>
        <time>2019-11-30T12:35:35Z</time>
      </trkpt>
      <trkpt lat="44.94892" lon="6.50012">
        <ele>2175.6</ele>
        <time>2019-11-30T12:35:47Z</time>
      </trkpt>
      <trkpt lat="44.94897" lon="6.50016">
        <ele>2176.08</ele>
        <time>2019-11-30T12:36:00Z</time>
      </trkpt>
      <trkpt lat="44.94892" lon="6.50018">
        <ele>2176.08</ele>
        <time>2019-11-30T12:36:18Z</time>
      </trkpt>
      <trkpt lat="44.94894" lon="6.50019">
        <ele>2176.08</ele>
        <time>2019-11-30T12:36:39Z</time>
      </trkpt>
      <trkpt lat="44.94904" lon="6.50018">
        <ele>2177.04</ele>
        <time>2019-11-30T12:36:53Z</time>
      </trkpt>
      <trkpt lat="44.9491" lon="6.50022">
        <ele>2177.52</ele>
        <time>2019-11-30T12:37:05Z</time>
      </trkpt>
      <trkpt lat="44.94918" lon="6.50024">
        <ele>2178</ele>
        <time>2019-11-30T12:37:18Z</time>
      </trkpt>
      <trkpt lat="44.94923" lon="6.50026">
        <ele>2178</ele>
        <time>2019-11-30T12:37:30Z</time>
      </trkpt>
      <trkpt lat="44.94932" lon="6.5003">
        <ele>2178.48</ele>
        <time>2019-11-30T12:37:44Z</time>
      </trkpt>
      <trkpt lat="44.94942" lon="6.50035">
        <ele>2178.48</ele>
        <time>2019-11-30T12:38:00Z</time>
      </trkpt>
      <trkpt lat="44.9495" lon="6.50038">
        <ele>2178.48</ele>
        <time>2019-11-30T12:38:14Z</time>
      </trkpt>
      <trkpt lat="44.94957" lon="6.50041">
        <ele>2178.48</ele>
        <time>2019-11-30T12:38:28Z</time>
      </trkpt>
      <trkpt lat="44.94963" lon="6.50043">
        <ele>2178.48</ele>
        <time>2019-11-30T12:38:42Z</time>
      </trkpt>
      <trkpt lat="44.94971" lon="6.50046">
        <ele>2178.97</ele>
        <time>2019-11-30T12:38:56Z</time>
      </trkpt>
      <trkpt lat="44.94976" lon="6.50049">
        <ele>2179.45</ele>
        <time>2019-11-30T12:39:08Z</time>
      </trkpt>
      <trkpt lat="44.94983" lon="6.50052">
        <ele>2179.93</ele>
        <time>2019-11-30T12:39:21Z</time>
      </trkpt>
      <trkpt lat="44.94989" lon="6.50058">
        <ele>2180.89</ele>
        <time>2019-11-30T12:39:37Z</time>
      </trkpt>
      <trkpt lat="44.94995" lon="6.50063">
        <ele>2181.37</ele>
        <time>2019-11-30T12:39:50Z</time>
      </trkpt>
      <trkpt lat="44.94998" lon="6.50067">
        <ele>2181.85</ele>
        <time>2019-11-30T12:40:02Z</time>
      </trkpt>
      <trkpt lat="44.94997" lon="6.50067">
        <ele>2181.37</ele>
        <time>2019-11-30T12:40:28Z</time>
      </trkpt>
      <trkpt lat="44.95002" lon="6.50073">
        <ele>2181.85</ele>
        <time>2019-11-30T12:40:45Z</time>
      </trkpt>
      <trkpt lat="44.95008" lon="6.50079">
        <ele>2182.33</ele>
        <time>2019-11-30T12:40:57Z</time>
      </trkpt>
      <trkpt lat="44.95008" lon="6.50085">
        <ele>2182.33</ele>
        <time>2019-11-30T12:41:11Z</time>
      </trkpt>
      <trkpt lat="44.95009" lon="6.50085">
        <ele>2182.33</ele>
        <time>2019-11-30T12:41:33Z</time>
      </trkpt>
      <trkpt lat="44.95005" lon="6.50091">
        <ele>2182.33</ele>
        <time>2019-11-30T12:41:59Z</time>
      </trkpt>
      <trkpt lat="44.95006" lon="6.50089">
        <ele>2181.85</ele>
        <time>2019-11-30T12:42:24Z</time>
      </trkpt>
      <trkpt lat="44.95005" lon="6.50088">
        <ele>2181.85</ele>
        <time>2019-11-30T12:42:51Z</time>
      </trkpt>
      <trkpt lat="44.95006" lon="6.50088">
        <ele>2181.85</ele>
        <time>2019-11-30T12:43:21Z</time>
      </trkpt>
      <trkpt lat="44.95008" lon="6.50085">
        <ele>2181.85</ele>
        <time>2019-11-30T12:43:44Z</time>
      </trkpt>
      <trkpt lat="44.95005" lon="6.50087">
        <ele>2181.85</ele>
        <time>2019-11-30T12:44:07Z</time>
      </trkpt>
      <trkpt lat="44.95006" lon="6.50087">
        <ele>2181.85</ele>
        <time>2019-11-30T12:44:38Z</time>
      </trkpt>
      <trkpt lat="44.95008" lon="6.50085">
        <ele>2181.37</ele>
        <time>2019-11-30T12:45:03Z</time>
      </trkpt>
      <trkpt lat="44.95007" lon="6.50087">
        <ele>2181.37</ele>
        <time>2019-11-30T12:45:30Z</time>
      </trkpt>
      <trkpt lat="44.95007" lon="6.50085">
        <ele>2181.85</ele>
        <time>2019-11-30T12:45:57Z</time>
      </trkpt>
      <trkpt lat="44.95005" lon="6.50086">
        <ele>2181.37</ele>
        <time>2019-11-30T12:46:25Z</time>
      </trkpt>
      <trkpt lat="44.95005" lon="6.50082">
        <ele>2181.37</ele>
        <time>2019-11-30T12:46:48Z</time>
      </trkpt>
      <trkpt lat="44.95003" lon="6.50085">
        <ele>2181.37</ele>
        <time>2019-11-30T12:47:11Z</time>
      </trkpt>
      <trkpt lat="44.95005" lon="6.50085">
        <ele>2181.37</ele>
        <time>2019-11-30T12:47:37Z</time>
      </trkpt>
      <trkpt lat="44.95005" lon="6.50084">
        <ele>2181.37</ele>
        <time>2019-11-30T12:48:09Z</time>
      </trkpt>
      <trkpt lat="44.95002" lon="6.50087">
        <ele>2181.37</ele>
        <time>2019-11-30T12:48:31Z</time>
      </trkpt>
      <trkpt lat="44.95005" lon="6.50085">
        <ele>2181.37</ele>
        <time>2019-11-30T12:49:03Z</time>
      </trkpt>
      <trkpt lat="44.95005" lon="6.50086">
        <ele>2181.37</ele>
        <time>2019-11-30T12:49:35Z</time>
      </trkpt>
      <trkpt lat="44.95003" lon="6.50087">
        <ele>2181.37</ele>
        <time>2019-11-30T12:49:54Z</time>
      </trkpt>
      <trkpt lat="44.95001" lon="6.50091">
        <ele>2180.41</ele>
        <time>2019-11-30T12:50:08Z</time>
      </trkpt>
      <trkpt lat="44.95002" lon="6.50118">
        <ele>2176.56</ele>
        <time>2019-11-30T12:50:19Z</time>
      </trkpt>
      <trkpt lat="44.95003" lon="6.50133">
        <ele>2172.72</ele>
        <time>2019-11-30T12:50:23Z</time>
      </trkpt>
      <trkpt lat="44.95001" lon="6.50146">
        <ele>2169.83</ele>
        <time>2019-11-30T12:50:27Z</time>
      </trkpt>
      <trkpt lat="44.94995" lon="6.50163">
        <ele>2166.47</ele>
        <time>2019-11-30T12:50:31Z</time>
      </trkpt>
      <trkpt lat="44.94995" lon="6.50167">
        <ele>2165.51</ele>
        <time>2019-11-30T12:50:32Z</time>
      </trkpt>
      <trkpt lat="44.95003" lon="6.50174">
        <ele>2165.03</ele>
        <time>2019-11-30T12:50:44Z</time>
      </trkpt>
      <trkpt lat="44.95008" lon="6.50173">
        <ele>2164.55</ele>
        <time>2019-11-30T12:51:05Z</time>
      </trkpt>
      <trkpt lat="44.95014" lon="6.50174">
        <ele>2162.62</ele>
        <time>2019-11-30T12:51:23Z</time>
      </trkpt>
      <trkpt lat="44.95029" lon="6.50181">
        <ele>2159.74</ele>
        <time>2019-11-30T12:51:30Z</time>
      </trkpt>
      <trkpt lat="44.95037" lon="6.50191">
        <ele>2156.37</ele>
        <time>2019-11-30T12:51:35Z</time>
      </trkpt>
      <trkpt lat="44.95042" lon="6.50199">
        <ele>2153.01</ele>
        <time>2019-11-30T12:51:40Z</time>
      </trkpt>
      <trkpt lat="44.95042" lon="6.50211">
        <ele>2149.16</ele>
        <time>2019-11-30T12:51:43Z</time>
      </trkpt>
      <trkpt lat="44.9504" lon="6.50223">
        <ele>2146.28</ele>
        <time>2019-11-30T12:51:45Z</time>
      </trkpt>
      <trkpt lat="44.9504" lon="6.50227">
        <ele>2144.84</ele>
        <time>2019-11-30T12:51:46Z</time>
      </trkpt>
      <trkpt lat="44.95041" lon="6.50236">
        <ele>2143.4</ele>
        <time>2019-11-30T12:51:47Z</time>
      </trkpt>
      <trkpt lat="44.95043" lon="6.50247">
        <ele>2141.95</ele>
        <time>2019-11-30T12:51:50Z</time>
      </trkpt>
      <trkpt lat="44.95074" lon="6.5023">
        <ele>2138.11</ele>
        <time>2019-11-30T12:51:56Z</time>
      </trkpt>
      <trkpt lat="44.95081" lon="6.50227">
        <ele>2137.15</ele>
        <time>2019-11-30T12:51:58Z</time>
      </trkpt>
      <trkpt lat="44.95095" lon="6.50227">
        <ele>2132.34</ele>
        <time>2019-11-30T12:52:03Z</time>
      </trkpt>
      <trkpt lat="44.95093" lon="6.5023">
        <ele>2131.38</ele>
        <time>2019-11-30T12:52:05Z</time>
      </trkpt>
      <trkpt lat="44.95091" lon="6.50231">
        <ele>2131.38</ele>
        <time>2019-11-30T12:52:06Z</time>
      </trkpt>
      <trkpt lat="44.95092" lon="6.50242">
        <ele>2126.57</ele>
        <time>2019-11-30T12:52:11Z</time>
      </trkpt>
      <trkpt lat="44.95093" lon="6.50245">
        <ele>2125.61</ele>
        <time>2019-11-30T12:52:12Z</time>
      </trkpt>
      <trkpt lat="44.95099" lon="6.50249">
        <ele>2122.25</ele>
        <time>2019-11-30T12:52:15Z</time>
      </trkpt>
      <trkpt lat="44.95112" lon="6.50242">
        <ele>2121.77</ele>
        <time>2019-11-30T12:52:29Z</time>
      </trkpt>
      <trkpt lat="44.95109" lon="6.50241">
        <ele>2121.77</ele>
        <time>2019-11-30T12:52:54Z</time>
      </trkpt>
      <trkpt lat="44.95114" lon="6.50241">
        <ele>2120.32</ele>
        <time>2019-11-30T12:53:21Z</time>
      </trkpt>
      <trkpt lat="44.9512" lon="6.50246">
        <ele>2116.48</ele>
        <time>2019-11-30T12:53:24Z</time>
      </trkpt>
      <trkpt lat="44.95126" lon="6.5025">
        <ele>2112.63</ele>
        <time>2019-11-30T12:53:27Z</time>
      </trkpt>
      <trkpt lat="44.95131" lon="6.50255">
        <ele>2109.75</ele>
        <time>2019-11-30T12:53:29Z</time>
      </trkpt>
      <trkpt lat="44.95135" lon="6.50255">
        <ele>2108.31</ele>
        <time>2019-11-30T12:53:30Z</time>
      </trkpt>
      <trkpt lat="44.95143" lon="6.50261">
        <ele>2103.98</ele>
        <time>2019-11-30T12:53:33Z</time>
      </trkpt>
      <trkpt lat="44.95146" lon="6.50262">
        <ele>2102.54</ele>
        <time>2019-11-30T12:53:34Z</time>
      </trkpt>
      <trkpt lat="44.95152" lon="6.50269">
        <ele>2098.21</ele>
        <time>2019-11-30T12:53:37Z</time>
      </trkpt>
      <trkpt lat="44.9516" lon="6.5028">
        <ele>2093.89</ele>
        <time>2019-11-30T12:53:40Z</time>
      </trkpt>
      <trkpt lat="44.95161" lon="6.50285">
        <ele>2091</ele>
        <time>2019-11-30T12:53:41Z</time>
      </trkpt>
      <trkpt lat="44.95167" lon="6.50307">
        <ele>2089.08</ele>
        <time>2019-11-30T12:53:44Z</time>
      </trkpt>
      <trkpt lat="44.95165" lon="6.50315">
        <ele>2089.08</ele>
        <time>2019-11-30T12:53:50Z</time>
      </trkpt>
      <trkpt lat="44.95165" lon="6.50311">
        <ele>2089.08</ele>
        <time>2019-11-30T12:54:09Z</time>
      </trkpt>
      <trkpt lat="44.95169" lon="6.50309">
        <ele>2089.08</ele>
        <time>2019-11-30T12:54:30Z</time>
      </trkpt>
      <trkpt lat="44.9517" lon="6.50305">
        <ele>2089.08</ele>
        <time>2019-11-30T12:54:48Z</time>
      </trkpt>
      <trkpt lat="44.9517" lon="6.50305">
        <ele>2089.08</ele>
        <time>2019-11-30T12:55:13Z</time>
      </trkpt>
      <trkpt lat="44.9517" lon="6.50306">
        <ele>2089.08</ele>
        <time>2019-11-30T12:55:21Z</time>
      </trkpt>
      <trkpt lat="44.95171" lon="6.50313">
        <ele>2088.12</ele>
        <time>2019-11-30T12:55:28Z</time>
      </trkpt>
      <trkpt lat="44.95183" lon="6.50318">
        <ele>2083.79</ele>
        <time>2019-11-30T12:55:34Z</time>
      </trkpt>
      <trkpt lat="44.9519" lon="6.50323">
        <ele>2079.47</ele>
        <time>2019-11-30T12:55:37Z</time>
      </trkpt>
      <trkpt lat="44.9519" lon="6.50321">
        <ele>2079.47</ele>
        <time>2019-11-30T12:55:51Z</time>
      </trkpt>
      <trkpt lat="44.95191" lon="6.5032">
        <ele>2079.47</ele>
        <time>2019-11-30T12:55:52Z</time>
      </trkpt>
      <trkpt lat="44.95199" lon="6.50323">
        <ele>2076.59</ele>
        <time>2019-11-30T12:55:56Z</time>
      </trkpt>
      <trkpt lat="44.95207" lon="6.50329">
        <ele>2072.74</ele>
        <time>2019-11-30T12:55:59Z</time>
      </trkpt>
      <trkpt lat="44.95212" lon="6.50333">
        <ele>2067.93</ele>
        <time>2019-11-30T12:56:01Z</time>
      </trkpt>
      <trkpt lat="44.95217" lon="6.50335">
        <ele>2064.57</ele>
        <time>2019-11-30T12:56:03Z</time>
      </trkpt>
      <trkpt lat="44.95222" lon="6.50338">
        <ele>2062.17</ele>
        <time>2019-11-30T12:56:05Z</time>
      </trkpt>
      <trkpt lat="44.95238" lon="6.50346">
        <ele>2055.44</ele>
        <time>2019-11-30T12:56:10Z</time>
      </trkpt>
      <trkpt lat="44.95248" lon="6.50352">
        <ele>2051.11</ele>
        <time>2019-11-30T12:56:13Z</time>
      </trkpt>
      <trkpt lat="44.95255" lon="6.50361">
        <ele>2047.75</ele>
        <time>2019-11-30T12:56:16Z</time>
      </trkpt>
      <trkpt lat="44.95263" lon="6.50361">
        <ele>2044.38</ele>
        <time>2019-11-30T12:56:20Z</time>
      </trkpt>
      <trkpt lat="44.95265" lon="6.50365">
        <ele>2042.94</ele>
        <time>2019-11-30T12:56:21Z</time>
      </trkpt>
      <trkpt lat="44.95266" lon="6.50368">
        <ele>2041.02</ele>
        <time>2019-11-30T12:56:24Z</time>
      </trkpt>
      <trkpt lat="44.95272" lon="6.50366">
        <ele>2042.46</ele>
        <time>2019-11-30T12:56:50Z</time>
      </trkpt>
      <trkpt lat="44.95271" lon="6.50368">
        <ele>2041.98</ele>
        <time>2019-11-30T12:57:18Z</time>
      </trkpt>
      <trkpt lat="44.95273" lon="6.50367">
        <ele>2041.98</ele>
        <time>2019-11-30T12:57:29Z</time>
      </trkpt>
      <trkpt lat="44.95282" lon="6.5037">
        <ele>2039.57</ele>
        <time>2019-11-30T12:57:33Z</time>
      </trkpt>
      <trkpt lat="44.95294" lon="6.50379">
        <ele>2033.81</ele>
        <time>2019-11-30T12:57:38Z</time>
      </trkpt>
      <trkpt lat="44.95302" lon="6.5038">
        <ele>2029.48</ele>
        <time>2019-11-30T12:57:41Z</time>
      </trkpt>
      <trkpt lat="44.95307" lon="6.50388">
        <ele>2026.12</ele>
        <time>2019-11-30T12:57:43Z</time>
      </trkpt>
      <trkpt lat="44.95323" lon="6.50398">
        <ele>2020.35</ele>
        <time>2019-11-30T12:57:47Z</time>
      </trkpt>
      <trkpt lat="44.95331" lon="6.50403">
        <ele>2016.98</ele>
        <time>2019-11-30T12:57:49Z</time>
      </trkpt>
      <trkpt lat="44.95336" lon="6.50411">
        <ele>2014.1</ele>
        <time>2019-11-30T12:57:51Z</time>
      </trkpt>
      <trkpt lat="44.95352" lon="6.50412">
        <ele>2008.81</ele>
        <time>2019-11-30T12:57:55Z</time>
      </trkpt>
      <trkpt lat="44.9536" lon="6.50423">
        <ele>2004.97</ele>
        <time>2019-11-30T12:57:58Z</time>
      </trkpt>
      <trkpt lat="44.95365" lon="6.50434">
        <ele>2001.6</ele>
        <time>2019-11-30T12:58:00Z</time>
      </trkpt>
      <trkpt lat="44.95367" lon="6.50448">
        <ele>1999.2</ele>
        <time>2019-11-30T12:58:02Z</time>
      </trkpt>
      <trkpt lat="44.9537" lon="6.50457">
        <ele>1997.28</ele>
        <time>2019-11-30T12:58:04Z</time>
      </trkpt>
      <trkpt lat="44.95372" lon="6.50461">
        <ele>1994.87</ele>
        <time>2019-11-30T12:58:05Z</time>
      </trkpt>
      <trkpt lat="44.95379" lon="6.50472">
        <ele>1991.03</ele>
        <time>2019-11-30T12:58:08Z</time>
      </trkpt>
      <trkpt lat="44.95397" lon="6.50478">
        <ele>1985.26</ele>
        <time>2019-11-30T12:58:12Z</time>
      </trkpt>
      <trkpt lat="44.95408" lon="6.50477">
        <ele>1981.9</ele>
        <time>2019-11-30T12:58:15Z</time>
      </trkpt>
      <trkpt lat="44.95411" lon="6.50481">
        <ele>1980.45</ele>
        <time>2019-11-30T12:58:16Z</time>
      </trkpt>
      <trkpt lat="44.9541" lon="6.50487">
        <ele>1979.49</ele>
        <time>2019-11-30T12:58:24Z</time>
      </trkpt>
      <trkpt lat="44.95401" lon="6.50488">
        <ele>1979.97</ele>
        <time>2019-11-30T12:58:43Z</time>
      </trkpt>
      <trkpt lat="44.95398" lon="6.50488">
        <ele>1980.45</ele>
        <time>2019-11-30T12:59:04Z</time>
      </trkpt>
      <trkpt lat="44.954" lon="6.50489">
        <ele>1980.45</ele>
        <time>2019-11-30T12:59:14Z</time>
      </trkpt>
      <trkpt lat="44.95414" lon="6.50498">
        <ele>1975.65</ele>
        <time>2019-11-30T12:59:18Z</time>
      </trkpt>
      <trkpt lat="44.95432" lon="6.50517">
        <ele>1968.92</ele>
        <time>2019-11-30T12:59:23Z</time>
      </trkpt>
      <trkpt lat="44.9544" lon="6.50522">
        <ele>1966.51</ele>
        <time>2019-11-30T12:59:25Z</time>
      </trkpt>
      <trkpt lat="44.95446" lon="6.5053">
        <ele>1964.11</ele>
        <time>2019-11-30T12:59:27Z</time>
      </trkpt>
      <trkpt lat="44.95455" lon="6.50541">
        <ele>1962.67</ele>
        <time>2019-11-30T12:59:30Z</time>
      </trkpt>
      <trkpt lat="44.95462" lon="6.50543">
        <ele>1961.71</ele>
        <time>2019-11-30T12:59:32Z</time>
      </trkpt>
      <trkpt lat="44.95465" lon="6.50546">
        <ele>1960.75</ele>
        <time>2019-11-30T12:59:34Z</time>
      </trkpt>
      <trkpt lat="44.95462" lon="6.50541">
        <ele>1960.27</ele>
        <time>2019-11-30T12:59:46Z</time>
      </trkpt>
      <trkpt lat="44.95462" lon="6.5054">
        <ele>1960.27</ele>
        <time>2019-11-30T13:00:13Z</time>
      </trkpt>
      <trkpt lat="44.95461" lon="6.50537">
        <ele>1960.75</ele>
        <time>2019-11-30T13:00:38Z</time>
      </trkpt>
      <trkpt lat="44.95473" lon="6.50542">
        <ele>1957.86</ele>
        <time>2019-11-30T13:00:50Z</time>
      </trkpt>
      <trkpt lat="44.95484" lon="6.50543">
        <ele>1955.94</ele>
        <time>2019-11-30T13:00:53Z</time>
      </trkpt>
      <trkpt lat="44.955" lon="6.50558">
        <ele>1951.13</ele>
        <time>2019-11-30T13:00:58Z</time>
      </trkpt>
      <trkpt lat="44.95506" lon="6.50563">
        <ele>1950.17</ele>
        <time>2019-11-30T13:01:00Z</time>
      </trkpt>
      <trkpt lat="44.95519" lon="6.50577">
        <ele>1945.85</ele>
        <time>2019-11-30T13:01:04Z</time>
      </trkpt>
      <trkpt lat="44.95522" lon="6.50584">
        <ele>1942.96</ele>
        <time>2019-11-30T13:01:05Z</time>
      </trkpt>
      <trkpt lat="44.95536" lon="6.50593">
        <ele>1939.6</ele>
        <time>2019-11-30T13:01:09Z</time>
      </trkpt>
      <trkpt lat="44.95549" lon="6.50598">
        <ele>1934.31</ele>
        <time>2019-11-30T13:01:13Z</time>
      </trkpt>
      <trkpt lat="44.95551" lon="6.50602">
        <ele>1934.31</ele>
        <time>2019-11-30T13:01:14Z</time>
      </trkpt>
      <trkpt lat="44.95559" lon="6.50609">
        <ele>1930.95</ele>
        <time>2019-11-30T13:01:17Z</time>
      </trkpt>
      <trkpt lat="44.95569" lon="6.50611">
        <ele>1926.62</ele>
        <time>2019-11-30T13:01:20Z</time>
      </trkpt>
      <trkpt lat="44.95572" lon="6.50614">
        <ele>1926.14</ele>
        <time>2019-11-30T13:01:21Z</time>
      </trkpt>
      <trkpt lat="44.95586" lon="6.50624">
        <ele>1921.81</ele>
        <time>2019-11-30T13:01:25Z</time>
      </trkpt>
      <trkpt lat="44.95596" lon="6.50629">
        <ele>1917.97</ele>
        <time>2019-11-30T13:01:28Z</time>
      </trkpt>
      <trkpt lat="44.95603" lon="6.5063">
        <ele>1916.04</ele>
        <time>2019-11-30T13:01:30Z</time>
      </trkpt>
      <trkpt lat="44.95613" lon="6.50628">
        <ele>1913.16</ele>
        <time>2019-11-30T13:01:33Z</time>
      </trkpt>
      <trkpt lat="44.9561" lon="6.50621">
        <ele>1912.68</ele>
        <time>2019-11-30T13:01:39Z</time>
      </trkpt>
      <trkpt lat="44.95609" lon="6.50617">
        <ele>1913.16</ele>
        <time>2019-11-30T13:02:01Z</time>
      </trkpt>
      <trkpt lat="44.95606" lon="6.50616">
        <ele>1913.16</ele>
        <time>2019-11-30T13:02:31Z</time>
      </trkpt>
      <trkpt lat="44.95607" lon="6.50616">
        <ele>1913.64</ele>
        <time>2019-11-30T13:02:56Z</time>
      </trkpt>
      <trkpt lat="44.95607" lon="6.50619">
        <ele>1913.64</ele>
        <time>2019-11-30T13:03:24Z</time>
      </trkpt>
      <trkpt lat="44.95612" lon="6.50625">
        <ele>1912.68</ele>
        <time>2019-11-30T13:03:39Z</time>
      </trkpt>
      <trkpt lat="44.95625" lon="6.50636">
        <ele>1909.32</ele>
        <time>2019-11-30T13:03:43Z</time>
      </trkpt>
      <trkpt lat="44.95633" lon="6.50636">
        <ele>1904.51</ele>
        <time>2019-11-30T13:03:45Z</time>
      </trkpt>
      <trkpt lat="44.95644" lon="6.50644">
        <ele>1901.14</ele>
        <time>2019-11-30T13:03:48Z</time>
      </trkpt>
      <trkpt lat="44.9565" lon="6.50644">
        <ele>1898.26</ele>
        <time>2019-11-30T13:03:50Z</time>
      </trkpt>
      <trkpt lat="44.95661" lon="6.50645">
        <ele>1893.45</ele>
        <time>2019-11-30T13:03:53Z</time>
      </trkpt>
      <trkpt lat="44.95674" lon="6.50646">
        <ele>1890.09</ele>
        <time>2019-11-30T13:03:56Z</time>
      </trkpt>
      <trkpt lat="44.95685" lon="6.50643">
        <ele>1886.24</ele>
        <time>2019-11-30T13:03:59Z</time>
      </trkpt>
      <trkpt lat="44.95691" lon="6.50636">
        <ele>1885.76</ele>
        <time>2019-11-30T13:04:01Z</time>
      </trkpt>
      <trkpt lat="44.95703" lon="6.50637">
        <ele>1882.4</ele>
        <time>2019-11-30T13:04:05Z</time>
      </trkpt>
      <trkpt lat="44.95713" lon="6.50643">
        <ele>1878.55</ele>
        <time>2019-11-30T13:04:08Z</time>
      </trkpt>
      <trkpt lat="44.9572" lon="6.50642">
        <ele>1875.67</ele>
        <time>2019-11-30T13:04:11Z</time>
      </trkpt>
      <trkpt lat="44.95726" lon="6.50646">
        <ele>1870.86</ele>
        <time>2019-11-30T13:04:15Z</time>
      </trkpt>
      <trkpt lat="44.95736" lon="6.50643">
        <ele>1864.61</ele>
        <time>2019-11-30T13:04:20Z</time>
      </trkpt>
      <trkpt lat="44.95738" lon="6.50647">
        <ele>1864.13</ele>
        <time>2019-11-30T13:04:21Z</time>
      </trkpt>
      <trkpt lat="44.95741" lon="6.50652">
        <ele>1862.21</ele>
        <time>2019-11-30T13:04:23Z</time>
      </trkpt>
      <trkpt lat="44.95751" lon="6.50658">
        <ele>1857.4</ele>
        <time>2019-11-30T13:04:26Z</time>
      </trkpt>
      <trkpt lat="44.95757" lon="6.50666">
        <ele>1856.92</ele>
        <time>2019-11-30T13:04:28Z</time>
      </trkpt>
      <trkpt lat="44.95766" lon="6.50666">
        <ele>1855</ele>
        <time>2019-11-30T13:04:30Z</time>
      </trkpt>
      <trkpt lat="44.9578" lon="6.50671">
        <ele>1850.68</ele>
        <time>2019-11-30T13:04:33Z</time>
      </trkpt>
      <trkpt lat="44.95784" lon="6.50677">
        <ele>1849.71</ele>
        <time>2019-11-30T13:04:34Z</time>
      </trkpt>
      <trkpt lat="44.95792" lon="6.50698">
        <ele>1847.79</ele>
        <time>2019-11-30T13:04:38Z</time>
      </trkpt>
      <trkpt lat="44.95807" lon="6.50706">
        <ele>1845.39</ele>
        <time>2019-11-30T13:04:43Z</time>
      </trkpt>
      <trkpt lat="44.958" lon="6.5071">
        <ele>1845.39</ele>
        <time>2019-11-30T13:04:54Z</time>
      </trkpt>
      <trkpt lat="44.95798" lon="6.50712">
        <ele>1845.87</ele>
        <time>2019-11-30T13:05:15Z</time>
      </trkpt>
      <trkpt lat="44.95798" lon="6.50709">
        <ele>1845.87</ele>
        <time>2019-11-30T13:05:39Z</time>
      </trkpt>
      <trkpt lat="44.95798" lon="6.50706">
        <ele>1846.35</ele>
        <time>2019-11-30T13:06:02Z</time>
      </trkpt>
      <trkpt lat="44.95797" lon="6.50708">
        <ele>1845.87</ele>
        <time>2019-11-30T13:06:25Z</time>
      </trkpt>
      <trkpt lat="44.95797" lon="6.50705">
        <ele>1845.87</ele>
        <time>2019-11-30T13:06:46Z</time>
      </trkpt>
      <trkpt lat="44.95802" lon="6.50706">
        <ele>1845.87</ele>
        <time>2019-11-30T13:07:07Z</time>
      </trkpt>
      <trkpt lat="44.95812" lon="6.50705">
        <ele>1842.98</ele>
        <time>2019-11-30T13:07:13Z</time>
      </trkpt>
      <trkpt lat="44.95822" lon="6.5071">
        <ele>1839.62</ele>
        <time>2019-11-30T13:07:17Z</time>
      </trkpt>
      <trkpt lat="44.95829" lon="6.50709">
        <ele>1836.26</ele>
        <time>2019-11-30T13:07:20Z</time>
      </trkpt>
      <trkpt lat="44.95833" lon="6.50715">
        <ele>1834.81</ele>
        <time>2019-11-30T13:07:22Z</time>
      </trkpt>
      <trkpt lat="44.95836" lon="6.5071">
        <ele>1833.37</ele>
        <time>2019-11-30T13:07:24Z</time>
      </trkpt>
      <trkpt lat="44.95837" lon="6.50708">
        <ele>1832.89</ele>
        <time>2019-11-30T13:07:25Z</time>
      </trkpt>
      <trkpt lat="44.95842" lon="6.50694">
        <ele>1830.97</ele>
        <time>2019-11-30T13:07:30Z</time>
      </trkpt>
      <trkpt lat="44.95847" lon="6.50701">
        <ele>1827.12</ele>
        <time>2019-11-30T13:07:33Z</time>
      </trkpt>
      <trkpt lat="44.95847" lon="6.50706">
        <ele>1827.6</ele>
        <time>2019-11-30T13:07:34Z</time>
      </trkpt>
      <trkpt lat="44.95848" lon="6.50709">
        <ele>1826.16</ele>
        <time>2019-11-30T13:07:35Z</time>
      </trkpt>
      <trkpt lat="44.95855" lon="6.50711">
        <ele>1821.35</ele>
        <time>2019-11-30T13:07:39Z</time>
      </trkpt>
      <trkpt lat="44.95855" lon="6.5072">
        <ele>1820.87</ele>
        <time>2019-11-30T13:07:46Z</time>
      </trkpt>
      <trkpt lat="44.95857" lon="6.50725">
        <ele>1820.87</ele>
        <time>2019-11-30T13:08:05Z</time>
      </trkpt>
      <trkpt lat="44.95858" lon="6.50724">
        <ele>1821.35</ele>
        <time>2019-11-30T13:08:29Z</time>
      </trkpt>
      <trkpt lat="44.95858" lon="6.50729">
        <ele>1819.91</ele>
        <time>2019-11-30T13:08:32Z</time>
      </trkpt>
      <trkpt lat="44.95873" lon="6.5073">
        <ele>1816.07</ele>
        <time>2019-11-30T13:08:37Z</time>
      </trkpt>
      <trkpt lat="44.95888" lon="6.50737">
        <ele>1812.7</ele>
        <time>2019-11-30T13:08:41Z</time>
      </trkpt>
      <trkpt lat="44.95893" lon="6.50739">
        <ele>1811.74</ele>
        <time>2019-11-30T13:08:42Z</time>
      </trkpt>
      <trkpt lat="44.95919" lon="6.50749">
        <ele>1806.94</ele>
        <time>2019-11-30T13:08:48Z</time>
      </trkpt>
      <trkpt lat="44.9594" lon="6.50761">
        <ele>1803.57</ele>
        <time>2019-11-30T13:08:54Z</time>
      </trkpt>
      <trkpt lat="44.95953" lon="6.50769">
        <ele>1801.17</ele>
        <time>2019-11-30T13:09:02Z</time>
      </trkpt>
      <trkpt lat="44.95953" lon="6.50771">
        <ele>1801.65</ele>
        <time>2019-11-30T13:09:20Z</time>
      </trkpt>
      <trkpt lat="44.95953" lon="6.50769">
        <ele>1801.65</ele>
        <time>2019-11-30T13:09:43Z</time>
      </trkpt>
      <trkpt lat="44.95951" lon="6.50774">
        <ele>1802.13</ele>
        <time>2019-11-30T13:10:06Z</time>
      </trkpt>
      <trkpt lat="44.9595" lon="6.50778">
        <ele>1801.65</ele>
        <time>2019-11-30T13:10:20Z</time>
      </trkpt>
      <trkpt lat="44.95962" lon="6.50778">
        <ele>1798.28</ele>
        <time>2019-11-30T13:10:26Z</time>
      </trkpt>
      <trkpt lat="44.9596" lon="6.50777">
        <ele>1798.76</ele>
        <time>2019-11-30T13:10:32Z</time>
      </trkpt>
      <trkpt lat="44.95966" lon="6.5078">
        <ele>1795.88</ele>
        <time>2019-11-30T13:10:36Z</time>
      </trkpt>
      <trkpt lat="44.95975" lon="6.50778">
        <ele>1792.03</ele>
        <time>2019-11-30T13:10:40Z</time>
      </trkpt>
      <trkpt lat="44.95978" lon="6.50784">
        <ele>1790.59</ele>
        <time>2019-11-30T13:10:42Z</time>
      </trkpt>
      <trkpt lat="44.95979" lon="6.50787">
        <ele>1788.19</ele>
        <time>2019-11-30T13:10:43Z</time>
      </trkpt>
      <trkpt lat="44.95979" lon="6.50798">
        <ele>1785.79</ele>
        <time>2019-11-30T13:10:46Z</time>
      </trkpt>
      <trkpt lat="44.95978" lon="6.50802">
        <ele>1786.75</ele>
        <time>2019-11-30T13:10:50Z</time>
      </trkpt>
      <trkpt lat="44.9598" lon="6.50804">
        <ele>1786.27</ele>
        <time>2019-11-30T13:11:02Z</time>
      </trkpt>
      <trkpt lat="44.95995" lon="6.50794">
        <ele>1782.9</ele>
        <time>2019-11-30T13:11:07Z</time>
      </trkpt>
      <trkpt lat="44.95999" lon="6.50801">
        <ele>1780.02</ele>
        <time>2019-11-30T13:11:09Z</time>
      </trkpt>
      <trkpt lat="44.96002" lon="6.50803">
        <ele>1779.54</ele>
        <time>2019-11-30T13:11:10Z</time>
      </trkpt>
      <trkpt lat="44.96016" lon="6.50814">
        <ele>1774.25</ele>
        <time>2019-11-30T13:11:14Z</time>
      </trkpt>
      <trkpt lat="44.96033" lon="6.50827">
        <ele>1769.92</ele>
        <time>2019-11-30T13:11:19Z</time>
      </trkpt>
      <trkpt lat="44.96044" lon="6.50833">
        <ele>1766.56</ele>
        <time>2019-11-30T13:11:22Z</time>
      </trkpt>
      <trkpt lat="44.96058" lon="6.50849">
        <ele>1761.75</ele>
        <time>2019-11-30T13:11:26Z</time>
      </trkpt>
      <trkpt lat="44.96067" lon="6.50853">
        <ele>1759.83</ele>
        <time>2019-11-30T13:11:28Z</time>
      </trkpt>
      <trkpt lat="44.96074" lon="6.50857">
        <ele>1758.39</ele>
        <time>2019-11-30T13:11:30Z</time>
      </trkpt>
      <trkpt lat="44.96081" lon="6.5086">
        <ele>1756.47</ele>
        <time>2019-11-30T13:11:32Z</time>
      </trkpt>
      <trkpt lat="44.96087" lon="6.50859">
        <ele>1755.5</ele>
        <time>2019-11-30T13:11:33Z</time>
      </trkpt>
      <trkpt lat="44.96129" lon="6.50868">
        <ele>1755.5</ele>
        <time>2019-11-30T13:11:47Z</time>
      </trkpt>
      <trkpt lat="44.96072" lon="6.50847">
        <ele>1755.5</ele>
        <time>2019-11-30T13:11:56Z</time>
      </trkpt>
      <trkpt lat="44.96074" lon="6.50853">
        <ele>1755.5</ele>
        <time>2019-11-30T13:12:18Z</time>
      </trkpt>
      <trkpt lat="44.96076" lon="6.50852">
        <ele>1755.5</ele>
        <time>2019-11-30T13:12:32Z</time>
      </trkpt>
      <trkpt lat="44.96081" lon="6.50851">
        <ele>1752.62</ele>
        <time>2019-11-30T13:12:35Z</time>
      </trkpt>
      <trkpt lat="44.96085" lon="6.50851">
        <ele>1751.66</ele>
        <time>2019-11-30T13:12:36Z</time>
      </trkpt>
      <trkpt lat="44.96092" lon="6.50855">
        <ele>1748.29</ele>
        <time>2019-11-30T13:12:38Z</time>
      </trkpt>
      <trkpt lat="44.96106" lon="6.5086">
        <ele>1743.49</ele>
        <time>2019-11-30T13:12:42Z</time>
      </trkpt>
      <trkpt lat="44.96114" lon="6.50875">
        <ele>1739.16</ele>
        <time>2019-11-30T13:12:45Z</time>
      </trkpt>
      <trkpt lat="44.9612" lon="6.50881">
        <ele>1736.28</ele>
        <time>2019-11-30T13:12:47Z</time>
      </trkpt>
      <trkpt lat="44.96128" lon="6.50885">
        <ele>1732.91</ele>
        <time>2019-11-30T13:12:50Z</time>
      </trkpt>
      <trkpt lat="44.96134" lon="6.50888">
        <ele>1730.03</ele>
        <time>2019-11-30T13:12:54Z</time>
      </trkpt>
      <trkpt lat="44.96139" lon="6.50892">
        <ele>1726.18</ele>
        <time>2019-11-30T13:12:57Z</time>
      </trkpt>
      <trkpt lat="44.96141" lon="6.509">
        <ele>1724.26</ele>
        <time>2019-11-30T13:13:00Z</time>
      </trkpt>
      <trkpt lat="44.96146" lon="6.509">
        <ele>1720.42</ele>
        <time>2019-11-30T13:13:03Z</time>
      </trkpt>
      <trkpt lat="44.96149" lon="6.50901">
        <ele>1718.97</ele>
        <time>2019-11-30T13:13:04Z</time>
      </trkpt>
      <trkpt lat="44.96158" lon="6.50898">
        <ele>1715.13</ele>
        <time>2019-11-30T13:13:08Z</time>
      </trkpt>
      <trkpt lat="44.96161" lon="6.50898">
        <ele>1714.65</ele>
        <time>2019-11-30T13:13:09Z</time>
      </trkpt>
      <trkpt lat="44.96172" lon="6.50903">
        <ele>1709.36</ele>
        <time>2019-11-30T13:13:13Z</time>
      </trkpt>
      <trkpt lat="44.96177" lon="6.50903">
        <ele>1707.44</ele>
        <time>2019-11-30T13:13:14Z</time>
      </trkpt>
      <trkpt lat="44.96173" lon="6.50899">
        <ele>1705.52</ele>
        <time>2019-11-30T13:13:21Z</time>
      </trkpt>
      <trkpt lat="44.96181" lon="6.50898">
        <ele>1702.15</ele>
        <time>2019-11-30T13:13:26Z</time>
      </trkpt>
      <trkpt lat="44.96188" lon="6.5089">
        <ele>1698.79</ele>
        <time>2019-11-30T13:13:29Z</time>
      </trkpt>
      <trkpt lat="44.96192" lon="6.50882">
        <ele>1697.83</ele>
        <time>2019-11-30T13:13:31Z</time>
      </trkpt>
      <trkpt lat="44.962" lon="6.50889">
        <ele>1694.46</ele>
        <time>2019-11-30T13:13:34Z</time>
      </trkpt>
      <trkpt lat="44.96203" lon="6.50889">
        <ele>1693.98</ele>
        <time>2019-11-30T13:13:35Z</time>
      </trkpt>
      <trkpt lat="44.96215" lon="6.50888">
        <ele>1693.5</ele>
        <time>2019-11-30T13:13:44Z</time>
      </trkpt>
      <trkpt lat="44.96215" lon="6.50887">
        <ele>1693.5</ele>
        <time>2019-11-30T13:14:03Z</time>
      </trkpt>
      <trkpt lat="44.96216" lon="6.50887">
        <ele>1693.02</ele>
        <time>2019-11-30T13:14:17Z</time>
      </trkpt>
      <trkpt lat="44.9622" lon="6.5089">
        <ele>1692.54</ele>
        <time>2019-11-30T13:14:32Z</time>
      </trkpt>
      <trkpt lat="44.96216" lon="6.50888">
        <ele>1692.54</ele>
        <time>2019-11-30T13:14:56Z</time>
      </trkpt>
      <trkpt lat="44.96218" lon="6.50887">
        <ele>1693.02</ele>
        <time>2019-11-30T13:15:21Z</time>
      </trkpt>
      <trkpt lat="44.96219" lon="6.50889">
        <ele>1693.02</ele>
        <time>2019-11-30T13:15:42Z</time>
      </trkpt>
      <trkpt lat="44.96221" lon="6.50887">
        <ele>1692.54</ele>
        <time>2019-11-30T13:15:55Z</time>
      </trkpt>
      <trkpt lat="44.96222" lon="6.50886">
        <ele>1692.54</ele>
        <time>2019-11-30T13:16:18Z</time>
      </trkpt>
      <trkpt lat="44.96223" lon="6.50899">
        <ele>1689.17</ele>
        <time>2019-11-30T13:16:21Z</time>
      </trkpt>
      <trkpt lat="44.96221" lon="6.5091">
        <ele>1687.25</ele>
        <time>2019-11-30T13:16:23Z</time>
      </trkpt>
      <trkpt lat="44.96223" lon="6.50914">
        <ele>1687.25</ele>
        <time>2019-11-30T13:16:24Z</time>
      </trkpt>
      <trkpt lat="44.96236" lon="6.50926">
        <ele>1681</ele>
        <time>2019-11-30T13:16:29Z</time>
      </trkpt>
      <trkpt lat="44.96244" lon="6.5093">
        <ele>1677.16</ele>
        <time>2019-11-30T13:16:31Z</time>
      </trkpt>
      <trkpt lat="44.96247" lon="6.50934">
        <ele>1676.68</ele>
        <time>2019-11-30T13:16:32Z</time>
      </trkpt>
      <trkpt lat="44.96252" lon="6.5093">
        <ele>1675.23</ele>
        <time>2019-11-30T13:16:34Z</time>
      </trkpt>
      <trkpt lat="44.9626" lon="6.50938">
        <ele>1670.43</ele>
        <time>2019-11-30T13:16:38Z</time>
      </trkpt>
      <trkpt lat="44.96272" lon="6.50959">
        <ele>1667.06</ele>
        <time>2019-11-30T13:16:42Z</time>
      </trkpt>
      <trkpt lat="44.96274" lon="6.50962">
        <ele>1666.58</ele>
        <time>2019-11-30T13:16:43Z</time>
      </trkpt>
      <trkpt lat="44.9628" lon="6.50969">
        <ele>1665.14</ele>
        <time>2019-11-30T13:16:48Z</time>
      </trkpt>
      <trkpt lat="44.96283" lon="6.50969">
        <ele>1665.14</ele>
        <time>2019-11-30T13:17:09Z</time>
      </trkpt>
      <trkpt lat="44.96285" lon="6.50965">
        <ele>1665.14</ele>
        <time>2019-11-30T13:17:31Z</time>
      </trkpt>
      <trkpt lat="44.96286" lon="6.50963">
        <ele>1665.62</ele>
        <time>2019-11-30T13:17:52Z</time>
      </trkpt>
      <trkpt lat="44.96283" lon="6.50964">
        <ele>1665.14</ele>
        <time>2019-11-30T13:18:13Z</time>
      </trkpt>
      <trkpt lat="44.96285" lon="6.50962">
        <ele>1665.14</ele>
        <time>2019-11-30T13:18:34Z</time>
      </trkpt>
      <trkpt lat="44.96295" lon="6.50977">
        <ele>1662.74</ele>
        <time>2019-11-30T13:18:46Z</time>
      </trkpt>
      <trkpt lat="44.96297" lon="6.5098">
        <ele>1661.78</ele>
        <time>2019-11-30T13:18:48Z</time>
      </trkpt>
      <trkpt lat="44.96304" lon="6.50971">
        <ele>1659.85</ele>
        <time>2019-11-30T13:18:52Z</time>
      </trkpt>
      <trkpt lat="44.96306" lon="6.50972">
        <ele>1656.49</ele>
        <time>2019-11-30T13:18:54Z</time>
      </trkpt>
      <trkpt lat="44.96318" lon="6.50964">
        <ele>1652.64</ele>
        <time>2019-11-30T13:18:59Z</time>
      </trkpt>
      <trkpt lat="44.96327" lon="6.50958">
        <ele>1649.76</ele>
        <time>2019-11-30T13:19:02Z</time>
      </trkpt>
      <trkpt lat="44.96338" lon="6.5096">
        <ele>1645.91</ele>
        <time>2019-11-30T13:19:06Z</time>
      </trkpt>
      <trkpt lat="44.96349" lon="6.50966">
        <ele>1642.07</ele>
        <time>2019-11-30T13:19:10Z</time>
      </trkpt>
      <trkpt lat="44.96357" lon="6.50969">
        <ele>1638.7</ele>
        <time>2019-11-30T13:19:13Z</time>
      </trkpt>
      <trkpt lat="44.96372" lon="6.5097">
        <ele>1633.9</ele>
        <time>2019-11-30T13:19:18Z</time>
      </trkpt>
      <trkpt lat="44.96383" lon="6.50969">
        <ele>1630.53</ele>
        <time>2019-11-30T13:19:23Z</time>
      </trkpt>
      <trkpt lat="44.96385" lon="6.50964">
        <ele>1630.53</ele>
        <time>2019-11-30T13:19:25Z</time>
      </trkpt>
      <trkpt lat="44.96389" lon="6.50961">
        <ele>1629.57</ele>
        <time>2019-11-30T13:19:27Z</time>
      </trkpt>
      <trkpt lat="44.96396" lon="6.50969">
        <ele>1625.73</ele>
        <time>2019-11-30T13:19:31Z</time>
      </trkpt>
      <trkpt lat="44.96404" lon="6.50963">
        <ele>1622.36</ele>
        <time>2019-11-30T13:19:34Z</time>
      </trkpt>
      <trkpt lat="44.96406" lon="6.50962">
        <ele>1622.36</ele>
        <time>2019-11-30T13:19:35Z</time>
      </trkpt>
      <trkpt lat="44.96412" lon="6.50973">
        <ele>1618.52</ele>
        <time>2019-11-30T13:19:39Z</time>
      </trkpt>
      <trkpt lat="44.96409" lon="6.50973">
        <ele>1618.52</ele>
        <time>2019-11-30T13:19:47Z</time>
      </trkpt>
      <trkpt lat="44.96408" lon="6.50972">
        <ele>1618.52</ele>
        <time>2019-11-30T13:20:00Z</time>
      </trkpt>
      <trkpt lat="44.96404" lon="6.5098">
        <ele>1618.52</ele>
        <time>2019-11-30T13:20:22Z</time>
      </trkpt>
      <trkpt lat="44.96408" lon="6.5098">
        <ele>1618.04</ele>
        <time>2019-11-30T13:20:44Z</time>
      </trkpt>
      <trkpt lat="44.9641" lon="6.50984">
        <ele>1617.56</ele>
        <time>2019-11-30T13:20:47Z</time>
      </trkpt>
      <trkpt lat="44.96421" lon="6.50988">
        <ele>1613.71</ele>
        <time>2019-11-30T13:20:51Z</time>
      </trkpt>
      <trkpt lat="44.96421" lon="6.50997">
        <ele>1611.79</ele>
        <time>2019-11-30T13:20:53Z</time>
      </trkpt>
      <trkpt lat="44.96419" lon="6.51007">
        <ele>1611.31</ele>
        <time>2019-11-30T13:20:56Z</time>
      </trkpt>
      <trkpt lat="44.96424" lon="6.5102">
        <ele>1606.02</ele>
        <time>2019-11-30T13:21:02Z</time>
      </trkpt>
      <trkpt lat="44.96434" lon="6.51008">
        <ele>1602.66</ele>
        <time>2019-11-30T13:21:05Z</time>
      </trkpt>
      <trkpt lat="44.96448" lon="6.51005">
        <ele>1599.77</ele>
        <time>2019-11-30T13:21:10Z</time>
      </trkpt>
      <trkpt lat="44.96451" lon="6.51004">
        <ele>1599.29</ele>
        <time>2019-11-30T13:21:11Z</time>
      </trkpt>
      <trkpt lat="44.96456" lon="6.51007">
        <ele>1598.33</ele>
        <time>2019-11-30T13:21:21Z</time>
      </trkpt>
      <trkpt lat="44.96458" lon="6.51009">
        <ele>1598.33</ele>
        <time>2019-11-30T13:21:46Z</time>
      </trkpt>
      <trkpt lat="44.96457" lon="6.51008">
        <ele>1598.33</ele>
        <time>2019-11-30T13:22:14Z</time>
      </trkpt>
      <trkpt lat="44.9647" lon="6.51">
        <ele>1595.93</ele>
        <time>2019-11-30T13:22:19Z</time>
      </trkpt>
      <trkpt lat="44.9648" lon="6.50987">
        <ele>1594</ele>
        <time>2019-11-30T13:22:23Z</time>
      </trkpt>
      <trkpt lat="44.9649" lon="6.50965">
        <ele>1590.64</ele>
        <time>2019-11-30T13:22:27Z</time>
      </trkpt>
      <trkpt lat="44.96491" lon="6.50959">
        <ele>1590.64</ele>
        <time>2019-11-30T13:22:28Z</time>
      </trkpt>
      <trkpt lat="44.96494" lon="6.50957">
        <ele>1590.64</ele>
        <time>2019-11-30T13:22:35Z</time>
      </trkpt>
      <trkpt lat="44.96497" lon="6.50958">
        <ele>1590.64</ele>
        <time>2019-11-30T13:22:56Z</time>
      </trkpt>
      <trkpt lat="44.96493" lon="6.50958">
        <ele>1590.64</ele>
        <time>2019-11-30T13:23:15Z</time>
      </trkpt>
      <trkpt lat="44.96494" lon="6.50948">
        <ele>1588.72</ele>
        <time>2019-11-30T13:23:18Z</time>
      </trkpt>
      <trkpt lat="44.96495" lon="6.50942">
        <ele>1585.35</ele>
        <time>2019-11-30T13:23:20Z</time>
      </trkpt>
      <trkpt lat="44.96495" lon="6.50928">
        <ele>1581.99</ele>
        <time>2019-11-30T13:23:23Z</time>
      </trkpt>
      <trkpt lat="44.96498" lon="6.50922">
        <ele>1578.14</ele>
        <time>2019-11-30T13:23:25Z</time>
      </trkpt>
      <trkpt lat="44.96498" lon="6.50917">
        <ele>1578.14</ele>
        <time>2019-11-30T13:23:26Z</time>
      </trkpt>
      <trkpt lat="44.96499" lon="6.50914">
        <ele>1576.7</ele>
        <time>2019-11-30T13:23:27Z</time>
      </trkpt>
      <trkpt lat="44.96501" lon="6.50912">
        <ele>1574.78</ele>
        <time>2019-11-30T13:23:28Z</time>
      </trkpt>
      <trkpt lat="44.96505" lon="6.50901">
        <ele>1569.97</ele>
        <time>2019-11-30T13:23:31Z</time>
      </trkpt>
      <trkpt lat="44.9651" lon="6.50895">
        <ele>1565.64</ele>
        <time>2019-11-30T13:23:33Z</time>
      </trkpt>
      <trkpt lat="44.96514" lon="6.5089">
        <ele>1561.32</ele>
        <time>2019-11-30T13:23:35Z</time>
      </trkpt>
      <trkpt lat="44.96522" lon="6.5088">
        <ele>1556.51</ele>
        <time>2019-11-30T13:23:38Z</time>
      </trkpt>
      <trkpt lat="44.96538" lon="6.50877">
        <ele>1552.19</ele>
        <time>2019-11-30T13:23:42Z</time>
      </trkpt>
      <trkpt lat="44.96558" lon="6.50893">
        <ele>1550.74</ele>
        <time>2019-11-30T13:23:50Z</time>
      </trkpt>
      <trkpt lat="44.96566" lon="6.50907">
        <ele>1552.19</ele>
        <time>2019-11-30T13:24:07Z</time>
      </trkpt>
      <trkpt lat="44.96567" lon="6.50908">
        <ele>1551.71</ele>
        <time>2019-11-30T13:24:23Z</time>
      </trkpt>
      <trkpt lat="44.96568" lon="6.50908">
        <ele>1551.71</ele>
        <time>2019-11-30T13:24:41Z</time>
      </trkpt>
      <trkpt lat="44.9657" lon="6.50909">
        <ele>1551.71</ele>
        <time>2019-11-30T13:25:00Z</time>
      </trkpt>
      <trkpt lat="44.96574" lon="6.50907">
        <ele>1551.71</ele>
        <time>2019-11-30T13:25:28Z</time>
      </trkpt>
      <trkpt lat="44.96574" lon="6.50908">
        <ele>1551.71</ele>
        <time>2019-11-30T13:25:50Z</time>
      </trkpt>
      <trkpt lat="44.96585" lon="6.50907">
        <ele>1550.74</ele>
        <time>2019-11-30T13:25:54Z</time>
      </trkpt>
      <trkpt lat="44.96614" lon="6.50915">
        <ele>1545.94</ele>
        <time>2019-11-30T13:26:01Z</time>
      </trkpt>
      <trkpt lat="44.9663" lon="6.50911">
        <ele>1547.38</ele>
        <time>2019-11-30T13:26:07Z</time>
      </trkpt>
      <trkpt lat="44.96644" lon="6.50929">
        <ele>1541.13</ele>
        <time>2019-11-30T13:26:12Z</time>
      </trkpt>
      <trkpt lat="44.96655" lon="6.50937">
        <ele>1537.77</ele>
        <time>2019-11-30T13:26:16Z</time>
      </trkpt>
      <trkpt lat="44.96665" lon="6.50938">
        <ele>1537.29</ele>
        <time>2019-11-30T13:26:21Z</time>
      </trkpt>
      <trkpt lat="44.96681" lon="6.50937">
        <ele>1532</ele>
        <time>2019-11-30T13:26:26Z</time>
      </trkpt>
      <trkpt lat="44.96691" lon="6.5093">
        <ele>1531.04</ele>
        <time>2019-11-30T13:26:28Z</time>
      </trkpt>
      <trkpt lat="44.96721" lon="6.5093">
        <ele>1526.23</ele>
        <time>2019-11-30T13:26:35Z</time>
      </trkpt>
      <trkpt lat="44.96734" lon="6.50927">
        <ele>1522.87</ele>
        <time>2019-11-30T13:26:37Z</time>
      </trkpt>
      <trkpt lat="44.96747" lon="6.50927">
        <ele>1520.46</ele>
        <time>2019-11-30T13:26:39Z</time>
      </trkpt>
      <trkpt lat="44.96763" lon="6.50921">
        <ele>1518.06</ele>
        <time>2019-11-30T13:26:41Z</time>
      </trkpt>
      <trkpt lat="44.96781" lon="6.50915">
        <ele>1515.66</ele>
        <time>2019-11-30T13:26:44Z</time>
      </trkpt>
      <trkpt lat="44.96809" lon="6.50911">
        <ele>1511.33</ele>
        <time>2019-11-30T13:26:50Z</time>
      </trkpt>
      <trkpt lat="44.9683" lon="6.50909">
        <ele>1508.93</ele>
        <time>2019-11-30T13:26:56Z</time>
      </trkpt>
      <trkpt lat="44.96834" lon="6.50907">
        <ele>1508.45</ele>
        <time>2019-11-30T13:26:57Z</time>
      </trkpt>
      <trkpt lat="44.96843" lon="6.50896">
        <ele>1508.93</ele>
        <time>2019-11-30T13:27:06Z</time>
      </trkpt>
      <trkpt lat="44.96846" lon="6.50883">
        <ele>1507</ele>
        <time>2019-11-30T13:27:10Z</time>
      </trkpt>
      <trkpt lat="44.96847" lon="6.50863">
        <ele>1504.6</ele>
        <time>2019-11-30T13:27:14Z</time>
      </trkpt>
      <trkpt lat="44.96858" lon="6.50863">
        <ele>1504.6</ele>
        <time>2019-11-30T13:27:21Z</time>
      </trkpt>
      <trkpt lat="44.96863" lon="6.50863">
        <ele>1504.12</ele>
        <time>2019-11-30T13:27:33Z</time>
      </trkpt>
      <trkpt lat="44.96863" lon="6.50862">
        <ele>1504.12</ele>
        <time>2019-11-30T13:27:52Z</time>
      </trkpt>
      <trkpt lat="44.96864" lon="6.50863">
        <ele>1504.12</ele>
        <time>2019-11-30T13:28:13Z</time>
      </trkpt>
      <trkpt lat="44.96863" lon="6.50863">
        <ele>1504.12</ele>
        <time>2019-11-30T13:28:36Z</time>
      </trkpt>
      <trkpt lat="44.96864" lon="6.50862">
        <ele>1504.12</ele>
        <time>2019-11-30T13:28:49Z</time>
      </trkpt>
      <trkpt lat="44.96874" lon="6.50857">
        <ele>1500.76</ele>
        <time>2019-11-30T13:28:53Z</time>
      </trkpt>
      <trkpt lat="44.96899" lon="6.50843">
        <ele>1497.87</ele>
        <time>2019-11-30T13:28:59Z</time>
      </trkpt>
      <trkpt lat="44.96909" lon="6.50845">
        <ele>1496.43</ele>
        <time>2019-11-30T13:29:03Z</time>
      </trkpt>
      <trkpt lat="44.96931" lon="6.50842">
        <ele>1493.55</ele>
        <time>2019-11-30T13:29:08Z</time>
      </trkpt>
      <trkpt lat="44.96955" lon="6.50823">
        <ele>1490.18</ele>
        <time>2019-11-30T13:29:14Z</time>
      </trkpt>
      <trkpt lat="44.96973" lon="6.50824">
        <ele>1487.78</ele>
        <time>2019-11-30T13:29:20Z</time>
      </trkpt>
      <trkpt lat="44.96984" lon="6.50826">
        <ele>1486.82</ele>
        <time>2019-11-30T13:29:23Z</time>
      </trkpt>
      <trkpt lat="44.96992" lon="6.50833">
        <ele>1485.85</ele>
        <time>2019-11-30T13:29:25Z</time>
      </trkpt>
      <trkpt lat="44.97003" lon="6.50837">
        <ele>1485.85</ele>
        <time>2019-11-30T13:29:28Z</time>
      </trkpt>
      <trkpt lat="44.9702" lon="6.50833">
        <ele>1482.97</ele>
        <time>2019-11-30T13:29:34Z</time>
      </trkpt>
      <trkpt lat="44.97035" lon="6.5083">
        <ele>1480.57</ele>
        <time>2019-11-30T13:29:38Z</time>
      </trkpt>
      <trkpt lat="44.97057" lon="6.50823">
        <ele>1478.65</ele>
        <time>2019-11-30T13:29:43Z</time>
      </trkpt>
      <trkpt lat="44.97061" lon="6.50821">
        <ele>1477.68</ele>
        <time>2019-11-30T13:29:44Z</time>
      </trkpt>
      <trkpt lat="44.97076" lon="6.50819">
        <ele>1476.24</ele>
        <time>2019-11-30T13:29:47Z</time>
      </trkpt>
      <trkpt lat="44.97106" lon="6.50833">
        <ele>1474.8</ele>
        <time>2019-11-30T13:29:58Z</time>
      </trkpt>
      <trkpt lat="44.97123" lon="6.50826">
        <ele>1474.32</ele>
        <time>2019-11-30T13:30:11Z</time>
      </trkpt>
      <trkpt lat="44.9713" lon="6.50824">
        <ele>1474.32</ele>
        <time>2019-11-30T13:30:23Z</time>
      </trkpt>
      <trkpt lat="44.9714" lon="6.50819">
        <ele>1474.32</ele>
        <time>2019-11-30T13:30:37Z</time>
      </trkpt>
      <trkpt lat="44.97152" lon="6.50822">
        <ele>1474.8</ele>
        <time>2019-11-30T13:30:51Z</time>
      </trkpt>
      <trkpt lat="44.97163" lon="6.50821">
        <ele>1474.8</ele>
        <time>2019-11-30T13:31:05Z</time>
      </trkpt>
      <trkpt lat="44.97176" lon="6.50824">
        <ele>1474.32</ele>
        <time>2019-11-30T13:31:19Z</time>
      </trkpt>
      <trkpt lat="44.97185" lon="6.50833">
        <ele>1474.32</ele>
        <time>2019-11-30T13:31:34Z</time>
      </trkpt>
      <trkpt lat="44.97198" lon="6.50838">
        <ele>1474.32</ele>
        <time>2019-11-30T13:31:50Z</time>
      </trkpt>
      <trkpt lat="44.97199" lon="6.50844">
        <ele>1474.32</ele>
        <time>2019-11-30T13:32:08Z</time>
      </trkpt>
      <trkpt lat="44.97199" lon="6.50845">
        <ele>1473.84</ele>
        <time>2019-11-30T13:32:23Z</time>
      </trkpt>
      <trkpt lat="44.97198" lon="6.50843">
        <ele>1473.36</ele>
        <time>2019-11-30T13:32:38Z</time>
      </trkpt>
      <trkpt lat="44.97199" lon="6.50843">
        <ele>1473.84</ele>
        <time>2019-11-30T13:32:58Z</time>
      </trkpt>
      <trkpt lat="44.97198" lon="6.50843">
        <ele>1473.84</ele>
        <time>2019-11-30T13:33:17Z</time>
      </trkpt>
      <trkpt lat="44.97199" lon="6.50842">
        <ele>1473.84</ele>
        <time>2019-11-30T13:33:38Z</time>
      </trkpt>
      <trkpt lat="44.972" lon="6.50847">
        <ele>1473.84</ele>
        <time>2019-11-30T13:33:45Z</time>
      </trkpt>
      <trkpt lat="44.97201" lon="6.50855">
        <ele>1473.84</ele>
        <time>2019-11-30T13:34:00Z</time>
      </trkpt>
      <trkpt lat="44.97199" lon="6.50856">
        <ele>1473.84</ele>
        <time>2019-11-30T13:34:14Z</time>
      </trkpt>
      <trkpt lat="44.97199" lon="6.50857">
        <ele>1473.84</ele>
        <time>2019-11-30T13:34:29Z</time>
      </trkpt>
      <trkpt lat="44.97199" lon="6.50859">
        <ele>1473.84</ele>
        <time>2019-11-30T13:34:43Z</time>
      </trkpt>
      <trkpt lat="44.97197" lon="6.50859">
        <ele>1473.84</ele>
        <time>2019-11-30T13:34:58Z</time>
      </trkpt>
      <trkpt lat="44.97198" lon="6.50858">
        <ele>1473.84</ele>
        <time>2019-11-30T13:35:08Z</time>
      </trkpt>
      <trkpt lat="44.97198" lon="6.50855">
        <ele>1473.84</ele>
        <time>2019-11-30T13:35:20Z</time>
      </trkpt>
    </trkseg>
  </trk>
</gpx>